<?xml version="1.0" encoding="UTF-8" standalone="no" ?>
<gpx xmlns="http://www.topografix.com/GPX/1/1" xmlns:xsi="http://www.w3.org/2001/XMLSchema-instance" xsi:schemaLocation="http://www.topografix.com/GPX/1/1 http://www.topografix.com/GPX/1/1/gpx.xsd" version="1.1" creator="VisuGPX - https://www.visugpx.com">
  <metadata>
    <name>2020-06-01 Château de Salm et chatte pendue en famille</name>
  </metadata>
  <trk>
    <name><![CDATA[2020-06-01 château de Salm et chatte pendue en famille]]></name>
    <trkseg>
      <trkpt lat="48.4562" lon="7.14968">
        <ele>637</ele>
        <time>2020-06-01T09:21:58.999Z</time>
      </trkpt>
      <trkpt lat="48.45611" lon="7.14969">
        <ele>637</ele>
        <time>2020-06-01T09:22:13.999Z</time>
      </trkpt>
      <trkpt lat="48.45612" lon="7.14954">
        <ele>637</ele>
        <time>2020-06-01T09:22:57.999Z</time>
      </trkpt>
      <trkpt lat="48.4561" lon="7.1494">
        <ele>637</ele>
        <time>2020-06-01T09:23:08.999Z</time>
      </trkpt>
      <trkpt lat="48.45609" lon="7.14926">
        <ele>637</ele>
        <time>2020-06-01T09:23:17.999Z</time>
      </trkpt>
      <trkpt lat="48.45607" lon="7.14912">
        <ele>637</ele>
        <time>2020-06-01T09:23:26.999Z</time>
      </trkpt>
      <trkpt lat="48.45605" lon="7.14899">
        <ele>637</ele>
        <time>2020-06-01T09:23:35.999Z</time>
      </trkpt>
      <trkpt lat="48.45599" lon="7.14887">
        <ele>637</ele>
        <time>2020-06-01T09:23:44.999Z</time>
      </trkpt>
      <trkpt lat="48.45593" lon="7.14876">
        <ele>637</ele>
        <time>2020-06-01T09:23:52.999Z</time>
      </trkpt>
      <trkpt lat="48.45585" lon="7.14869">
        <ele>638</ele>
        <time>2020-06-01T09:23:59.999Z</time>
      </trkpt>
      <trkpt lat="48.45576" lon="7.14863">
        <ele>637</ele>
        <time>2020-06-01T09:24:10.999Z</time>
      </trkpt>
      <trkpt lat="48.45567" lon="7.14858">
        <ele>637</ele>
        <time>2020-06-01T09:24:21.999Z</time>
      </trkpt>
      <trkpt lat="48.45559" lon="7.14852">
        <ele>637</ele>
        <time>2020-06-01T09:24:29.999Z</time>
      </trkpt>
      <trkpt lat="48.4555" lon="7.14845">
        <ele>637</ele>
        <time>2020-06-01T09:24:36.999Z</time>
      </trkpt>
      <trkpt lat="48.45541" lon="7.14838">
        <ele>637</ele>
        <time>2020-06-01T09:24:43.999Z</time>
      </trkpt>
      <trkpt lat="48.45533" lon="7.1483">
        <ele>642</ele>
        <time>2020-06-01T09:24:50.999Z</time>
      </trkpt>
      <trkpt lat="48.45524" lon="7.14826">
        <ele>642</ele>
        <time>2020-06-01T09:25:01.999Z</time>
      </trkpt>
      <trkpt lat="48.45514" lon="7.14824">
        <ele>641</ele>
        <time>2020-06-01T09:25:20.999Z</time>
      </trkpt>
      <trkpt lat="48.45505" lon="7.14827">
        <ele>640</ele>
        <time>2020-06-01T09:25:37.999Z</time>
      </trkpt>
      <trkpt lat="48.45498" lon="7.14837">
        <ele>637</ele>
        <time>2020-06-01T09:25:51.999Z</time>
      </trkpt>
      <trkpt lat="48.45491" lon="7.14827">
        <ele>641</ele>
        <time>2020-06-01T09:26:20.000Z</time>
      </trkpt>
      <trkpt lat="48.45484" lon="7.14819">
        <ele>642</ele>
        <time>2020-06-01T09:26:29.000Z</time>
      </trkpt>
      <trkpt lat="48.45476" lon="7.1481">
        <ele>644</ele>
        <time>2020-06-01T09:26:35.000Z</time>
      </trkpt>
      <trkpt lat="48.45469" lon="7.14802">
        <ele>645</ele>
        <time>2020-06-01T09:26:43.000Z</time>
      </trkpt>
      <trkpt lat="48.4546" lon="7.14794">
        <ele>646</ele>
        <time>2020-06-01T09:26:52.000Z</time>
      </trkpt>
      <trkpt lat="48.45451" lon="7.14791">
        <ele>646</ele>
        <time>2020-06-01T09:27:16.000Z</time>
      </trkpt>
      <trkpt lat="48.45443" lon="7.14781">
        <ele>647</ele>
        <time>2020-06-01T09:27:27.000Z</time>
      </trkpt>
      <trkpt lat="48.45438" lon="7.14769">
        <ele>649</ele>
        <time>2020-06-01T09:27:35.000Z</time>
      </trkpt>
      <trkpt lat="48.45432" lon="7.14759">
        <ele>652</ele>
        <time>2020-06-01T09:27:45.000Z</time>
      </trkpt>
      <trkpt lat="48.45424" lon="7.1475">
        <ele>658</ele>
        <time>2020-06-01T09:27:53.000Z</time>
      </trkpt>
      <trkpt lat="48.45417" lon="7.1474">
        <ele>659</ele>
        <time>2020-06-01T09:28:04.000Z</time>
      </trkpt>
      <trkpt lat="48.45412" lon="7.14726">
        <ele>657</ele>
        <time>2020-06-01T09:28:16.000Z</time>
      </trkpt>
      <trkpt lat="48.4541" lon="7.14713">
        <ele>658</ele>
        <time>2020-06-01T09:28:28.000Z</time>
      </trkpt>
      <trkpt lat="48.45405" lon="7.147">
        <ele>659</ele>
        <time>2020-06-01T09:28:36.000Z</time>
      </trkpt>
      <trkpt lat="48.45399" lon="7.14689">
        <ele>660</ele>
        <time>2020-06-01T09:28:41.000Z</time>
      </trkpt>
      <trkpt lat="48.45396" lon="7.14674">
        <ele>661</ele>
        <time>2020-06-01T09:29:03.000Z</time>
      </trkpt>
      <trkpt lat="48.45391" lon="7.14661">
        <ele>667</ele>
        <time>2020-06-01T09:29:16.000Z</time>
      </trkpt>
      <trkpt lat="48.45386" lon="7.1465">
        <ele>667</ele>
        <time>2020-06-01T09:29:24.000Z</time>
      </trkpt>
      <trkpt lat="48.45379" lon="7.14641">
        <ele>667</ele>
        <time>2020-06-01T09:29:31.000Z</time>
      </trkpt>
      <trkpt lat="48.45373" lon="7.14629">
        <ele>667</ele>
        <time>2020-06-01T09:29:44.000Z</time>
      </trkpt>
      <trkpt lat="48.45366" lon="7.14618">
        <ele>667</ele>
        <time>2020-06-01T09:29:50.000Z</time>
      </trkpt>
      <trkpt lat="48.45374" lon="7.14625">
        <ele>668</ele>
        <time>2020-06-01T09:30:17.000Z</time>
      </trkpt>
      <trkpt lat="48.4538" lon="7.14614">
        <ele>669</ele>
        <time>2020-06-01T09:30:26.000Z</time>
      </trkpt>
      <trkpt lat="48.45388" lon="7.14607">
        <ele>671</ele>
        <time>2020-06-01T09:30:35.000Z</time>
      </trkpt>
      <trkpt lat="48.45387" lon="7.14592">
        <ele>672</ele>
        <time>2020-06-01T09:30:48.000Z</time>
      </trkpt>
      <trkpt lat="48.45384" lon="7.14579">
        <ele>681</ele>
        <time>2020-06-01T09:30:58.000Z</time>
      </trkpt>
      <trkpt lat="48.45381" lon="7.14566">
        <ele>681</ele>
        <time>2020-06-01T09:31:06.000Z</time>
      </trkpt>
      <trkpt lat="48.45377" lon="7.14553">
        <ele>682</ele>
        <time>2020-06-01T09:31:17.000Z</time>
      </trkpt>
      <trkpt lat="48.45373" lon="7.14541">
        <ele>683</ele>
        <time>2020-06-01T09:31:28.000Z</time>
      </trkpt>
      <trkpt lat="48.45364" lon="7.14533">
        <ele>683</ele>
        <time>2020-06-01T09:31:36.000Z</time>
      </trkpt>
      <trkpt lat="48.45356" lon="7.14527">
        <ele>684</ele>
        <time>2020-06-01T09:31:46.000Z</time>
      </trkpt>
      <trkpt lat="48.45349" lon="7.14517">
        <ele>685</ele>
        <time>2020-06-01T09:32:01.000Z</time>
      </trkpt>
      <trkpt lat="48.45344" lon="7.14503">
        <ele>686</ele>
        <time>2020-06-01T09:32:13.000Z</time>
      </trkpt>
      <trkpt lat="48.45343" lon="7.14489">
        <ele>693</ele>
        <time>2020-06-01T09:32:19.000Z</time>
      </trkpt>
      <trkpt lat="48.45339" lon="7.14476">
        <ele>696</ele>
        <time>2020-06-01T09:32:41.000Z</time>
      </trkpt>
      <trkpt lat="48.45342" lon="7.14463">
        <ele>698</ele>
        <time>2020-06-01T09:32:50.000Z</time>
      </trkpt>
      <trkpt lat="48.45336" lon="7.14451">
        <ele>700</ele>
        <time>2020-06-01T09:32:59.000Z</time>
      </trkpt>
      <trkpt lat="48.4533" lon="7.1444">
        <ele>696</ele>
        <time>2020-06-01T09:33:10.000Z</time>
      </trkpt>
      <trkpt lat="48.45321" lon="7.14435">
        <ele>696</ele>
        <time>2020-06-01T09:33:18.000Z</time>
      </trkpt>
      <trkpt lat="48.45315" lon="7.14425">
        <ele>697</ele>
        <time>2020-06-01T09:33:29.000Z</time>
      </trkpt>
      <trkpt lat="48.45323" lon="7.1443">
        <ele>698</ele>
        <time>2020-06-01T09:34:12.000Z</time>
      </trkpt>
      <trkpt lat="48.45332" lon="7.14423">
        <ele>702</ele>
        <time>2020-06-01T09:34:18.000Z</time>
      </trkpt>
      <trkpt lat="48.45339" lon="7.14415">
        <ele>709</ele>
        <time>2020-06-01T09:34:29.000Z</time>
      </trkpt>
      <trkpt lat="48.45336" lon="7.14402">
        <ele>711</ele>
        <time>2020-06-01T09:34:40.000Z</time>
      </trkpt>
      <trkpt lat="48.4533" lon="7.14392">
        <ele>709</ele>
        <time>2020-06-01T09:34:52.000Z</time>
      </trkpt>
      <trkpt lat="48.45321" lon="7.14386">
        <ele>710</ele>
        <time>2020-06-01T09:35:01.000Z</time>
      </trkpt>
      <trkpt lat="48.45313" lon="7.14378">
        <ele>711</ele>
        <time>2020-06-01T09:35:08.000Z</time>
      </trkpt>
      <trkpt lat="48.45309" lon="7.14365">
        <ele>713</ele>
        <time>2020-06-01T09:35:16.000Z</time>
      </trkpt>
      <trkpt lat="48.45307" lon="7.1435">
        <ele>715</ele>
        <time>2020-06-01T09:35:39.000Z</time>
      </trkpt>
      <trkpt lat="48.45305" lon="7.14336">
        <ele>716</ele>
        <time>2020-06-01T09:35:47.000Z</time>
      </trkpt>
      <trkpt lat="48.45298" lon="7.14327">
        <ele>728</ele>
        <time>2020-06-01T09:35:52.000Z</time>
      </trkpt>
      <trkpt lat="48.45291" lon="7.14317">
        <ele>728</ele>
        <time>2020-06-01T09:36:03.000Z</time>
      </trkpt>
      <trkpt lat="48.45284" lon="7.14306">
        <ele>728</ele>
        <time>2020-06-01T09:36:14.000Z</time>
      </trkpt>
      <trkpt lat="48.45279" lon="7.14295">
        <ele>729</ele>
        <time>2020-06-01T09:36:32.000Z</time>
      </trkpt>
      <trkpt lat="48.45275" lon="7.14283">
        <ele>730</ele>
        <time>2020-06-01T09:38:03.000Z</time>
      </trkpt>
      <trkpt lat="48.45266" lon="7.14284">
        <ele>730</ele>
        <time>2020-06-01T09:38:42.000Z</time>
      </trkpt>
      <trkpt lat="48.45275" lon="7.14287">
        <ele>730</ele>
        <time>2020-06-01T09:40:17.000Z</time>
      </trkpt>
      <trkpt lat="48.45284" lon="7.1429">
        <ele>730</ele>
        <time>2020-06-01T09:40:29.000Z</time>
      </trkpt>
      <trkpt lat="48.45293" lon="7.14294">
        <ele>730</ele>
        <time>2020-06-01T09:40:39.000Z</time>
      </trkpt>
      <trkpt lat="48.45304" lon="7.14296">
        <ele>731</ele>
        <time>2020-06-01T09:40:50.000Z</time>
      </trkpt>
      <trkpt lat="48.45313" lon="7.14298">
        <ele>731</ele>
        <time>2020-06-01T09:41:01.000Z</time>
      </trkpt>
      <trkpt lat="48.45322" lon="7.14294">
        <ele>732</ele>
        <time>2020-06-01T09:41:19.000Z</time>
      </trkpt>
      <trkpt lat="48.45331" lon="7.14293">
        <ele>733</ele>
        <time>2020-06-01T09:41:29.000Z</time>
      </trkpt>
      <trkpt lat="48.45341" lon="7.14289">
        <ele>736</ele>
        <time>2020-06-01T09:41:40.000Z</time>
      </trkpt>
      <trkpt lat="48.4535" lon="7.14283">
        <ele>736</ele>
        <time>2020-06-01T09:41:55.000Z</time>
      </trkpt>
      <trkpt lat="48.45358" lon="7.14278">
        <ele>736</ele>
        <time>2020-06-01T09:42:07.000Z</time>
      </trkpt>
      <trkpt lat="48.45365" lon="7.14269">
        <ele>737</ele>
        <time>2020-06-01T09:42:15.000Z</time>
      </trkpt>
      <trkpt lat="48.45371" lon="7.14258">
        <ele>737</ele>
        <time>2020-06-01T09:42:21.000Z</time>
      </trkpt>
      <trkpt lat="48.45378" lon="7.14246">
        <ele>749</ele>
        <time>2020-06-01T09:42:28.000Z</time>
      </trkpt>
      <trkpt lat="48.45385" lon="7.14237">
        <ele>749</ele>
        <time>2020-06-01T09:42:35.000Z</time>
      </trkpt>
      <trkpt lat="48.45391" lon="7.14225">
        <ele>750</ele>
        <time>2020-06-01T09:42:43.000Z</time>
      </trkpt>
      <trkpt lat="48.45395" lon="7.14213">
        <ele>751</ele>
        <time>2020-06-01T09:42:54.000Z</time>
      </trkpt>
      <trkpt lat="48.454" lon="7.14199">
        <ele>753</ele>
        <time>2020-06-01T09:43:57.000Z</time>
      </trkpt>
      <trkpt lat="48.45407" lon="7.14188">
        <ele>753</ele>
        <time>2020-06-01T09:44:14.000Z</time>
      </trkpt>
      <trkpt lat="48.45409" lon="7.14175">
        <ele>754</ele>
        <time>2020-06-01T09:44:31.000Z</time>
      </trkpt>
      <trkpt lat="48.45406" lon="7.14161">
        <ele>761</ele>
        <time>2020-06-01T09:44:46.000Z</time>
      </trkpt>
      <trkpt lat="48.45399" lon="7.1417">
        <ele>755</ele>
        <time>2020-06-01T09:45:44.000Z</time>
      </trkpt>
      <trkpt lat="48.45393" lon="7.14159">
        <ele>766</ele>
        <time>2020-06-01T09:46:13.000Z</time>
      </trkpt>
      <trkpt lat="48.45393" lon="7.14145">
        <ele>768</ele>
        <time>2020-06-01T09:46:25.000Z</time>
      </trkpt>
      <trkpt lat="48.45388" lon="7.14132">
        <ele>770</ele>
        <time>2020-06-01T09:46:41.000Z</time>
      </trkpt>
      <trkpt lat="48.4538" lon="7.14128">
        <ele>772</ele>
        <time>2020-06-01T09:46:59.000Z</time>
      </trkpt>
      <trkpt lat="48.45372" lon="7.14121">
        <ele>774</ele>
        <time>2020-06-01T09:47:31.000Z</time>
      </trkpt>
      <trkpt lat="48.45363" lon="7.14123">
        <ele>775</ele>
        <time>2020-06-01T09:47:48.000Z</time>
      </trkpt>
      <trkpt lat="48.45354" lon="7.14118">
        <ele>777</ele>
        <time>2020-06-01T09:48:37.000Z</time>
      </trkpt>
      <trkpt lat="48.45348" lon="7.14109">
        <ele>779</ele>
        <time>2020-06-01T09:48:51.000Z</time>
      </trkpt>
      <trkpt lat="48.45348" lon="7.14095">
        <ele>783</ele>
        <time>2020-06-01T09:49:56.000Z</time>
      </trkpt>
      <trkpt lat="48.45342" lon="7.14084">
        <ele>788</ele>
        <time>2020-06-01T09:50:10.000Z</time>
      </trkpt>
      <trkpt lat="48.45334" lon="7.14078">
        <ele>791</ele>
        <time>2020-06-01T09:50:19.000Z</time>
      </trkpt>
      <trkpt lat="48.45329" lon="7.14065">
        <ele>793</ele>
        <time>2020-06-01T09:50:29.000Z</time>
      </trkpt>
      <trkpt lat="48.45325" lon="7.14053">
        <ele>793</ele>
        <time>2020-06-01T09:50:41.000Z</time>
      </trkpt>
      <trkpt lat="48.45321" lon="7.14041">
        <ele>793</ele>
        <time>2020-06-01T09:54:28.000Z</time>
      </trkpt>
      <trkpt lat="48.45312" lon="7.14033">
        <ele>794</ele>
        <time>2020-06-01T09:54:37.000Z</time>
      </trkpt>
      <trkpt lat="48.45304" lon="7.14027">
        <ele>794</ele>
        <time>2020-06-01T09:54:46.000Z</time>
      </trkpt>
      <trkpt lat="48.45296" lon="7.14023">
        <ele>794</ele>
        <time>2020-06-01T09:54:59.000Z</time>
      </trkpt>
      <trkpt lat="48.45287" lon="7.14019">
        <ele>794</ele>
        <time>2020-06-01T09:55:11.000Z</time>
      </trkpt>
      <trkpt lat="48.45281" lon="7.14007">
        <ele>795</ele>
        <time>2020-06-01T09:55:23.000Z</time>
      </trkpt>
      <trkpt lat="48.45283" lon="7.13993">
        <ele>795</ele>
        <time>2020-06-01T09:55:34.000Z</time>
      </trkpt>
      <trkpt lat="48.45291" lon="7.13985">
        <ele>795</ele>
        <time>2020-06-01T09:58:28.000Z</time>
      </trkpt>
      <trkpt lat="48.45291" lon="7.13969">
        <ele>794</ele>
        <time>2020-06-01T10:00:01.999Z</time>
      </trkpt>
      <trkpt lat="48.45289" lon="7.13955">
        <ele>793</ele>
        <time>2020-06-01T10:00:36.999Z</time>
      </trkpt>
      <trkpt lat="48.4528" lon="7.1395">
        <ele>794</ele>
        <time>2020-06-01T10:01:03.999Z</time>
      </trkpt>
      <trkpt lat="48.45271" lon="7.13945">
        <ele>795</ele>
        <time>2020-06-01T10:01:18.999Z</time>
      </trkpt>
      <trkpt lat="48.45263" lon="7.13939">
        <ele>796</ele>
        <time>2020-06-01T10:01:31.999Z</time>
      </trkpt>
      <trkpt lat="48.45255" lon="7.13931">
        <ele>797</ele>
        <time>2020-06-01T10:01:39.999Z</time>
      </trkpt>
      <trkpt lat="48.45247" lon="7.13923">
        <ele>800</ele>
        <time>2020-06-01T10:01:50.999Z</time>
      </trkpt>
      <trkpt lat="48.45239" lon="7.13916">
        <ele>799</ele>
        <time>2020-06-01T10:02:02.999Z</time>
      </trkpt>
      <trkpt lat="48.45233" lon="7.13905">
        <ele>797</ele>
        <time>2020-06-01T10:02:17.999Z</time>
      </trkpt>
      <trkpt lat="48.45228" lon="7.13892">
        <ele>796</ele>
        <time>2020-06-01T10:02:27.999Z</time>
      </trkpt>
      <trkpt lat="48.4522" lon="7.13883">
        <ele>796</ele>
        <time>2020-06-01T10:02:38.999Z</time>
      </trkpt>
      <trkpt lat="48.45211" lon="7.13875">
        <ele>795</ele>
        <time>2020-06-01T10:02:45.999Z</time>
      </trkpt>
      <trkpt lat="48.45204" lon="7.13866">
        <ele>795</ele>
        <time>2020-06-01T10:02:55.999Z</time>
      </trkpt>
      <trkpt lat="48.45196" lon="7.13858">
        <ele>796</ele>
        <time>2020-06-01T10:03:05.999Z</time>
      </trkpt>
      <trkpt lat="48.45188" lon="7.13851">
        <ele>797</ele>
        <time>2020-06-01T10:03:17.999Z</time>
      </trkpt>
      <trkpt lat="48.45179" lon="7.13843">
        <ele>798</ele>
        <time>2020-06-01T10:03:24.999Z</time>
      </trkpt>
      <trkpt lat="48.45171" lon="7.13835">
        <ele>801</ele>
        <time>2020-06-01T10:03:32.999Z</time>
      </trkpt>
      <trkpt lat="48.45165" lon="7.13826">
        <ele>801</ele>
        <time>2020-06-01T10:03:41.999Z</time>
      </trkpt>
      <trkpt lat="48.45155" lon="7.13819">
        <ele>800</ele>
        <time>2020-06-01T10:03:47.999Z</time>
      </trkpt>
      <trkpt lat="48.45147" lon="7.13816">
        <ele>799</ele>
        <time>2020-06-01T10:03:57.999Z</time>
      </trkpt>
      <trkpt lat="48.45139" lon="7.13809">
        <ele>799</ele>
        <time>2020-06-01T10:04:07.999Z</time>
      </trkpt>
      <trkpt lat="48.45146" lon="7.13797">
        <ele>798</ele>
        <time>2020-06-01T10:05:37.999Z</time>
      </trkpt>
      <trkpt lat="48.45137" lon="7.13801">
        <ele>799</ele>
        <time>2020-06-01T10:05:58.999Z</time>
      </trkpt>
      <trkpt lat="48.45129" lon="7.13794">
        <ele>799</ele>
        <time>2020-06-01T10:06:07.999Z</time>
      </trkpt>
      <trkpt lat="48.45121" lon="7.13786">
        <ele>799</ele>
        <time>2020-06-01T10:06:18.999Z</time>
      </trkpt>
      <trkpt lat="48.45114" lon="7.13776">
        <ele>799</ele>
        <time>2020-06-01T10:06:27.999Z</time>
      </trkpt>
      <trkpt lat="48.45105" lon="7.13769">
        <ele>800</ele>
        <time>2020-06-01T10:06:32.999Z</time>
      </trkpt>
      <trkpt lat="48.45096" lon="7.13761">
        <ele>801</ele>
        <time>2020-06-01T10:06:38.999Z</time>
      </trkpt>
      <trkpt lat="48.45087" lon="7.13756">
        <ele>803</ele>
        <time>2020-06-01T10:06:48.999Z</time>
      </trkpt>
      <trkpt lat="48.45078" lon="7.13755">
        <ele>804</ele>
        <time>2020-06-01T10:07:08.999Z</time>
      </trkpt>
      <trkpt lat="48.45069" lon="7.13758">
        <ele>803</ele>
        <time>2020-06-01T10:07:24.999Z</time>
      </trkpt>
      <trkpt lat="48.4506" lon="7.13755">
        <ele>803</ele>
        <time>2020-06-01T10:07:34.999Z</time>
      </trkpt>
      <trkpt lat="48.4505" lon="7.1376">
        <ele>803</ele>
        <time>2020-06-01T10:07:44.999Z</time>
      </trkpt>
      <trkpt lat="48.45044" lon="7.13749">
        <ele>805</ele>
        <time>2020-06-01T10:08:09.999Z</time>
      </trkpt>
      <trkpt lat="48.45035" lon="7.1375">
        <ele>804</ele>
        <time>2020-06-01T10:08:25.999Z</time>
      </trkpt>
      <trkpt lat="48.45028" lon="7.1376">
        <ele>804</ele>
        <time>2020-06-01T10:08:34.999Z</time>
      </trkpt>
      <trkpt lat="48.45019" lon="7.13763">
        <ele>805</ele>
        <time>2020-06-01T10:08:41.999Z</time>
      </trkpt>
      <trkpt lat="48.45011" lon="7.13769">
        <ele>805</ele>
        <time>2020-06-01T10:08:57.999Z</time>
      </trkpt>
      <trkpt lat="48.45002" lon="7.1377">
        <ele>805</ele>
        <time>2020-06-01T10:09:07.999Z</time>
      </trkpt>
      <trkpt lat="48.44993" lon="7.13777">
        <ele>807</ele>
        <time>2020-06-01T10:09:18.999Z</time>
      </trkpt>
      <trkpt lat="48.44984" lon="7.13782">
        <ele>807</ele>
        <time>2020-06-01T10:09:26.999Z</time>
      </trkpt>
      <trkpt lat="48.44975" lon="7.13786">
        <ele>807</ele>
        <time>2020-06-01T10:09:35.999Z</time>
      </trkpt>
      <trkpt lat="48.44966" lon="7.13789">
        <ele>807</ele>
        <time>2020-06-01T10:09:45.999Z</time>
      </trkpt>
      <trkpt lat="48.44957" lon="7.13794">
        <ele>808</ele>
        <time>2020-06-01T10:09:59.999Z</time>
      </trkpt>
      <trkpt lat="48.44949" lon="7.138">
        <ele>807</ele>
        <time>2020-06-01T10:10:07.999Z</time>
      </trkpt>
      <trkpt lat="48.4494" lon="7.13801">
        <ele>808</ele>
        <time>2020-06-01T10:10:15.999Z</time>
      </trkpt>
      <trkpt lat="48.44931" lon="7.13802">
        <ele>808</ele>
        <time>2020-06-01T10:10:26.999Z</time>
      </trkpt>
      <trkpt lat="48.44921" lon="7.13807">
        <ele>808</ele>
        <time>2020-06-01T10:10:38.999Z</time>
      </trkpt>
      <trkpt lat="48.44913" lon="7.13809">
        <ele>817</ele>
        <time>2020-06-01T10:10:46.999Z</time>
      </trkpt>
      <trkpt lat="48.44904" lon="7.13816">
        <ele>816</ele>
        <time>2020-06-01T10:10:54.999Z</time>
      </trkpt>
      <trkpt lat="48.44896" lon="7.13821">
        <ele>817</ele>
        <time>2020-06-01T10:11:10.999Z</time>
      </trkpt>
      <trkpt lat="48.44888" lon="7.13828">
        <ele>819</ele>
        <time>2020-06-01T10:11:26.999Z</time>
      </trkpt>
      <trkpt lat="48.44881" lon="7.13836">
        <ele>812</ele>
        <time>2020-06-01T10:11:34.999Z</time>
      </trkpt>
      <trkpt lat="48.44873" lon="7.13844">
        <ele>813</ele>
        <time>2020-06-01T10:11:45.999Z</time>
      </trkpt>
      <trkpt lat="48.44865" lon="7.13852">
        <ele>815</ele>
        <time>2020-06-01T10:11:56.999Z</time>
      </trkpt>
      <trkpt lat="48.44858" lon="7.13865">
        <ele>815</ele>
        <time>2020-06-01T10:12:01.999Z</time>
      </trkpt>
      <trkpt lat="48.44851" lon="7.13874">
        <ele>815</ele>
        <time>2020-06-01T10:12:18.999Z</time>
      </trkpt>
      <trkpt lat="48.44843" lon="7.13885">
        <ele>815</ele>
        <time>2020-06-01T10:12:35.999Z</time>
      </trkpt>
      <trkpt lat="48.44838" lon="7.13897">
        <ele>816</ele>
        <time>2020-06-01T10:12:45.999Z</time>
      </trkpt>
      <trkpt lat="48.44832" lon="7.13907">
        <ele>826</ele>
        <time>2020-06-01T10:12:54.999Z</time>
      </trkpt>
      <trkpt lat="48.44826" lon="7.13918">
        <ele>823</ele>
        <time>2020-06-01T10:13:07.999Z</time>
      </trkpt>
      <trkpt lat="48.44822" lon="7.13932">
        <ele>824</ele>
        <time>2020-06-01T10:13:21.999Z</time>
      </trkpt>
      <trkpt lat="48.44815" lon="7.13942">
        <ele>824</ele>
        <time>2020-06-01T10:13:29.999Z</time>
      </trkpt>
      <trkpt lat="48.44811" lon="7.13954">
        <ele>824</ele>
        <time>2020-06-01T10:13:37.999Z</time>
      </trkpt>
      <trkpt lat="48.44807" lon="7.13967">
        <ele>823</ele>
        <time>2020-06-01T10:13:54.999Z</time>
      </trkpt>
      <trkpt lat="48.448" lon="7.13976">
        <ele>824</ele>
        <time>2020-06-01T10:14:06.999Z</time>
      </trkpt>
      <trkpt lat="48.44792" lon="7.13983">
        <ele>825</ele>
        <time>2020-06-01T10:14:12.999Z</time>
      </trkpt>
      <trkpt lat="48.44785" lon="7.13992">
        <ele>826</ele>
        <time>2020-06-01T10:14:25.999Z</time>
      </trkpt>
      <trkpt lat="48.44784" lon="7.14007">
        <ele>818</ele>
        <time>2020-06-01T10:14:38.999Z</time>
      </trkpt>
      <trkpt lat="48.44775" lon="7.14013">
        <ele>820</ele>
        <time>2020-06-01T10:14:50.999Z</time>
      </trkpt>
      <trkpt lat="48.44766" lon="7.14013">
        <ele>823</ele>
        <time>2020-06-01T10:14:56.999Z</time>
      </trkpt>
      <trkpt lat="48.44757" lon="7.14019">
        <ele>824</ele>
        <time>2020-06-01T10:15:02.999Z</time>
      </trkpt>
      <trkpt lat="48.44751" lon="7.1403">
        <ele>822</ele>
        <time>2020-06-01T10:15:14.999Z</time>
      </trkpt>
      <trkpt lat="48.44749" lon="7.14043">
        <ele>833</ele>
        <time>2020-06-01T10:15:33.999Z</time>
      </trkpt>
      <trkpt lat="48.4474" lon="7.14049">
        <ele>833</ele>
        <time>2020-06-01T10:19:04.999Z</time>
      </trkpt>
      <trkpt lat="48.4473" lon="7.14057">
        <ele>832</ele>
        <time>2020-06-01T10:19:12.999Z</time>
      </trkpt>
      <trkpt lat="48.44722" lon="7.14065">
        <ele>832</ele>
        <time>2020-06-01T10:19:24.999Z</time>
      </trkpt>
      <trkpt lat="48.44713" lon="7.14073">
        <ele>833</ele>
        <time>2020-06-01T10:19:34.999Z</time>
      </trkpt>
      <trkpt lat="48.44704" lon="7.14077">
        <ele>833</ele>
        <time>2020-06-01T10:19:42.999Z</time>
      </trkpt>
      <trkpt lat="48.44695" lon="7.14083">
        <ele>834</ele>
        <time>2020-06-01T10:19:49.999Z</time>
      </trkpt>
      <trkpt lat="48.44686" lon="7.1408">
        <ele>834</ele>
        <time>2020-06-01T10:19:59.999Z</time>
      </trkpt>
      <trkpt lat="48.44682" lon="7.14068">
        <ele>835</ele>
        <time>2020-06-01T10:20:28.999Z</time>
      </trkpt>
      <trkpt lat="48.44677" lon="7.14056">
        <ele>835</ele>
        <time>2020-06-01T10:20:37.999Z</time>
      </trkpt>
      <trkpt lat="48.44676" lon="7.14042">
        <ele>835</ele>
        <time>2020-06-01T10:20:53.999Z</time>
      </trkpt>
      <trkpt lat="48.44679" lon="7.14029">
        <ele>835</ele>
        <time>2020-06-01T10:21:00.999Z</time>
      </trkpt>
      <trkpt lat="48.44679" lon="7.14015">
        <ele>836</ele>
        <time>2020-06-01T10:21:07.999Z</time>
      </trkpt>
      <trkpt lat="48.4468" lon="7.14001">
        <ele>836</ele>
        <time>2020-06-01T10:21:17.999Z</time>
      </trkpt>
      <trkpt lat="48.44682" lon="7.13986">
        <ele>838</ele>
        <time>2020-06-01T10:21:25.999Z</time>
      </trkpt>
      <trkpt lat="48.44683" lon="7.13972">
        <ele>839</ele>
        <time>2020-06-01T10:21:33.999Z</time>
      </trkpt>
      <trkpt lat="48.44684" lon="7.13958">
        <ele>839</ele>
        <time>2020-06-01T10:21:42.999Z</time>
      </trkpt>
      <trkpt lat="48.44684" lon="7.13943">
        <ele>840</ele>
        <time>2020-06-01T10:21:51.999Z</time>
      </trkpt>
      <trkpt lat="48.44683" lon="7.13928">
        <ele>840</ele>
        <time>2020-06-01T10:21:58.999Z</time>
      </trkpt>
      <trkpt lat="48.44679" lon="7.13914">
        <ele>841</ele>
        <time>2020-06-01T10:22:07.999Z</time>
      </trkpt>
      <trkpt lat="48.44677" lon="7.139">
        <ele>842</ele>
        <time>2020-06-01T10:22:14.999Z</time>
      </trkpt>
      <trkpt lat="48.44674" lon="7.13887">
        <ele>842</ele>
        <time>2020-06-01T10:22:24.999Z</time>
      </trkpt>
      <trkpt lat="48.44672" lon="7.13873">
        <ele>843</ele>
        <time>2020-06-01T10:22:35.999Z</time>
      </trkpt>
      <trkpt lat="48.44668" lon="7.1386">
        <ele>843</ele>
        <time>2020-06-01T10:22:45.999Z</time>
      </trkpt>
      <trkpt lat="48.44665" lon="7.13847">
        <ele>836</ele>
        <time>2020-06-01T10:22:55.999Z</time>
      </trkpt>
      <trkpt lat="48.44661" lon="7.13833">
        <ele>841</ele>
        <time>2020-06-01T10:23:02.999Z</time>
      </trkpt>
      <trkpt lat="48.44658" lon="7.1382">
        <ele>838</ele>
        <time>2020-06-01T10:23:11.999Z</time>
      </trkpt>
      <trkpt lat="48.44653" lon="7.13807">
        <ele>836</ele>
        <time>2020-06-01T10:23:21.999Z</time>
      </trkpt>
      <trkpt lat="48.44648" lon="7.13794">
        <ele>836</ele>
        <time>2020-06-01T10:23:29.999Z</time>
      </trkpt>
      <trkpt lat="48.44643" lon="7.13782">
        <ele>836</ele>
        <time>2020-06-01T10:23:37.999Z</time>
      </trkpt>
      <trkpt lat="48.4464" lon="7.13769">
        <ele>837</ele>
        <time>2020-06-01T10:23:48.999Z</time>
      </trkpt>
      <trkpt lat="48.44636" lon="7.13756">
        <ele>837</ele>
        <time>2020-06-01T10:23:59.999Z</time>
      </trkpt>
      <trkpt lat="48.44631" lon="7.13744">
        <ele>842</ele>
        <time>2020-06-01T10:24:19.999Z</time>
      </trkpt>
      <trkpt lat="48.44624" lon="7.13735">
        <ele>841</ele>
        <time>2020-06-01T10:24:26.999Z</time>
      </trkpt>
      <trkpt lat="48.44617" lon="7.13725">
        <ele>841</ele>
        <time>2020-06-01T10:24:34.999Z</time>
      </trkpt>
      <trkpt lat="48.44609" lon="7.13717">
        <ele>841</ele>
        <time>2020-06-01T10:24:46.999Z</time>
      </trkpt>
      <trkpt lat="48.44601" lon="7.13709">
        <ele>841</ele>
        <time>2020-06-01T10:24:54.999Z</time>
      </trkpt>
      <trkpt lat="48.44595" lon="7.13699">
        <ele>841</ele>
        <time>2020-06-01T10:25:00.999Z</time>
      </trkpt>
      <trkpt lat="48.44587" lon="7.1369">
        <ele>842</ele>
        <time>2020-06-01T10:25:10.999Z</time>
      </trkpt>
      <trkpt lat="48.44581" lon="7.1368">
        <ele>835</ele>
        <time>2020-06-01T10:25:24.999Z</time>
      </trkpt>
      <trkpt lat="48.44575" lon="7.13669">
        <ele>837</ele>
        <time>2020-06-01T10:25:34.999Z</time>
      </trkpt>
      <trkpt lat="48.44568" lon="7.13657">
        <ele>838</ele>
        <time>2020-06-01T10:25:40.999Z</time>
      </trkpt>
      <trkpt lat="48.44561" lon="7.13647">
        <ele>836</ele>
        <time>2020-06-01T10:25:48.999Z</time>
      </trkpt>
      <trkpt lat="48.44553" lon="7.13638">
        <ele>835</ele>
        <time>2020-06-01T10:25:57.999Z</time>
      </trkpt>
      <trkpt lat="48.44549" lon="7.13625">
        <ele>834</ele>
        <time>2020-06-01T10:26:10.999Z</time>
      </trkpt>
      <trkpt lat="48.44546" lon="7.13612">
        <ele>835</ele>
        <time>2020-06-01T10:26:22.999Z</time>
      </trkpt>
      <trkpt lat="48.44547" lon="7.13597">
        <ele>835</ele>
        <time>2020-06-01T10:26:28.999Z</time>
      </trkpt>
      <trkpt lat="48.44546" lon="7.13582">
        <ele>838</ele>
        <time>2020-06-01T10:26:40.999Z</time>
      </trkpt>
      <trkpt lat="48.44543" lon="7.13567">
        <ele>837</ele>
        <time>2020-06-01T10:26:48.999Z</time>
      </trkpt>
      <trkpt lat="48.4454" lon="7.13551">
        <ele>837</ele>
        <time>2020-06-01T10:26:54.999Z</time>
      </trkpt>
      <trkpt lat="48.44538" lon="7.13536">
        <ele>837</ele>
        <time>2020-06-01T10:27:06.999Z</time>
      </trkpt>
      <trkpt lat="48.44533" lon="7.13524">
        <ele>837</ele>
        <time>2020-06-01T10:27:15.999Z</time>
      </trkpt>
      <trkpt lat="48.44527" lon="7.13512">
        <ele>836</ele>
        <time>2020-06-01T10:27:25.999Z</time>
      </trkpt>
      <trkpt lat="48.44523" lon="7.13498">
        <ele>836</ele>
        <time>2020-06-01T10:27:36.999Z</time>
      </trkpt>
      <trkpt lat="48.44524" lon="7.13484">
        <ele>836</ele>
        <time>2020-06-01T10:27:52.999Z</time>
      </trkpt>
      <trkpt lat="48.44517" lon="7.13473">
        <ele>836</ele>
        <time>2020-06-01T10:28:47.999Z</time>
      </trkpt>
      <trkpt lat="48.44508" lon="7.13471">
        <ele>836</ele>
        <time>2020-06-01T10:29:06.999Z</time>
      </trkpt>
      <trkpt lat="48.44511" lon="7.13457">
        <ele>836</ele>
        <time>2020-06-01T10:29:29.999Z</time>
      </trkpt>
      <trkpt lat="48.44506" lon="7.13445">
        <ele>836</ele>
        <time>2020-06-01T10:29:43.000Z</time>
      </trkpt>
      <trkpt lat="48.44499" lon="7.13435">
        <ele>828</ele>
        <time>2020-06-01T10:29:49.000Z</time>
      </trkpt>
      <trkpt lat="48.4449" lon="7.13435">
        <ele>827</ele>
        <time>2020-06-01T10:30:03.000Z</time>
      </trkpt>
      <trkpt lat="48.44485" lon="7.13422">
        <ele>828</ele>
        <time>2020-06-01T10:30:15.000Z</time>
      </trkpt>
      <trkpt lat="48.44482" lon="7.13409">
        <ele>831</ele>
        <time>2020-06-01T10:30:25.000Z</time>
      </trkpt>
      <trkpt lat="48.4448" lon="7.13394">
        <ele>830</ele>
        <time>2020-06-01T10:30:33.000Z</time>
      </trkpt>
      <trkpt lat="48.44475" lon="7.13381">
        <ele>829</ele>
        <time>2020-06-01T10:30:41.000Z</time>
      </trkpt>
      <trkpt lat="48.44474" lon="7.13367">
        <ele>829</ele>
        <time>2020-06-01T10:30:49.000Z</time>
      </trkpt>
      <trkpt lat="48.4447" lon="7.13354">
        <ele>829</ele>
        <time>2020-06-01T10:30:56.000Z</time>
      </trkpt>
      <trkpt lat="48.44464" lon="7.13343">
        <ele>829</ele>
        <time>2020-06-01T10:31:06.000Z</time>
      </trkpt>
      <trkpt lat="48.44455" lon="7.13335">
        <ele>829</ele>
        <time>2020-06-01T10:31:14.000Z</time>
      </trkpt>
      <trkpt lat="48.44447" lon="7.13329">
        <ele>832</ele>
        <time>2020-06-01T10:31:21.000Z</time>
      </trkpt>
      <trkpt lat="48.44439" lon="7.13321">
        <ele>832</ele>
        <time>2020-06-01T10:31:51.000Z</time>
      </trkpt>
      <trkpt lat="48.4443" lon="7.13314">
        <ele>832</ele>
        <time>2020-06-01T10:32:02.000Z</time>
      </trkpt>
      <trkpt lat="48.44421" lon="7.13315">
        <ele>832</ele>
        <time>2020-06-01T10:32:52.000Z</time>
      </trkpt>
      <trkpt lat="48.44418" lon="7.13301">
        <ele>832</ele>
        <time>2020-06-01T10:33:49.000Z</time>
      </trkpt>
      <trkpt lat="48.44413" lon="7.13288">
        <ele>830</ele>
        <time>2020-06-01T10:34:03.000Z</time>
      </trkpt>
      <trkpt lat="48.44408" lon="7.13276">
        <ele>831</ele>
        <time>2020-06-01T10:34:12.000Z</time>
      </trkpt>
      <trkpt lat="48.44401" lon="7.13264">
        <ele>832</ele>
        <time>2020-06-01T10:34:20.000Z</time>
      </trkpt>
      <trkpt lat="48.44395" lon="7.13252">
        <ele>832</ele>
        <time>2020-06-01T10:34:25.000Z</time>
      </trkpt>
      <trkpt lat="48.44387" lon="7.13244">
        <ele>836</ele>
        <time>2020-06-01T10:34:34.000Z</time>
      </trkpt>
      <trkpt lat="48.44379" lon="7.13234">
        <ele>836</ele>
        <time>2020-06-01T10:34:44.000Z</time>
      </trkpt>
      <trkpt lat="48.44371" lon="7.13226">
        <ele>836</ele>
        <time>2020-06-01T10:34:57.000Z</time>
      </trkpt>
      <trkpt lat="48.44362" lon="7.13218">
        <ele>836</ele>
        <time>2020-06-01T10:35:05.000Z</time>
      </trkpt>
      <trkpt lat="48.44353" lon="7.13212">
        <ele>836</ele>
        <time>2020-06-01T10:35:14.000Z</time>
      </trkpt>
      <trkpt lat="48.44346" lon="7.13204">
        <ele>837</ele>
        <time>2020-06-01T10:35:28.000Z</time>
      </trkpt>
      <trkpt lat="48.4434" lon="7.13192">
        <ele>838</ele>
        <time>2020-06-01T10:37:46.000Z</time>
      </trkpt>
      <trkpt lat="48.4433" lon="7.13188">
        <ele>845</ele>
        <time>2020-06-01T10:37:56.000Z</time>
      </trkpt>
      <trkpt lat="48.44321" lon="7.13184">
        <ele>846</ele>
        <time>2020-06-01T10:38:04.000Z</time>
      </trkpt>
      <trkpt lat="48.44312" lon="7.13181">
        <ele>847</ele>
        <time>2020-06-01T10:38:13.000Z</time>
      </trkpt>
      <trkpt lat="48.44302" lon="7.1318">
        <ele>849</ele>
        <time>2020-06-01T10:38:25.000Z</time>
      </trkpt>
      <trkpt lat="48.44293" lon="7.13178">
        <ele>851</ele>
        <time>2020-06-01T10:38:35.000Z</time>
      </trkpt>
      <trkpt lat="48.44284" lon="7.13174">
        <ele>853</ele>
        <time>2020-06-01T10:38:45.000Z</time>
      </trkpt>
      <trkpt lat="48.44274" lon="7.13175">
        <ele>856</ele>
        <time>2020-06-01T10:39:02.000Z</time>
      </trkpt>
      <trkpt lat="48.44264" lon="7.13175">
        <ele>859</ele>
        <time>2020-06-01T10:39:10.000Z</time>
      </trkpt>
      <trkpt lat="48.44259" lon="7.13165">
        <ele>867</ele>
        <time>2020-06-01T10:39:21.000Z</time>
      </trkpt>
      <trkpt lat="48.44255" lon="7.13152">
        <ele>866</ele>
        <time>2020-06-01T10:39:38.000Z</time>
      </trkpt>
      <trkpt lat="48.4425" lon="7.13139">
        <ele>879</ele>
        <time>2020-06-01T10:39:50.000Z</time>
      </trkpt>
      <trkpt lat="48.4424" lon="7.13136">
        <ele>880</ele>
        <time>2020-06-01T10:40:16.000Z</time>
      </trkpt>
      <trkpt lat="48.44231" lon="7.13141">
        <ele>881</ele>
        <time>2020-06-01T10:40:25.000Z</time>
      </trkpt>
      <trkpt lat="48.44223" lon="7.13145">
        <ele>881</ele>
        <time>2020-06-01T10:40:37.000Z</time>
      </trkpt>
      <trkpt lat="48.44214" lon="7.13149">
        <ele>882</ele>
        <time>2020-06-01T10:40:54.000Z</time>
      </trkpt>
      <trkpt lat="48.44208" lon="7.13138">
        <ele>884</ele>
        <time>2020-06-01T10:41:10.000Z</time>
      </trkpt>
      <trkpt lat="48.44202" lon="7.13126">
        <ele>885</ele>
        <time>2020-06-01T10:41:23.000Z</time>
      </trkpt>
      <trkpt lat="48.44201" lon="7.13113">
        <ele>886</ele>
        <time>2020-06-01T10:41:33.000Z</time>
      </trkpt>
      <trkpt lat="48.44193" lon="7.13121">
        <ele>886</ele>
        <time>2020-06-01T10:42:00.000Z</time>
      </trkpt>
      <trkpt lat="48.44185" lon="7.13115">
        <ele>888</ele>
        <time>2020-06-01T10:42:27.000Z</time>
      </trkpt>
      <trkpt lat="48.44181" lon="7.13102">
        <ele>890</ele>
        <time>2020-06-01T10:42:42.000Z</time>
      </trkpt>
      <trkpt lat="48.44174" lon="7.13093">
        <ele>893</ele>
        <time>2020-06-01T10:42:53.000Z</time>
      </trkpt>
      <trkpt lat="48.44164" lon="7.13091">
        <ele>896</ele>
        <time>2020-06-01T10:43:02.000Z</time>
      </trkpt>
      <trkpt lat="48.44156" lon="7.13096">
        <ele>894</ele>
        <time>2020-06-01T10:43:17.000Z</time>
      </trkpt>
      <trkpt lat="48.44149" lon="7.13106">
        <ele>892</ele>
        <time>2020-06-01T10:43:27.000Z</time>
      </trkpt>
      <trkpt lat="48.44142" lon="7.13116">
        <ele>891</ele>
        <time>2020-06-01T10:43:33.000Z</time>
      </trkpt>
      <trkpt lat="48.44134" lon="7.13126">
        <ele>890</ele>
        <time>2020-06-01T10:43:38.000Z</time>
      </trkpt>
      <trkpt lat="48.44127" lon="7.13136">
        <ele>890</ele>
        <time>2020-06-01T10:43:46.000Z</time>
      </trkpt>
      <trkpt lat="48.44122" lon="7.13147">
        <ele>889</ele>
        <time>2020-06-01T10:43:53.000Z</time>
      </trkpt>
      <trkpt lat="48.44122" lon="7.1316">
        <ele>889</ele>
        <time>2020-06-01T10:44:00.000Z</time>
      </trkpt>
      <trkpt lat="48.44119" lon="7.13173">
        <ele>883</ele>
        <time>2020-06-01T10:46:20.000Z</time>
      </trkpt>
      <trkpt lat="48.44115" lon="7.13185">
        <ele>882</ele>
        <time>2020-06-01T10:46:25.000Z</time>
      </trkpt>
      <trkpt lat="48.44114" lon="7.132">
        <ele>881</ele>
        <time>2020-06-01T10:46:34.000Z</time>
      </trkpt>
      <trkpt lat="48.4412" lon="7.13211">
        <ele>880</ele>
        <time>2020-06-01T10:48:22.000Z</time>
      </trkpt>
      <trkpt lat="48.4411" lon="7.1321">
        <ele>880</ele>
        <time>2020-06-01T10:49:51.000Z</time>
      </trkpt>
      <trkpt lat="48.44101" lon="7.13215">
        <ele>880</ele>
        <time>2020-06-01T10:51:53.000Z</time>
      </trkpt>
      <trkpt lat="48.44104" lon="7.13201">
        <ele>881</ele>
        <time>2020-06-01T10:53:58.000Z</time>
      </trkpt>
      <trkpt lat="48.44106" lon="7.13187">
        <ele>882</ele>
        <time>2020-06-01T10:54:08.000Z</time>
      </trkpt>
      <trkpt lat="48.44099" lon="7.1317">
        <ele>884</ele>
        <time>2020-06-01T10:54:21.000Z</time>
      </trkpt>
      <trkpt lat="48.4409" lon="7.13166">
        <ele>887</ele>
        <time>2020-06-01T10:55:36.000Z</time>
      </trkpt>
      <trkpt lat="48.44082" lon="7.13157">
        <ele>882</ele>
        <time>2020-06-01T10:55:50.000Z</time>
      </trkpt>
      <trkpt lat="48.4408" lon="7.13144">
        <ele>879</ele>
        <time>2020-06-01T10:56:00.000Z</time>
      </trkpt>
      <trkpt lat="48.44077" lon="7.13129">
        <ele>877</ele>
        <time>2020-06-01T10:56:08.000Z</time>
      </trkpt>
      <trkpt lat="48.44074" lon="7.13116">
        <ele>877</ele>
        <time>2020-06-01T10:56:15.000Z</time>
      </trkpt>
      <trkpt lat="48.44072" lon="7.13099">
        <ele>879</ele>
        <time>2020-06-01T10:56:24.000Z</time>
      </trkpt>
      <trkpt lat="48.4407" lon="7.13085">
        <ele>880</ele>
        <time>2020-06-01T10:56:30.000Z</time>
      </trkpt>
      <trkpt lat="48.44069" lon="7.13072">
        <ele>878</ele>
        <time>2020-06-01T10:56:36.000Z</time>
      </trkpt>
      <trkpt lat="48.44069" lon="7.13058">
        <ele>877</ele>
        <time>2020-06-01T10:56:44.000Z</time>
      </trkpt>
      <trkpt lat="48.44069" lon="7.13043">
        <ele>876</ele>
        <time>2020-06-01T10:56:51.000Z</time>
      </trkpt>
      <trkpt lat="48.44068" lon="7.13029">
        <ele>877</ele>
        <time>2020-06-01T10:56:59.000Z</time>
      </trkpt>
      <trkpt lat="48.44065" lon="7.13016">
        <ele>878</ele>
        <time>2020-06-01T10:57:09.000Z</time>
      </trkpt>
      <trkpt lat="48.44065" lon="7.13001">
        <ele>879</ele>
        <time>2020-06-01T10:57:21.000Z</time>
      </trkpt>
      <trkpt lat="48.44064" lon="7.12987">
        <ele>878</ele>
        <time>2020-06-01T10:57:35.000Z</time>
      </trkpt>
      <trkpt lat="48.44065" lon="7.12973">
        <ele>876</ele>
        <time>2020-06-01T10:57:45.000Z</time>
      </trkpt>
      <trkpt lat="48.44065" lon="7.12959">
        <ele>875</ele>
        <time>2020-06-01T10:57:55.000Z</time>
      </trkpt>
      <trkpt lat="48.44064" lon="7.12945">
        <ele>876</ele>
        <time>2020-06-01T10:58:05.000Z</time>
      </trkpt>
      <trkpt lat="48.44062" lon="7.12931">
        <ele>876</ele>
        <time>2020-06-01T10:58:15.000Z</time>
      </trkpt>
      <trkpt lat="48.4406" lon="7.12917">
        <ele>877</ele>
        <time>2020-06-01T10:58:27.000Z</time>
      </trkpt>
      <trkpt lat="48.44056" lon="7.12904">
        <ele>874</ele>
        <time>2020-06-01T10:58:38.000Z</time>
      </trkpt>
      <trkpt lat="48.44052" lon="7.1289">
        <ele>872</ele>
        <time>2020-06-01T10:58:47.000Z</time>
      </trkpt>
      <trkpt lat="48.4405" lon="7.12876">
        <ele>871</ele>
        <time>2020-06-01T10:58:57.000Z</time>
      </trkpt>
      <trkpt lat="48.44046" lon="7.12864">
        <ele>870</ele>
        <time>2020-06-01T10:59:05.000Z</time>
      </trkpt>
      <trkpt lat="48.4404" lon="7.12852">
        <ele>869</ele>
        <time>2020-06-01T10:59:17.000Z</time>
      </trkpt>
      <trkpt lat="48.44036" lon="7.1284">
        <ele>867</ele>
        <time>2020-06-01T10:59:27.000Z</time>
      </trkpt>
      <trkpt lat="48.44033" lon="7.12827">
        <ele>866</ele>
        <time>2020-06-01T10:59:36.000Z</time>
      </trkpt>
      <trkpt lat="48.4403" lon="7.12814">
        <ele>866</ele>
        <time>2020-06-01T10:59:42.000Z</time>
      </trkpt>
      <trkpt lat="48.44028" lon="7.128">
        <ele>866</ele>
        <time>2020-06-01T10:59:52.000Z</time>
      </trkpt>
      <trkpt lat="48.44025" lon="7.12787">
        <ele>866</ele>
        <time>2020-06-01T11:00:02.000Z</time>
      </trkpt>
      <trkpt lat="48.44021" lon="7.12774">
        <ele>864</ele>
        <time>2020-06-01T11:00:11.000Z</time>
      </trkpt>
      <trkpt lat="48.44017" lon="7.12761">
        <ele>862</ele>
        <time>2020-06-01T11:00:20.000Z</time>
      </trkpt>
      <trkpt lat="48.44015" lon="7.12746">
        <ele>859</ele>
        <time>2020-06-01T11:00:29.000Z</time>
      </trkpt>
      <trkpt lat="48.44013" lon="7.12732">
        <ele>861</ele>
        <time>2020-06-01T11:00:37.000Z</time>
      </trkpt>
      <trkpt lat="48.44009" lon="7.12719">
        <ele>861</ele>
        <time>2020-06-01T11:00:45.000Z</time>
      </trkpt>
      <trkpt lat="48.44012" lon="7.12705">
        <ele>862</ele>
        <time>2020-06-01T11:00:55.000Z</time>
      </trkpt>
      <trkpt lat="48.44012" lon="7.1269">
        <ele>860</ele>
        <time>2020-06-01T11:01:11.000Z</time>
      </trkpt>
      <trkpt lat="48.44011" lon="7.12676">
        <ele>856</ele>
        <time>2020-06-01T11:01:18.000Z</time>
      </trkpt>
      <trkpt lat="48.44007" lon="7.12663">
        <ele>852</ele>
        <time>2020-06-01T11:01:29.999Z</time>
      </trkpt>
      <trkpt lat="48.43998" lon="7.12647">
        <ele>837</ele>
        <time>2020-06-01T11:01:38.999Z</time>
      </trkpt>
      <trkpt lat="48.44" lon="7.12633">
        <ele>834</ele>
        <time>2020-06-01T11:01:48.999Z</time>
      </trkpt>
      <trkpt lat="48.44" lon="7.12619">
        <ele>834</ele>
        <time>2020-06-01T11:01:55.999Z</time>
      </trkpt>
      <trkpt lat="48.43997" lon="7.12605">
        <ele>835</ele>
        <time>2020-06-01T11:02:09.999Z</time>
      </trkpt>
      <trkpt lat="48.43991" lon="7.12594">
        <ele>838</ele>
        <time>2020-06-01T11:02:16.999Z</time>
      </trkpt>
      <trkpt lat="48.4399" lon="7.1258">
        <ele>839</ele>
        <time>2020-06-01T11:02:25.999Z</time>
      </trkpt>
      <trkpt lat="48.43986" lon="7.12567">
        <ele>835</ele>
        <time>2020-06-01T11:02:37.999Z</time>
      </trkpt>
      <trkpt lat="48.4398" lon="7.12555">
        <ele>832</ele>
        <time>2020-06-01T11:02:46.999Z</time>
      </trkpt>
      <trkpt lat="48.43977" lon="7.12541">
        <ele>832</ele>
        <time>2020-06-01T11:03:20.999Z</time>
      </trkpt>
      <trkpt lat="48.43972" lon="7.12531">
        <ele>831</ele>
        <time>2020-06-01T11:03:32.999Z</time>
      </trkpt>
      <trkpt lat="48.43968" lon="7.12516">
        <ele>831</ele>
        <time>2020-06-01T11:03:39.999Z</time>
      </trkpt>
      <trkpt lat="48.43966" lon="7.12501">
        <ele>831</ele>
        <time>2020-06-01T11:04:05.999Z</time>
      </trkpt>
      <trkpt lat="48.43958" lon="7.12493">
        <ele>835</ele>
        <time>2020-06-01T11:05:15.999Z</time>
      </trkpt>
      <trkpt lat="48.43952" lon="7.12482">
        <ele>834</ele>
        <time>2020-06-01T11:05:27.999Z</time>
      </trkpt>
      <trkpt lat="48.43951" lon="7.12467">
        <ele>836</ele>
        <time>2020-06-01T11:05:34.999Z</time>
      </trkpt>
      <trkpt lat="48.43948" lon="7.12454">
        <ele>836</ele>
        <time>2020-06-01T11:05:41.999Z</time>
      </trkpt>
      <trkpt lat="48.43944" lon="7.12442">
        <ele>836</ele>
        <time>2020-06-01T11:05:47.999Z</time>
      </trkpt>
      <trkpt lat="48.43935" lon="7.12436">
        <ele>835</ele>
        <time>2020-06-01T11:05:59.999Z</time>
      </trkpt>
      <trkpt lat="48.43925" lon="7.1243">
        <ele>833</ele>
        <time>2020-06-01T11:06:04.999Z</time>
      </trkpt>
      <trkpt lat="48.43917" lon="7.12423">
        <ele>831</ele>
        <time>2020-06-01T11:06:16.999Z</time>
      </trkpt>
      <trkpt lat="48.43907" lon="7.12417">
        <ele>821</ele>
        <time>2020-06-01T11:06:23.999Z</time>
      </trkpt>
      <trkpt lat="48.43899" lon="7.1241">
        <ele>827</ele>
        <time>2020-06-01T11:06:30.999Z</time>
      </trkpt>
      <trkpt lat="48.43889" lon="7.12407">
        <ele>826</ele>
        <time>2020-06-01T11:06:35.999Z</time>
      </trkpt>
      <trkpt lat="48.43879" lon="7.12409">
        <ele>824</ele>
        <time>2020-06-01T11:06:43.999Z</time>
      </trkpt>
      <trkpt lat="48.43871" lon="7.12403">
        <ele>822</ele>
        <time>2020-06-01T11:06:54.999Z</time>
      </trkpt>
      <trkpt lat="48.43862" lon="7.12401">
        <ele>820</ele>
        <time>2020-06-01T11:07:03.999Z</time>
      </trkpt>
      <trkpt lat="48.43854" lon="7.1239">
        <ele>820</ele>
        <time>2020-06-01T11:07:10.999Z</time>
      </trkpt>
      <trkpt lat="48.43845" lon="7.12384">
        <ele>820</ele>
        <time>2020-06-01T11:07:41.999Z</time>
      </trkpt>
      <trkpt lat="48.43841" lon="7.12372">
        <ele>822</ele>
        <time>2020-06-01T11:07:54.999Z</time>
      </trkpt>
      <trkpt lat="48.43833" lon="7.12363">
        <ele>805</ele>
        <time>2020-06-01T11:08:14.999Z</time>
      </trkpt>
      <trkpt lat="48.43826" lon="7.12354">
        <ele>807</ele>
        <time>2020-06-01T11:08:24.999Z</time>
      </trkpt>
      <trkpt lat="48.43819" lon="7.12342">
        <ele>810</ele>
        <time>2020-06-01T11:08:30.999Z</time>
      </trkpt>
      <trkpt lat="48.43816" lon="7.12328">
        <ele>817</ele>
        <time>2020-06-01T11:08:41.999Z</time>
      </trkpt>
      <trkpt lat="48.43816" lon="7.12314">
        <ele>817</ele>
        <time>2020-06-01T11:08:47.999Z</time>
      </trkpt>
      <trkpt lat="48.4381" lon="7.12303">
        <ele>816</ele>
        <time>2020-06-01T11:08:59.999Z</time>
      </trkpt>
      <trkpt lat="48.43809" lon="7.12289">
        <ele>817</ele>
        <time>2020-06-01T11:09:10.999Z</time>
      </trkpt>
      <trkpt lat="48.43808" lon="7.12274">
        <ele>818</ele>
        <time>2020-06-01T11:09:31.999Z</time>
      </trkpt>
      <trkpt lat="48.43807" lon="7.1226">
        <ele>820</ele>
        <time>2020-06-01T11:09:43.999Z</time>
      </trkpt>
      <trkpt lat="48.43808" lon="7.12245">
        <ele>826</ele>
        <time>2020-06-01T11:09:55.999Z</time>
      </trkpt>
      <trkpt lat="48.43805" lon="7.12232">
        <ele>824</ele>
        <time>2020-06-01T11:10:04.999Z</time>
      </trkpt>
      <trkpt lat="48.43803" lon="7.12218">
        <ele>824</ele>
        <time>2020-06-01T11:10:13.999Z</time>
      </trkpt>
      <trkpt lat="48.438" lon="7.12204">
        <ele>823</ele>
        <time>2020-06-01T11:10:23.999Z</time>
      </trkpt>
      <trkpt lat="48.43799" lon="7.12187">
        <ele>824</ele>
        <time>2020-06-01T11:10:28.999Z</time>
      </trkpt>
      <trkpt lat="48.43801" lon="7.12173">
        <ele>825</ele>
        <time>2020-06-01T11:10:35.999Z</time>
      </trkpt>
      <trkpt lat="48.43802" lon="7.12159">
        <ele>828</ele>
        <time>2020-06-01T11:10:43.999Z</time>
      </trkpt>
      <trkpt lat="48.43801" lon="7.12144">
        <ele>827</ele>
        <time>2020-06-01T11:10:53.999Z</time>
      </trkpt>
      <trkpt lat="48.43799" lon="7.1213">
        <ele>827</ele>
        <time>2020-06-01T11:11:04.999Z</time>
      </trkpt>
      <trkpt lat="48.43798" lon="7.12116">
        <ele>827</ele>
        <time>2020-06-01T11:11:13.999Z</time>
      </trkpt>
      <trkpt lat="48.43799" lon="7.121">
        <ele>828</ele>
        <time>2020-06-01T11:11:21.999Z</time>
      </trkpt>
      <trkpt lat="48.43801" lon="7.12086">
        <ele>829</ele>
        <time>2020-06-01T11:11:28.999Z</time>
      </trkpt>
      <trkpt lat="48.43802" lon="7.12071">
        <ele>828</ele>
        <time>2020-06-01T11:11:37.999Z</time>
      </trkpt>
      <trkpt lat="48.43806" lon="7.12058">
        <ele>828</ele>
        <time>2020-06-01T11:11:49.999Z</time>
      </trkpt>
      <trkpt lat="48.43809" lon="7.12044">
        <ele>828</ele>
        <time>2020-06-01T11:11:57.999Z</time>
      </trkpt>
      <trkpt lat="48.43813" lon="7.12031">
        <ele>829</ele>
        <time>2020-06-01T11:12:05.999Z</time>
      </trkpt>
      <trkpt lat="48.43815" lon="7.12017">
        <ele>830</ele>
        <time>2020-06-01T11:12:14.999Z</time>
      </trkpt>
      <trkpt lat="48.43817" lon="7.12003">
        <ele>833</ele>
        <time>2020-06-01T11:12:23.999Z</time>
      </trkpt>
      <trkpt lat="48.43823" lon="7.11993">
        <ele>832</ele>
        <time>2020-06-01T11:12:31.999Z</time>
      </trkpt>
      <trkpt lat="48.4383" lon="7.11984">
        <ele>830</ele>
        <time>2020-06-01T11:12:39.999Z</time>
      </trkpt>
      <trkpt lat="48.43839" lon="7.11976">
        <ele>847</ele>
        <time>2020-06-01T11:12:47.999Z</time>
      </trkpt>
      <trkpt lat="48.43845" lon="7.11966">
        <ele>848</ele>
        <time>2020-06-01T11:12:54.999Z</time>
      </trkpt>
      <trkpt lat="48.43851" lon="7.11954">
        <ele>848</ele>
        <time>2020-06-01T11:13:02.999Z</time>
      </trkpt>
      <trkpt lat="48.43856" lon="7.11941">
        <ele>848</ele>
        <time>2020-06-01T11:13:11.999Z</time>
      </trkpt>
      <trkpt lat="48.4386" lon="7.11928">
        <ele>847</ele>
        <time>2020-06-01T11:13:19.999Z</time>
      </trkpt>
      <trkpt lat="48.43863" lon="7.11915">
        <ele>845</ele>
        <time>2020-06-01T11:13:28.999Z</time>
      </trkpt>
      <trkpt lat="48.43866" lon="7.11901">
        <ele>847</ele>
        <time>2020-06-01T11:13:37.999Z</time>
      </trkpt>
      <trkpt lat="48.4387" lon="7.11887">
        <ele>848</ele>
        <time>2020-06-01T11:13:47.999Z</time>
      </trkpt>
      <trkpt lat="48.43875" lon="7.11874">
        <ele>849</ele>
        <time>2020-06-01T11:13:56.999Z</time>
      </trkpt>
      <trkpt lat="48.43876" lon="7.1186">
        <ele>850</ele>
        <time>2020-06-01T11:14:04.999Z</time>
      </trkpt>
      <trkpt lat="48.43876" lon="7.11846">
        <ele>850</ele>
        <time>2020-06-01T11:14:14.999Z</time>
      </trkpt>
      <trkpt lat="48.43878" lon="7.11831">
        <ele>853</ele>
        <time>2020-06-01T11:14:23.999Z</time>
      </trkpt>
      <trkpt lat="48.43881" lon="7.11818">
        <ele>854</ele>
        <time>2020-06-01T11:14:33.999Z</time>
      </trkpt>
      <trkpt lat="48.43877" lon="7.11804">
        <ele>853</ele>
        <time>2020-06-01T11:14:43.999Z</time>
      </trkpt>
      <trkpt lat="48.43873" lon="7.11791">
        <ele>852</ele>
        <time>2020-06-01T11:14:51.999Z</time>
      </trkpt>
      <trkpt lat="48.43871" lon="7.11777">
        <ele>852</ele>
        <time>2020-06-01T11:15:00.999Z</time>
      </trkpt>
      <trkpt lat="48.43868" lon="7.11763">
        <ele>851</ele>
        <time>2020-06-01T11:15:09.999Z</time>
      </trkpt>
      <trkpt lat="48.43862" lon="7.1175">
        <ele>849</ele>
        <time>2020-06-01T11:15:18.999Z</time>
      </trkpt>
      <trkpt lat="48.43857" lon="7.11738">
        <ele>853</ele>
        <time>2020-06-01T11:15:26.999Z</time>
      </trkpt>
      <trkpt lat="48.43855" lon="7.11724">
        <ele>855</ele>
        <time>2020-06-01T11:15:35.999Z</time>
      </trkpt>
      <trkpt lat="48.43853" lon="7.11709">
        <ele>857</ele>
        <time>2020-06-01T11:15:44.999Z</time>
      </trkpt>
      <trkpt lat="48.43849" lon="7.11697">
        <ele>858</ele>
        <time>2020-06-01T11:15:53.999Z</time>
      </trkpt>
      <trkpt lat="48.43846" lon="7.11683">
        <ele>857</ele>
        <time>2020-06-01T11:16:05.999Z</time>
      </trkpt>
      <trkpt lat="48.43843" lon="7.11669">
        <ele>856</ele>
        <time>2020-06-01T11:16:12.999Z</time>
      </trkpt>
      <trkpt lat="48.43838" lon="7.11657">
        <ele>860</ele>
        <time>2020-06-01T11:16:19.999Z</time>
      </trkpt>
      <trkpt lat="48.43833" lon="7.11644">
        <ele>847</ele>
        <time>2020-06-01T11:16:28.999Z</time>
      </trkpt>
      <trkpt lat="48.43827" lon="7.11632">
        <ele>847</ele>
        <time>2020-06-01T11:16:37.999Z</time>
      </trkpt>
      <trkpt lat="48.43823" lon="7.11619">
        <ele>848</ele>
        <time>2020-06-01T11:16:48.999Z</time>
      </trkpt>
      <trkpt lat="48.43818" lon="7.11607">
        <ele>849</ele>
        <time>2020-06-01T11:16:56.999Z</time>
      </trkpt>
      <trkpt lat="48.43815" lon="7.11593">
        <ele>851</ele>
        <time>2020-06-01T11:17:04.999Z</time>
      </trkpt>
      <trkpt lat="48.43813" lon="7.1158">
        <ele>855</ele>
        <time>2020-06-01T11:17:12.999Z</time>
      </trkpt>
      <trkpt lat="48.43813" lon="7.11566">
        <ele>854</ele>
        <time>2020-06-01T11:17:20.999Z</time>
      </trkpt>
      <trkpt lat="48.43816" lon="7.11551">
        <ele>853</ele>
        <time>2020-06-01T11:17:28.999Z</time>
      </trkpt>
      <trkpt lat="48.4382" lon="7.11538">
        <ele>853</ele>
        <time>2020-06-01T11:17:40.999Z</time>
      </trkpt>
      <trkpt lat="48.43824" lon="7.11524">
        <ele>854</ele>
        <time>2020-06-01T11:17:47.999Z</time>
      </trkpt>
      <trkpt lat="48.43828" lon="7.11511">
        <ele>857</ele>
        <time>2020-06-01T11:17:54.999Z</time>
      </trkpt>
      <trkpt lat="48.43831" lon="7.11497">
        <ele>859</ele>
        <time>2020-06-01T11:18:04.999Z</time>
      </trkpt>
      <trkpt lat="48.43835" lon="7.11484">
        <ele>862</ele>
        <time>2020-06-01T11:18:13.999Z</time>
      </trkpt>
      <trkpt lat="48.43839" lon="7.11471">
        <ele>862</ele>
        <time>2020-06-01T11:18:22.999Z</time>
      </trkpt>
      <trkpt lat="48.43846" lon="7.11463">
        <ele>862</ele>
        <time>2020-06-01T11:18:32.999Z</time>
      </trkpt>
      <trkpt lat="48.43854" lon="7.11454">
        <ele>861</ele>
        <time>2020-06-01T11:18:42.999Z</time>
      </trkpt>
      <trkpt lat="48.43862" lon="7.11444">
        <ele>861</ele>
        <time>2020-06-01T11:18:51.999Z</time>
      </trkpt>
      <trkpt lat="48.4387" lon="7.11435">
        <ele>861</ele>
        <time>2020-06-01T11:19:01.999Z</time>
      </trkpt>
      <trkpt lat="48.43878" lon="7.11426">
        <ele>862</ele>
        <time>2020-06-01T11:19:11.999Z</time>
      </trkpt>
      <trkpt lat="48.43886" lon="7.11419">
        <ele>862</ele>
        <time>2020-06-01T11:19:21.999Z</time>
      </trkpt>
      <trkpt lat="48.43893" lon="7.11411">
        <ele>858</ele>
        <time>2020-06-01T11:19:30.999Z</time>
      </trkpt>
      <trkpt lat="48.43901" lon="7.11403">
        <ele>859</ele>
        <time>2020-06-01T11:19:41.999Z</time>
      </trkpt>
      <trkpt lat="48.43909" lon="7.11394">
        <ele>859</ele>
        <time>2020-06-01T11:19:50.999Z</time>
      </trkpt>
      <trkpt lat="48.43918" lon="7.11388">
        <ele>862</ele>
        <time>2020-06-01T11:19:59.999Z</time>
      </trkpt>
      <trkpt lat="48.43926" lon="7.11382">
        <ele>862</ele>
        <time>2020-06-01T11:20:10.999Z</time>
      </trkpt>
      <trkpt lat="48.43935" lon="7.11385">
        <ele>861</ele>
        <time>2020-06-01T11:20:23.999Z</time>
      </trkpt>
      <trkpt lat="48.43942" lon="7.11374">
        <ele>861</ele>
        <time>2020-06-01T11:21:05.999Z</time>
      </trkpt>
      <trkpt lat="48.43947" lon="7.11363">
        <ele>861</ele>
        <time>2020-06-01T11:21:13.999Z</time>
      </trkpt>
      <trkpt lat="48.43954" lon="7.11352">
        <ele>861</ele>
        <time>2020-06-01T11:21:26.999Z</time>
      </trkpt>
      <trkpt lat="48.4396" lon="7.11342">
        <ele>861</ele>
        <time>2020-06-01T11:21:42.999Z</time>
      </trkpt>
      <trkpt lat="48.43965" lon="7.11326">
        <ele>863</ele>
        <time>2020-06-01T11:21:53.999Z</time>
      </trkpt>
      <trkpt lat="48.43967" lon="7.11312">
        <ele>863</ele>
        <time>2020-06-01T11:22:02.999Z</time>
      </trkpt>
      <trkpt lat="48.4397" lon="7.11299">
        <ele>864</ele>
        <time>2020-06-01T11:22:08.999Z</time>
      </trkpt>
      <trkpt lat="48.43971" lon="7.11282">
        <ele>864</ele>
        <time>2020-06-01T11:22:13.999Z</time>
      </trkpt>
      <trkpt lat="48.43973" lon="7.11267">
        <ele>865</ele>
        <time>2020-06-01T11:22:21.999Z</time>
      </trkpt>
      <trkpt lat="48.43975" lon="7.11253">
        <ele>865</ele>
        <time>2020-06-01T11:22:27.999Z</time>
      </trkpt>
      <trkpt lat="48.43975" lon="7.11239">
        <ele>867</ele>
        <time>2020-06-01T11:22:38.999Z</time>
      </trkpt>
      <trkpt lat="48.4397" lon="7.11227">
        <ele>867</ele>
        <time>2020-06-01T11:22:43.999Z</time>
      </trkpt>
      <trkpt lat="48.43969" lon="7.11213">
        <ele>867</ele>
        <time>2020-06-01T11:22:49.999Z</time>
      </trkpt>
      <trkpt lat="48.43967" lon="7.11199">
        <ele>867</ele>
        <time>2020-06-01T11:22:57.999Z</time>
      </trkpt>
      <trkpt lat="48.43973" lon="7.11189">
        <ele>866</ele>
        <time>2020-06-01T11:23:08.999Z</time>
      </trkpt>
      <trkpt lat="48.43972" lon="7.11174">
        <ele>866</ele>
        <time>2020-06-01T11:23:14.999Z</time>
      </trkpt>
      <trkpt lat="48.4397" lon="7.1116">
        <ele>867</ele>
        <time>2020-06-01T11:23:21.999Z</time>
      </trkpt>
      <trkpt lat="48.4397" lon="7.11146">
        <ele>867</ele>
        <time>2020-06-01T11:23:31.999Z</time>
      </trkpt>
      <trkpt lat="48.43971" lon="7.11132">
        <ele>867</ele>
        <time>2020-06-01T11:23:38.999Z</time>
      </trkpt>
      <trkpt lat="48.43971" lon="7.11118">
        <ele>867</ele>
        <time>2020-06-01T11:23:45.999Z</time>
      </trkpt>
      <trkpt lat="48.43972" lon="7.11103">
        <ele>866</ele>
        <time>2020-06-01T11:24:00.999Z</time>
      </trkpt>
      <trkpt lat="48.43975" lon="7.1109">
        <ele>866</ele>
        <time>2020-06-01T11:24:09.999Z</time>
      </trkpt>
      <trkpt lat="48.43976" lon="7.11075">
        <ele>866</ele>
        <time>2020-06-01T11:24:14.999Z</time>
      </trkpt>
      <trkpt lat="48.43976" lon="7.1106">
        <ele>866</ele>
        <time>2020-06-01T11:24:20.999Z</time>
      </trkpt>
      <trkpt lat="48.43975" lon="7.11046">
        <ele>866</ele>
        <time>2020-06-01T11:24:26.999Z</time>
      </trkpt>
      <trkpt lat="48.43978" lon="7.11031">
        <ele>866</ele>
        <time>2020-06-01T11:24:35.999Z</time>
      </trkpt>
      <trkpt lat="48.43981" lon="7.11017">
        <ele>865</ele>
        <time>2020-06-01T11:24:45.999Z</time>
      </trkpt>
      <trkpt lat="48.43982" lon="7.11002">
        <ele>864</ele>
        <time>2020-06-01T11:24:53.999Z</time>
      </trkpt>
      <trkpt lat="48.43983" lon="7.10987">
        <ele>864</ele>
        <time>2020-06-01T11:25:03.999Z</time>
      </trkpt>
      <trkpt lat="48.43983" lon="7.10973">
        <ele>864</ele>
        <time>2020-06-01T11:25:12.999Z</time>
      </trkpt>
      <trkpt lat="48.43981" lon="7.10959">
        <ele>865</ele>
        <time>2020-06-01T11:25:23.999Z</time>
      </trkpt>
      <trkpt lat="48.43981" lon="7.10943">
        <ele>864</ele>
        <time>2020-06-01T11:25:31.999Z</time>
      </trkpt>
      <trkpt lat="48.43983" lon="7.10928">
        <ele>863</ele>
        <time>2020-06-01T11:25:39.999Z</time>
      </trkpt>
      <trkpt lat="48.43984" lon="7.10914">
        <ele>862</ele>
        <time>2020-06-01T11:25:50.999Z</time>
      </trkpt>
      <trkpt lat="48.43983" lon="7.109">
        <ele>863</ele>
        <time>2020-06-01T11:26:02.999Z</time>
      </trkpt>
      <trkpt lat="48.43984" lon="7.10886">
        <ele>863</ele>
        <time>2020-06-01T11:26:14.999Z</time>
      </trkpt>
      <trkpt lat="48.43981" lon="7.10873">
        <ele>864</ele>
        <time>2020-06-01T11:26:23.999Z</time>
      </trkpt>
      <trkpt lat="48.43984" lon="7.10859">
        <ele>863</ele>
        <time>2020-06-01T11:26:28.999Z</time>
      </trkpt>
      <trkpt lat="48.43989" lon="7.10847">
        <ele>863</ele>
        <time>2020-06-01T11:26:35.999Z</time>
      </trkpt>
      <trkpt lat="48.43991" lon="7.10832">
        <ele>862</ele>
        <time>2020-06-01T11:26:44.999Z</time>
      </trkpt>
      <trkpt lat="48.43992" lon="7.10818">
        <ele>863</ele>
        <time>2020-06-01T11:26:50.999Z</time>
      </trkpt>
      <trkpt lat="48.43993" lon="7.10803">
        <ele>864</ele>
        <time>2020-06-01T11:26:58.999Z</time>
      </trkpt>
      <trkpt lat="48.43993" lon="7.10789">
        <ele>864</ele>
        <time>2020-06-01T11:27:04.999Z</time>
      </trkpt>
      <trkpt lat="48.43995" lon="7.10775">
        <ele>864</ele>
        <time>2020-06-01T11:27:13.999Z</time>
      </trkpt>
      <trkpt lat="48.43996" lon="7.1076">
        <ele>863</ele>
        <time>2020-06-01T11:27:22.999Z</time>
      </trkpt>
      <trkpt lat="48.43997" lon="7.10746">
        <ele>862</ele>
        <time>2020-06-01T11:27:30.999Z</time>
      </trkpt>
      <trkpt lat="48.43999" lon="7.10732">
        <ele>863</ele>
        <time>2020-06-01T11:27:39.999Z</time>
      </trkpt>
      <trkpt lat="48.44003" lon="7.1072">
        <ele>861</ele>
        <time>2020-06-01T11:27:47.999Z</time>
      </trkpt>
      <trkpt lat="48.44009" lon="7.10707">
        <ele>860</ele>
        <time>2020-06-01T11:27:56.999Z</time>
      </trkpt>
      <trkpt lat="48.44015" lon="7.10696">
        <ele>860</ele>
        <time>2020-06-01T11:28:04.999Z</time>
      </trkpt>
      <trkpt lat="48.44023" lon="7.10686">
        <ele>860</ele>
        <time>2020-06-01T11:28:12.999Z</time>
      </trkpt>
      <trkpt lat="48.4403" lon="7.10676">
        <ele>860</ele>
        <time>2020-06-01T11:28:19.999Z</time>
      </trkpt>
      <trkpt lat="48.44038" lon="7.10668">
        <ele>860</ele>
        <time>2020-06-01T11:28:28.999Z</time>
      </trkpt>
      <trkpt lat="48.44046" lon="7.1066">
        <ele>861</ele>
        <time>2020-06-01T11:28:37.999Z</time>
      </trkpt>
      <trkpt lat="48.44053" lon="7.10652">
        <ele>861</ele>
        <time>2020-06-01T11:28:45.999Z</time>
      </trkpt>
      <trkpt lat="48.44056" lon="7.10636">
        <ele>861</ele>
        <time>2020-06-01T11:28:52.999Z</time>
      </trkpt>
      <trkpt lat="48.44046" lon="7.10636">
        <ele>860</ele>
        <time>2020-06-01T11:29:32.999Z</time>
      </trkpt>
      <trkpt lat="48.44054" lon="7.10628">
        <ele>861</ele>
        <time>2020-06-01T11:29:44.999Z</time>
      </trkpt>
      <trkpt lat="48.4406" lon="7.10618">
        <ele>861</ele>
        <time>2020-06-01T11:29:55.999Z</time>
      </trkpt>
      <trkpt lat="48.44069" lon="7.10612">
        <ele>861</ele>
        <time>2020-06-01T11:30:03.999Z</time>
      </trkpt>
      <trkpt lat="48.44078" lon="7.10606">
        <ele>861</ele>
        <time>2020-06-01T11:30:11.999Z</time>
      </trkpt>
      <trkpt lat="48.44088" lon="7.106">
        <ele>864</ele>
        <time>2020-06-01T11:30:16.999Z</time>
      </trkpt>
      <trkpt lat="48.44095" lon="7.10592">
        <ele>864</ele>
        <time>2020-06-01T11:30:26.999Z</time>
      </trkpt>
      <trkpt lat="48.44103" lon="7.10584">
        <ele>864</ele>
        <time>2020-06-01T11:30:34.999Z</time>
      </trkpt>
      <trkpt lat="48.44113" lon="7.10584">
        <ele>865</ele>
        <time>2020-06-01T11:30:45.999Z</time>
      </trkpt>
      <trkpt lat="48.44122" lon="7.10582">
        <ele>867</ele>
        <time>2020-06-01T11:30:54.999Z</time>
      </trkpt>
      <trkpt lat="48.4413" lon="7.10575">
        <ele>867</ele>
        <time>2020-06-01T11:31:05.999Z</time>
      </trkpt>
      <trkpt lat="48.44137" lon="7.10565">
        <ele>868</ele>
        <time>2020-06-01T11:31:16.999Z</time>
      </trkpt>
      <trkpt lat="48.44145" lon="7.10573">
        <ele>868</ele>
        <time>2020-06-01T11:31:48.999Z</time>
      </trkpt>
      <trkpt lat="48.44153" lon="7.10581">
        <ele>869</ele>
        <time>2020-06-01T11:31:58.999Z</time>
      </trkpt>
      <trkpt lat="48.44155" lon="7.10596">
        <ele>868</ele>
        <time>2020-06-01T11:32:08.999Z</time>
      </trkpt>
      <trkpt lat="48.44156" lon="7.1061">
        <ele>867</ele>
        <time>2020-06-01T11:32:19.999Z</time>
      </trkpt>
      <trkpt lat="48.44159" lon="7.10623">
        <ele>867</ele>
        <time>2020-06-01T11:32:34.999Z</time>
      </trkpt>
      <trkpt lat="48.4417" lon="7.10624">
        <ele>873</ele>
        <time>2020-06-01T11:35:14.000Z</time>
      </trkpt>
      <trkpt lat="48.44156" lon="7.10619">
        <ele>867</ele>
        <time>2020-06-01T11:45:51.000Z</time>
      </trkpt>
      <trkpt lat="48.44156" lon="7.10606">
        <ele>867</ele>
        <time>2020-06-01T11:49:00.000Z</time>
      </trkpt>
      <trkpt lat="48.44149" lon="7.10616">
        <ele>867</ele>
        <time>2020-06-01T11:50:41.000Z</time>
      </trkpt>
      <trkpt lat="48.44157" lon="7.10611">
        <ele>867</ele>
        <time>2020-06-01T11:54:49.000Z</time>
      </trkpt>
      <trkpt lat="48.44159" lon="7.10625">
        <ele>867</ele>
        <time>2020-06-01T11:55:03.000Z</time>
      </trkpt>
      <trkpt lat="48.4415" lon="7.10625">
        <ele>867</ele>
        <time>2020-06-01T12:16:19.999Z</time>
      </trkpt>
      <trkpt lat="48.44155" lon="7.10614">
        <ele>867</ele>
        <time>2020-06-01T12:18:15.999Z</time>
      </trkpt>
      <trkpt lat="48.44159" lon="7.10627">
        <ele>867</ele>
        <time>2020-06-01T12:18:49.999Z</time>
      </trkpt>
      <trkpt lat="48.44157" lon="7.10613">
        <ele>867</ele>
        <time>2020-06-01T12:25:17.999Z</time>
      </trkpt>
      <trkpt lat="48.44153" lon="7.10601">
        <ele>868</ele>
        <time>2020-06-01T12:25:43.999Z</time>
      </trkpt>
      <trkpt lat="48.44153" lon="7.10587">
        <ele>868</ele>
        <time>2020-06-01T12:25:59.999Z</time>
      </trkpt>
      <trkpt lat="48.44159" lon="7.10577">
        <ele>869</ele>
        <time>2020-06-01T12:26:10.999Z</time>
      </trkpt>
      <trkpt lat="48.44168" lon="7.10581">
        <ele>871</ele>
        <time>2020-06-01T12:26:22.999Z</time>
      </trkpt>
      <trkpt lat="48.44177" lon="7.10584">
        <ele>872</ele>
        <time>2020-06-01T12:26:50.999Z</time>
      </trkpt>
      <trkpt lat="48.44184" lon="7.10593">
        <ele>873</ele>
        <time>2020-06-01T12:27:03.999Z</time>
      </trkpt>
      <trkpt lat="48.44193" lon="7.10602">
        <ele>874</ele>
        <time>2020-06-01T12:27:09.999Z</time>
      </trkpt>
      <trkpt lat="48.442" lon="7.10609">
        <ele>875</ele>
        <time>2020-06-01T12:27:15.999Z</time>
      </trkpt>
      <trkpt lat="48.44208" lon="7.10618">
        <ele>876</ele>
        <time>2020-06-01T12:27:23.999Z</time>
      </trkpt>
      <trkpt lat="48.44216" lon="7.10625">
        <ele>876</ele>
        <time>2020-06-01T12:27:31.999Z</time>
      </trkpt>
      <trkpt lat="48.44225" lon="7.10631">
        <ele>876</ele>
        <time>2020-06-01T12:27:39.999Z</time>
      </trkpt>
      <trkpt lat="48.44233" lon="7.10637">
        <ele>877</ele>
        <time>2020-06-01T12:27:52.999Z</time>
      </trkpt>
      <trkpt lat="48.44242" lon="7.10635">
        <ele>877</ele>
        <time>2020-06-01T12:28:10.999Z</time>
      </trkpt>
      <trkpt lat="48.44251" lon="7.10634">
        <ele>884</ele>
        <time>2020-06-01T12:28:24.999Z</time>
      </trkpt>
      <trkpt lat="48.44261" lon="7.10632">
        <ele>885</ele>
        <time>2020-06-01T12:28:34.999Z</time>
      </trkpt>
      <trkpt lat="48.44271" lon="7.10633">
        <ele>885</ele>
        <time>2020-06-01T12:28:43.999Z</time>
      </trkpt>
      <trkpt lat="48.4428" lon="7.10638">
        <ele>885</ele>
        <time>2020-06-01T12:28:52.999Z</time>
      </trkpt>
      <trkpt lat="48.44288" lon="7.10643">
        <ele>886</ele>
        <time>2020-06-01T12:28:57.999Z</time>
      </trkpt>
      <trkpt lat="48.44297" lon="7.10648">
        <ele>886</ele>
        <time>2020-06-01T12:29:03.999Z</time>
      </trkpt>
      <trkpt lat="48.44306" lon="7.10657">
        <ele>887</ele>
        <time>2020-06-01T12:29:11.999Z</time>
      </trkpt>
      <trkpt lat="48.44313" lon="7.10665">
        <ele>887</ele>
        <time>2020-06-01T12:29:19.999Z</time>
      </trkpt>
      <trkpt lat="48.44322" lon="7.10664">
        <ele>888</ele>
        <time>2020-06-01T12:29:29.999Z</time>
      </trkpt>
      <trkpt lat="48.44332" lon="7.10663">
        <ele>888</ele>
        <time>2020-06-01T12:29:37.999Z</time>
      </trkpt>
      <trkpt lat="48.44341" lon="7.10663">
        <ele>889</ele>
        <time>2020-06-01T12:29:46.999Z</time>
      </trkpt>
      <trkpt lat="48.4435" lon="7.10663">
        <ele>890</ele>
        <time>2020-06-01T12:29:55.999Z</time>
      </trkpt>
      <trkpt lat="48.4436" lon="7.10663">
        <ele>891</ele>
        <time>2020-06-01T12:30:06.999Z</time>
      </trkpt>
      <trkpt lat="48.4437" lon="7.10665">
        <ele>891</ele>
        <time>2020-06-01T12:30:19.999Z</time>
      </trkpt>
      <trkpt lat="48.44379" lon="7.10663">
        <ele>891</ele>
        <time>2020-06-01T12:30:27.999Z</time>
      </trkpt>
      <trkpt lat="48.44388" lon="7.10661">
        <ele>891</ele>
        <time>2020-06-01T12:30:34.999Z</time>
      </trkpt>
      <trkpt lat="48.44398" lon="7.10655">
        <ele>891</ele>
        <time>2020-06-01T12:30:44.999Z</time>
      </trkpt>
      <trkpt lat="48.44404" lon="7.10644">
        <ele>891</ele>
        <time>2020-06-01T12:30:55.999Z</time>
      </trkpt>
      <trkpt lat="48.44409" lon="7.10631">
        <ele>892</ele>
        <time>2020-06-01T12:31:09.999Z</time>
      </trkpt>
      <trkpt lat="48.44416" lon="7.1062">
        <ele>893</ele>
        <time>2020-06-01T12:31:17.999Z</time>
      </trkpt>
      <trkpt lat="48.44423" lon="7.10609">
        <ele>889</ele>
        <time>2020-06-01T12:31:28.999Z</time>
      </trkpt>
      <trkpt lat="48.4443" lon="7.10598">
        <ele>890</ele>
        <time>2020-06-01T12:31:34.999Z</time>
      </trkpt>
      <trkpt lat="48.44435" lon="7.10586">
        <ele>890</ele>
        <time>2020-06-01T12:31:39.999Z</time>
      </trkpt>
      <trkpt lat="48.44439" lon="7.10574">
        <ele>894</ele>
        <time>2020-06-01T12:31:46.999Z</time>
      </trkpt>
      <trkpt lat="48.44442" lon="7.1056">
        <ele>894</ele>
        <time>2020-06-01T12:31:54.999Z</time>
      </trkpt>
      <trkpt lat="48.44444" lon="7.10546">
        <ele>894</ele>
        <time>2020-06-01T12:32:05.999Z</time>
      </trkpt>
      <trkpt lat="48.44448" lon="7.10533">
        <ele>895</ele>
        <time>2020-06-01T12:32:13.999Z</time>
      </trkpt>
      <trkpt lat="48.44451" lon="7.1052">
        <ele>895</ele>
        <time>2020-06-01T12:32:20.999Z</time>
      </trkpt>
      <trkpt lat="48.44455" lon="7.10507">
        <ele>896</ele>
        <time>2020-06-01T12:32:27.999Z</time>
      </trkpt>
      <trkpt lat="48.4446" lon="7.10496">
        <ele>901</ele>
        <time>2020-06-01T12:32:38.999Z</time>
      </trkpt>
      <trkpt lat="48.44465" lon="7.10483">
        <ele>901</ele>
        <time>2020-06-01T12:32:45.999Z</time>
      </trkpt>
      <trkpt lat="48.44469" lon="7.1047">
        <ele>901</ele>
        <time>2020-06-01T12:32:55.999Z</time>
      </trkpt>
      <trkpt lat="48.44473" lon="7.10457">
        <ele>902</ele>
        <time>2020-06-01T12:33:07.999Z</time>
      </trkpt>
      <trkpt lat="48.44479" lon="7.10444">
        <ele>903</ele>
        <time>2020-06-01T12:33:16.999Z</time>
      </trkpt>
      <trkpt lat="48.44481" lon="7.1043">
        <ele>903</ele>
        <time>2020-06-01T12:33:26.999Z</time>
      </trkpt>
      <trkpt lat="48.44487" lon="7.1042">
        <ele>903</ele>
        <time>2020-06-01T12:33:35.999Z</time>
      </trkpt>
      <trkpt lat="48.44492" lon="7.10408">
        <ele>906</ele>
        <time>2020-06-01T12:33:42.999Z</time>
      </trkpt>
      <trkpt lat="48.44498" lon="7.10397">
        <ele>907</ele>
        <time>2020-06-01T12:33:51.999Z</time>
      </trkpt>
      <trkpt lat="48.44504" lon="7.10386">
        <ele>901</ele>
        <time>2020-06-01T12:34:01.999Z</time>
      </trkpt>
      <trkpt lat="48.4451" lon="7.10375">
        <ele>901</ele>
        <time>2020-06-01T12:34:07.999Z</time>
      </trkpt>
      <trkpt lat="48.44516" lon="7.10365">
        <ele>902</ele>
        <time>2020-06-01T12:34:16.999Z</time>
      </trkpt>
      <trkpt lat="48.44521" lon="7.10352">
        <ele>903</ele>
        <time>2020-06-01T12:34:29.999Z</time>
      </trkpt>
      <trkpt lat="48.44528" lon="7.10342">
        <ele>902</ele>
        <time>2020-06-01T12:34:38.999Z</time>
      </trkpt>
      <trkpt lat="48.44535" lon="7.1033">
        <ele>906</ele>
        <time>2020-06-01T12:34:47.999Z</time>
      </trkpt>
      <trkpt lat="48.44542" lon="7.10321">
        <ele>906</ele>
        <time>2020-06-01T12:34:54.999Z</time>
      </trkpt>
      <trkpt lat="48.44551" lon="7.10313">
        <ele>905</ele>
        <time>2020-06-01T12:35:06.999Z</time>
      </trkpt>
      <trkpt lat="48.44559" lon="7.10306">
        <ele>905</ele>
        <time>2020-06-01T12:35:16.999Z</time>
      </trkpt>
      <trkpt lat="48.44566" lon="7.10298">
        <ele>905</ele>
        <time>2020-06-01T12:35:26.999Z</time>
      </trkpt>
      <trkpt lat="48.44575" lon="7.1029">
        <ele>905</ele>
        <time>2020-06-01T12:35:38.999Z</time>
      </trkpt>
      <trkpt lat="48.44584" lon="7.10286">
        <ele>898</ele>
        <time>2020-06-01T12:35:49.999Z</time>
      </trkpt>
      <trkpt lat="48.44593" lon="7.10284">
        <ele>898</ele>
        <time>2020-06-01T12:36:01.999Z</time>
      </trkpt>
      <trkpt lat="48.44601" lon="7.10276">
        <ele>898</ele>
        <time>2020-06-01T12:36:12.999Z</time>
      </trkpt>
      <trkpt lat="48.44609" lon="7.10272">
        <ele>897</ele>
        <time>2020-06-01T12:36:20.999Z</time>
      </trkpt>
      <trkpt lat="48.44619" lon="7.10269">
        <ele>896</ele>
        <time>2020-06-01T12:37:03.999Z</time>
      </trkpt>
      <trkpt lat="48.44626" lon="7.1028">
        <ele>895</ele>
        <time>2020-06-01T12:37:31.999Z</time>
      </trkpt>
      <trkpt lat="48.44635" lon="7.10281">
        <ele>894</ele>
        <time>2020-06-01T12:37:45.999Z</time>
      </trkpt>
      <trkpt lat="48.44644" lon="7.10273">
        <ele>894</ele>
        <time>2020-06-01T12:37:53.999Z</time>
      </trkpt>
      <trkpt lat="48.44652" lon="7.10267">
        <ele>893</ele>
        <time>2020-06-01T12:37:58.999Z</time>
      </trkpt>
      <trkpt lat="48.44662" lon="7.10263">
        <ele>893</ele>
        <time>2020-06-01T12:38:04.999Z</time>
      </trkpt>
      <trkpt lat="48.44671" lon="7.10258">
        <ele>887</ele>
        <time>2020-06-01T12:38:10.999Z</time>
      </trkpt>
      <trkpt lat="48.44678" lon="7.10249">
        <ele>889</ele>
        <time>2020-06-01T12:38:17.999Z</time>
      </trkpt>
      <trkpt lat="48.44683" lon="7.10235">
        <ele>888</ele>
        <time>2020-06-01T12:38:32.999Z</time>
      </trkpt>
      <trkpt lat="48.4469" lon="7.10226">
        <ele>887</ele>
        <time>2020-06-01T12:38:39.999Z</time>
      </trkpt>
      <trkpt lat="48.44699" lon="7.10218">
        <ele>886</ele>
        <time>2020-06-01T12:38:48.999Z</time>
      </trkpt>
      <trkpt lat="48.44707" lon="7.10212">
        <ele>885</ele>
        <time>2020-06-01T12:38:53.999Z</time>
      </trkpt>
      <trkpt lat="48.44715" lon="7.10202">
        <ele>885</ele>
        <time>2020-06-01T12:39:00.999Z</time>
      </trkpt>
      <trkpt lat="48.44724" lon="7.10193">
        <ele>885</ele>
        <time>2020-06-01T12:39:06.999Z</time>
      </trkpt>
      <trkpt lat="48.44731" lon="7.10184">
        <ele>884</ele>
        <time>2020-06-01T12:39:11.999Z</time>
      </trkpt>
      <trkpt lat="48.44737" lon="7.10174">
        <ele>884</ele>
        <time>2020-06-01T12:39:18.999Z</time>
      </trkpt>
      <trkpt lat="48.44744" lon="7.10163">
        <ele>885</ele>
        <time>2020-06-01T12:39:25.999Z</time>
      </trkpt>
      <trkpt lat="48.44752" lon="7.10156">
        <ele>883</ele>
        <time>2020-06-01T12:39:33.999Z</time>
      </trkpt>
      <trkpt lat="48.44761" lon="7.10148">
        <ele>884</ele>
        <time>2020-06-01T12:39:41.999Z</time>
      </trkpt>
      <trkpt lat="48.44768" lon="7.10137">
        <ele>885</ele>
        <time>2020-06-01T12:40:14.999Z</time>
      </trkpt>
      <trkpt lat="48.44777" lon="7.10132">
        <ele>885</ele>
        <time>2020-06-01T12:40:21.999Z</time>
      </trkpt>
      <trkpt lat="48.44786" lon="7.10128">
        <ele>885</ele>
        <time>2020-06-01T12:40:29.999Z</time>
      </trkpt>
      <trkpt lat="48.44796" lon="7.10123">
        <ele>885</ele>
        <time>2020-06-01T12:40:37.999Z</time>
      </trkpt>
      <trkpt lat="48.44805" lon="7.10118">
        <ele>885</ele>
        <time>2020-06-01T12:40:44.999Z</time>
      </trkpt>
      <trkpt lat="48.44813" lon="7.10113">
        <ele>886</ele>
        <time>2020-06-01T12:40:51.999Z</time>
      </trkpt>
      <trkpt lat="48.44822" lon="7.1011">
        <ele>886</ele>
        <time>2020-06-01T12:40:57.999Z</time>
      </trkpt>
      <trkpt lat="48.44832" lon="7.10106">
        <ele>886</ele>
        <time>2020-06-01T12:41:09.999Z</time>
      </trkpt>
      <trkpt lat="48.44841" lon="7.10101">
        <ele>885</ele>
        <time>2020-06-01T12:41:19.999Z</time>
      </trkpt>
      <trkpt lat="48.44853" lon="7.10096">
        <ele>885</ele>
        <time>2020-06-01T12:41:24.999Z</time>
      </trkpt>
      <trkpt lat="48.44862" lon="7.10096">
        <ele>884</ele>
        <time>2020-06-01T12:41:29.999Z</time>
      </trkpt>
      <trkpt lat="48.44871" lon="7.10094">
        <ele>884</ele>
        <time>2020-06-01T12:41:35.999Z</time>
      </trkpt>
      <trkpt lat="48.44881" lon="7.10095">
        <ele>883</ele>
        <time>2020-06-01T12:41:44.999Z</time>
      </trkpt>
      <trkpt lat="48.4489" lon="7.10094">
        <ele>884</ele>
        <time>2020-06-01T12:41:52.999Z</time>
      </trkpt>
      <trkpt lat="48.449" lon="7.10092">
        <ele>884</ele>
        <time>2020-06-01T12:41:59.999Z</time>
      </trkpt>
      <trkpt lat="48.44909" lon="7.10087">
        <ele>885</ele>
        <time>2020-06-01T12:42:09.999Z</time>
      </trkpt>
      <trkpt lat="48.44918" lon="7.10086">
        <ele>885</ele>
        <time>2020-06-01T12:42:16.999Z</time>
      </trkpt>
      <trkpt lat="48.44928" lon="7.10084">
        <ele>884</ele>
        <time>2020-06-01T12:42:25.999Z</time>
      </trkpt>
      <trkpt lat="48.44937" lon="7.10079">
        <ele>888</ele>
        <time>2020-06-01T12:42:32.999Z</time>
      </trkpt>
      <trkpt lat="48.44947" lon="7.10079">
        <ele>889</ele>
        <time>2020-06-01T12:42:38.999Z</time>
      </trkpt>
      <trkpt lat="48.44956" lon="7.10077">
        <ele>889</ele>
        <time>2020-06-01T12:42:47.999Z</time>
      </trkpt>
      <trkpt lat="48.44965" lon="7.10073">
        <ele>889</ele>
        <time>2020-06-01T12:42:55.999Z</time>
      </trkpt>
      <trkpt lat="48.44974" lon="7.10071">
        <ele>889</ele>
        <time>2020-06-01T12:43:02.999Z</time>
      </trkpt>
      <trkpt lat="48.44984" lon="7.1007">
        <ele>889</ele>
        <time>2020-06-01T12:43:09.999Z</time>
      </trkpt>
      <trkpt lat="48.44993" lon="7.10072">
        <ele>888</ele>
        <time>2020-06-01T12:43:17.999Z</time>
      </trkpt>
      <trkpt lat="48.45002" lon="7.10075">
        <ele>888</ele>
        <time>2020-06-01T12:43:25.999Z</time>
      </trkpt>
      <trkpt lat="48.45011" lon="7.10078">
        <ele>889</ele>
        <time>2020-06-01T12:43:31.999Z</time>
      </trkpt>
      <trkpt lat="48.45021" lon="7.10084">
        <ele>884</ele>
        <time>2020-06-01T12:43:39.999Z</time>
      </trkpt>
      <trkpt lat="48.4503" lon="7.1009">
        <ele>884</ele>
        <time>2020-06-01T12:43:50.999Z</time>
      </trkpt>
      <trkpt lat="48.45039" lon="7.10092">
        <ele>884</ele>
        <time>2020-06-01T12:43:58.999Z</time>
      </trkpt>
      <trkpt lat="48.45049" lon="7.10093">
        <ele>884</ele>
        <time>2020-06-01T12:44:06.999Z</time>
      </trkpt>
      <trkpt lat="48.45059" lon="7.10097">
        <ele>885</ele>
        <time>2020-06-01T12:44:14.999Z</time>
      </trkpt>
      <trkpt lat="48.45068" lon="7.101">
        <ele>885</ele>
        <time>2020-06-01T12:44:25.999Z</time>
      </trkpt>
      <trkpt lat="48.45078" lon="7.10099">
        <ele>886</ele>
        <time>2020-06-01T12:44:33.999Z</time>
      </trkpt>
      <trkpt lat="48.45088" lon="7.10101">
        <ele>887</ele>
        <time>2020-06-01T12:44:41.999Z</time>
      </trkpt>
      <trkpt lat="48.45098" lon="7.10104">
        <ele>887</ele>
        <time>2020-06-01T12:44:48.999Z</time>
      </trkpt>
      <trkpt lat="48.45108" lon="7.10107">
        <ele>887</ele>
        <time>2020-06-01T12:44:54.999Z</time>
      </trkpt>
      <trkpt lat="48.45117" lon="7.10113">
        <ele>886</ele>
        <time>2020-06-01T12:45:01.999Z</time>
      </trkpt>
      <trkpt lat="48.45126" lon="7.10118">
        <ele>886</ele>
        <time>2020-06-01T12:45:08.999Z</time>
      </trkpt>
      <trkpt lat="48.45135" lon="7.10121">
        <ele>886</ele>
        <time>2020-06-01T12:45:15.999Z</time>
      </trkpt>
      <trkpt lat="48.45145" lon="7.10121">
        <ele>886</ele>
        <time>2020-06-01T12:45:24.999Z</time>
      </trkpt>
      <trkpt lat="48.45154" lon="7.10125">
        <ele>886</ele>
        <time>2020-06-01T12:45:35.999Z</time>
      </trkpt>
      <trkpt lat="48.45164" lon="7.10127">
        <ele>886</ele>
        <time>2020-06-01T12:45:44.999Z</time>
      </trkpt>
      <trkpt lat="48.45173" lon="7.10132">
        <ele>889</ele>
        <time>2020-06-01T12:45:56.000Z</time>
      </trkpt>
      <trkpt lat="48.45183" lon="7.10136">
        <ele>889</ele>
        <time>2020-06-01T12:46:14.000Z</time>
      </trkpt>
      <trkpt lat="48.45192" lon="7.1014">
        <ele>889</ele>
        <time>2020-06-01T12:46:19.000Z</time>
      </trkpt>
      <trkpt lat="48.45201" lon="7.10143">
        <ele>890</ele>
        <time>2020-06-01T12:46:24.000Z</time>
      </trkpt>
      <trkpt lat="48.45209" lon="7.10145">
        <ele>891</ele>
        <time>2020-06-01T12:46:29.000Z</time>
      </trkpt>
      <trkpt lat="48.45218" lon="7.10153">
        <ele>891</ele>
        <time>2020-06-01T12:46:36.000Z</time>
      </trkpt>
      <trkpt lat="48.45226" lon="7.10162">
        <ele>892</ele>
        <time>2020-06-01T12:46:44.000Z</time>
      </trkpt>
      <trkpt lat="48.45234" lon="7.10169">
        <ele>889</ele>
        <time>2020-06-01T12:46:54.000Z</time>
      </trkpt>
      <trkpt lat="48.45242" lon="7.10176">
        <ele>890</ele>
        <time>2020-06-01T12:47:01.000Z</time>
      </trkpt>
      <trkpt lat="48.45251" lon="7.10182">
        <ele>894</ele>
        <time>2020-06-01T12:47:09.000Z</time>
      </trkpt>
      <trkpt lat="48.45259" lon="7.10188">
        <ele>894</ele>
        <time>2020-06-01T12:47:18.000Z</time>
      </trkpt>
      <trkpt lat="48.45269" lon="7.10189">
        <ele>894</ele>
        <time>2020-06-01T12:47:25.000Z</time>
      </trkpt>
      <trkpt lat="48.45276" lon="7.10199">
        <ele>893</ele>
        <time>2020-06-01T12:47:34.000Z</time>
      </trkpt>
      <trkpt lat="48.45283" lon="7.10207">
        <ele>893</ele>
        <time>2020-06-01T12:47:42.000Z</time>
      </trkpt>
      <trkpt lat="48.45291" lon="7.10213">
        <ele>893</ele>
        <time>2020-06-01T12:47:49.000Z</time>
      </trkpt>
      <trkpt lat="48.453" lon="7.1022">
        <ele>894</ele>
        <time>2020-06-01T12:47:57.000Z</time>
      </trkpt>
      <trkpt lat="48.45308" lon="7.10228">
        <ele>894</ele>
        <time>2020-06-01T12:48:04.000Z</time>
      </trkpt>
      <trkpt lat="48.45316" lon="7.10233">
        <ele>894</ele>
        <time>2020-06-01T12:48:10.000Z</time>
      </trkpt>
      <trkpt lat="48.45324" lon="7.1024">
        <ele>895</ele>
        <time>2020-06-01T12:48:18.000Z</time>
      </trkpt>
      <trkpt lat="48.45332" lon="7.10248">
        <ele>896</ele>
        <time>2020-06-01T12:48:26.000Z</time>
      </trkpt>
      <trkpt lat="48.45338" lon="7.10259">
        <ele>896</ele>
        <time>2020-06-01T12:48:41.000Z</time>
      </trkpt>
      <trkpt lat="48.45345" lon="7.10271">
        <ele>896</ele>
        <time>2020-06-01T12:48:49.000Z</time>
      </trkpt>
      <trkpt lat="48.45351" lon="7.10282">
        <ele>896</ele>
        <time>2020-06-01T12:48:55.000Z</time>
      </trkpt>
      <trkpt lat="48.45359" lon="7.10289">
        <ele>896</ele>
        <time>2020-06-01T12:49:08.000Z</time>
      </trkpt>
      <trkpt lat="48.45366" lon="7.10299">
        <ele>896</ele>
        <time>2020-06-01T12:49:15.000Z</time>
      </trkpt>
      <trkpt lat="48.45374" lon="7.10308">
        <ele>897</ele>
        <time>2020-06-01T12:49:24.000Z</time>
      </trkpt>
      <trkpt lat="48.45383" lon="7.10319">
        <ele>897</ele>
        <time>2020-06-01T12:49:29.000Z</time>
      </trkpt>
      <trkpt lat="48.45391" lon="7.10327">
        <ele>898</ele>
        <time>2020-06-01T12:49:35.000Z</time>
      </trkpt>
      <trkpt lat="48.454" lon="7.10332">
        <ele>899</ele>
        <time>2020-06-01T12:49:42.000Z</time>
      </trkpt>
      <trkpt lat="48.45409" lon="7.10334">
        <ele>898</ele>
        <time>2020-06-01T12:49:51.000Z</time>
      </trkpt>
      <trkpt lat="48.45419" lon="7.10336">
        <ele>901</ele>
        <time>2020-06-01T12:49:58.000Z</time>
      </trkpt>
      <trkpt lat="48.45426" lon="7.10346">
        <ele>901</ele>
        <time>2020-06-01T12:50:07.000Z</time>
      </trkpt>
      <trkpt lat="48.45434" lon="7.10353">
        <ele>901</ele>
        <time>2020-06-01T12:50:20.000Z</time>
      </trkpt>
      <trkpt lat="48.45441" lon="7.10364">
        <ele>900</ele>
        <time>2020-06-01T12:50:29.000Z</time>
      </trkpt>
      <trkpt lat="48.45446" lon="7.10376">
        <ele>900</ele>
        <time>2020-06-01T12:50:41.000Z</time>
      </trkpt>
      <trkpt lat="48.45453" lon="7.10387">
        <ele>900</ele>
        <time>2020-06-01T12:50:48.000Z</time>
      </trkpt>
      <trkpt lat="48.45461" lon="7.10394">
        <ele>900</ele>
        <time>2020-06-01T12:51:05.000Z</time>
      </trkpt>
      <trkpt lat="48.45471" lon="7.10395">
        <ele>900</ele>
        <time>2020-06-01T12:51:16.000Z</time>
      </trkpt>
      <trkpt lat="48.45479" lon="7.10406">
        <ele>901</ele>
        <time>2020-06-01T12:53:11.000Z</time>
      </trkpt>
      <trkpt lat="48.45487" lon="7.10413">
        <ele>901</ele>
        <time>2020-06-01T12:53:18.000Z</time>
      </trkpt>
      <trkpt lat="48.45479" lon="7.10406">
        <ele>901</ele>
        <time>2020-06-01T12:53:42.000Z</time>
      </trkpt>
      <trkpt lat="48.45483" lon="7.10419">
        <ele>897</ele>
        <time>2020-06-01T12:54:37.000Z</time>
      </trkpt>
      <trkpt lat="48.45492" lon="7.10426">
        <ele>898</ele>
        <time>2020-06-01T12:54:42.000Z</time>
      </trkpt>
      <trkpt lat="48.455" lon="7.10432">
        <ele>900</ele>
        <time>2020-06-01T12:54:48.000Z</time>
      </trkpt>
      <trkpt lat="48.4551" lon="7.10438">
        <ele>900</ele>
        <time>2020-06-01T12:54:56.000Z</time>
      </trkpt>
      <trkpt lat="48.45519" lon="7.10444">
        <ele>900</ele>
        <time>2020-06-01T12:55:04.000Z</time>
      </trkpt>
      <trkpt lat="48.45527" lon="7.10451">
        <ele>899</ele>
        <time>2020-06-01T12:55:16.000Z</time>
      </trkpt>
      <trkpt lat="48.45534" lon="7.1046">
        <ele>899</ele>
        <time>2020-06-01T12:55:24.000Z</time>
      </trkpt>
      <trkpt lat="48.45541" lon="7.10468">
        <ele>899</ele>
        <time>2020-06-01T12:55:31.000Z</time>
      </trkpt>
      <trkpt lat="48.4555" lon="7.10476">
        <ele>899</ele>
        <time>2020-06-01T12:55:42.000Z</time>
      </trkpt>
      <trkpt lat="48.45558" lon="7.10484">
        <ele>898</ele>
        <time>2020-06-01T12:56:03.000Z</time>
      </trkpt>
      <trkpt lat="48.45567" lon="7.1049">
        <ele>898</ele>
        <time>2020-06-01T12:56:11.000Z</time>
      </trkpt>
      <trkpt lat="48.45576" lon="7.10496">
        <ele>898</ele>
        <time>2020-06-01T12:56:23.000Z</time>
      </trkpt>
      <trkpt lat="48.45585" lon="7.10498">
        <ele>898</ele>
        <time>2020-06-01T12:56:28.000Z</time>
      </trkpt>
      <trkpt lat="48.45594" lon="7.10501">
        <ele>896</ele>
        <time>2020-06-01T12:56:43.000Z</time>
      </trkpt>
      <trkpt lat="48.45603" lon="7.10505">
        <ele>895</ele>
        <time>2020-06-01T12:56:52.000Z</time>
      </trkpt>
      <trkpt lat="48.45613" lon="7.10507">
        <ele>895</ele>
        <time>2020-06-01T12:56:58.000Z</time>
      </trkpt>
      <trkpt lat="48.45622" lon="7.10511">
        <ele>894</ele>
        <time>2020-06-01T12:57:06.000Z</time>
      </trkpt>
      <trkpt lat="48.45632" lon="7.1051">
        <ele>894</ele>
        <time>2020-06-01T12:57:23.000Z</time>
      </trkpt>
      <trkpt lat="48.4564" lon="7.10517">
        <ele>894</ele>
        <time>2020-06-01T12:57:34.000Z</time>
      </trkpt>
      <trkpt lat="48.45649" lon="7.10523">
        <ele>894</ele>
        <time>2020-06-01T12:57:40.000Z</time>
      </trkpt>
      <trkpt lat="48.45658" lon="7.10527">
        <ele>894</ele>
        <time>2020-06-01T12:57:50.000Z</time>
      </trkpt>
      <trkpt lat="48.45667" lon="7.10531">
        <ele>893</ele>
        <time>2020-06-01T12:57:57.000Z</time>
      </trkpt>
      <trkpt lat="48.45677" lon="7.10538">
        <ele>893</ele>
        <time>2020-06-01T12:58:06.000Z</time>
      </trkpt>
      <trkpt lat="48.45686" lon="7.10545">
        <ele>892</ele>
        <time>2020-06-01T12:58:11.000Z</time>
      </trkpt>
      <trkpt lat="48.45695" lon="7.10551">
        <ele>892</ele>
        <time>2020-06-01T12:58:19.000Z</time>
      </trkpt>
      <trkpt lat="48.45704" lon="7.10558">
        <ele>892</ele>
        <time>2020-06-01T12:58:27.000Z</time>
      </trkpt>
      <trkpt lat="48.45713" lon="7.10564">
        <ele>891</ele>
        <time>2020-06-01T12:58:35.000Z</time>
      </trkpt>
      <trkpt lat="48.45723" lon="7.10568">
        <ele>891</ele>
        <time>2020-06-01T12:58:42.000Z</time>
      </trkpt>
      <trkpt lat="48.45732" lon="7.10572">
        <ele>891</ele>
        <time>2020-06-01T12:58:51.000Z</time>
      </trkpt>
      <trkpt lat="48.45741" lon="7.10572">
        <ele>890</ele>
        <time>2020-06-01T12:59:10.000Z</time>
      </trkpt>
      <trkpt lat="48.4575" lon="7.10576">
        <ele>890</ele>
        <time>2020-06-01T12:59:16.000Z</time>
      </trkpt>
      <trkpt lat="48.45759" lon="7.10583">
        <ele>889</ele>
        <time>2020-06-01T12:59:27.000Z</time>
      </trkpt>
      <trkpt lat="48.45767" lon="7.1059">
        <ele>886</ele>
        <time>2020-06-01T12:59:32.000Z</time>
      </trkpt>
      <trkpt lat="48.45775" lon="7.10596">
        <ele>885</ele>
        <time>2020-06-01T12:59:41.000Z</time>
      </trkpt>
      <trkpt lat="48.45785" lon="7.10601">
        <ele>884</ele>
        <time>2020-06-01T12:59:47.000Z</time>
      </trkpt>
      <trkpt lat="48.45793" lon="7.10607">
        <ele>884</ele>
        <time>2020-06-01T12:59:53.000Z</time>
      </trkpt>
      <trkpt lat="48.45801" lon="7.10616">
        <ele>883</ele>
        <time>2020-06-01T13:00:01.000Z</time>
      </trkpt>
      <trkpt lat="48.45809" lon="7.10624">
        <ele>883</ele>
        <time>2020-06-01T13:00:08.000Z</time>
      </trkpt>
      <trkpt lat="48.45817" lon="7.10631">
        <ele>883</ele>
        <time>2020-06-01T13:00:13.000Z</time>
      </trkpt>
      <trkpt lat="48.45825" lon="7.10636">
        <ele>882</ele>
        <time>2020-06-01T13:00:20.000Z</time>
      </trkpt>
      <trkpt lat="48.45835" lon="7.10642">
        <ele>884</ele>
        <time>2020-06-01T13:00:27.000Z</time>
      </trkpt>
      <trkpt lat="48.45844" lon="7.10646">
        <ele>884</ele>
        <time>2020-06-01T13:00:36.000Z</time>
      </trkpt>
      <trkpt lat="48.45853" lon="7.1065">
        <ele>884</ele>
        <time>2020-06-01T13:00:45.000Z</time>
      </trkpt>
      <trkpt lat="48.45862" lon="7.10655">
        <ele>884</ele>
        <time>2020-06-01T13:00:55.000Z</time>
      </trkpt>
      <trkpt lat="48.4587" lon="7.10662">
        <ele>885</ele>
        <time>2020-06-01T13:01:04.000Z</time>
      </trkpt>
      <trkpt lat="48.45878" lon="7.1067">
        <ele>880</ele>
        <time>2020-06-01T13:01:11.000Z</time>
      </trkpt>
      <trkpt lat="48.45887" lon="7.10677">
        <ele>881</ele>
        <time>2020-06-01T13:01:19.000Z</time>
      </trkpt>
      <trkpt lat="48.45894" lon="7.10686">
        <ele>881</ele>
        <time>2020-06-01T13:01:31.000Z</time>
      </trkpt>
      <trkpt lat="48.45901" lon="7.10695">
        <ele>880</ele>
        <time>2020-06-01T13:01:41.000Z</time>
      </trkpt>
      <trkpt lat="48.4591" lon="7.10702">
        <ele>880</ele>
        <time>2020-06-01T13:01:49.000Z</time>
      </trkpt>
      <trkpt lat="48.45917" lon="7.10712">
        <ele>886</ele>
        <time>2020-06-01T13:01:56.000Z</time>
      </trkpt>
      <trkpt lat="48.45924" lon="7.10722">
        <ele>885</ele>
        <time>2020-06-01T13:02:03.000Z</time>
      </trkpt>
      <trkpt lat="48.45929" lon="7.10733">
        <ele>885</ele>
        <time>2020-06-01T13:02:14.000Z</time>
      </trkpt>
      <trkpt lat="48.45936" lon="7.10744">
        <ele>885</ele>
        <time>2020-06-01T13:02:25.000Z</time>
      </trkpt>
      <trkpt lat="48.45943" lon="7.10755">
        <ele>881</ele>
        <time>2020-06-01T13:02:31.000Z</time>
      </trkpt>
      <trkpt lat="48.45949" lon="7.10766">
        <ele>881</ele>
        <time>2020-06-01T13:02:36.000Z</time>
      </trkpt>
      <trkpt lat="48.45955" lon="7.10777">
        <ele>881</ele>
        <time>2020-06-01T13:02:44.000Z</time>
      </trkpt>
      <trkpt lat="48.45963" lon="7.10784">
        <ele>882</ele>
        <time>2020-06-01T13:03:15.000Z</time>
      </trkpt>
      <trkpt lat="48.4597" lon="7.10793">
        <ele>882</ele>
        <time>2020-06-01T13:03:22.000Z</time>
      </trkpt>
      <trkpt lat="48.45976" lon="7.10803">
        <ele>883</ele>
        <time>2020-06-01T13:03:32.000Z</time>
      </trkpt>
      <trkpt lat="48.45984" lon="7.10816">
        <ele>884</ele>
        <time>2020-06-01T13:03:39.000Z</time>
      </trkpt>
      <trkpt lat="48.45992" lon="7.10826">
        <ele>886</ele>
        <time>2020-06-01T13:03:46.000Z</time>
      </trkpt>
      <trkpt lat="48.46" lon="7.10833">
        <ele>889</ele>
        <time>2020-06-01T13:03:55.000Z</time>
      </trkpt>
      <trkpt lat="48.46007" lon="7.10842">
        <ele>889</ele>
        <time>2020-06-01T13:04:05.000Z</time>
      </trkpt>
      <trkpt lat="48.46015" lon="7.10853">
        <ele>889</ele>
        <time>2020-06-01T13:04:13.000Z</time>
      </trkpt>
      <trkpt lat="48.46024" lon="7.10861">
        <ele>889</ele>
        <time>2020-06-01T13:04:19.000Z</time>
      </trkpt>
      <trkpt lat="48.46032" lon="7.10872">
        <ele>889</ele>
        <time>2020-06-01T13:04:31.000Z</time>
      </trkpt>
      <trkpt lat="48.46039" lon="7.10879">
        <ele>889</ele>
        <time>2020-06-01T13:04:40.000Z</time>
      </trkpt>
      <trkpt lat="48.46048" lon="7.1089">
        <ele>889</ele>
        <time>2020-06-01T13:04:47.000Z</time>
      </trkpt>
      <trkpt lat="48.46056" lon="7.10899">
        <ele>890</ele>
        <time>2020-06-01T13:04:53.000Z</time>
      </trkpt>
      <trkpt lat="48.46064" lon="7.10908">
        <ele>890</ele>
        <time>2020-06-01T13:05:00.000Z</time>
      </trkpt>
      <trkpt lat="48.46071" lon="7.10917">
        <ele>889</ele>
        <time>2020-06-01T13:05:09.000Z</time>
      </trkpt>
      <trkpt lat="48.46079" lon="7.10924">
        <ele>890</ele>
        <time>2020-06-01T13:05:16.000Z</time>
      </trkpt>
      <trkpt lat="48.46088" lon="7.10931">
        <ele>892</ele>
        <time>2020-06-01T13:05:24.000Z</time>
      </trkpt>
      <trkpt lat="48.46097" lon="7.10937">
        <ele>892</ele>
        <time>2020-06-01T13:05:33.000Z</time>
      </trkpt>
      <trkpt lat="48.46106" lon="7.10946">
        <ele>891</ele>
        <time>2020-06-01T13:05:41.000Z</time>
      </trkpt>
      <trkpt lat="48.46113" lon="7.10954">
        <ele>891</ele>
        <time>2020-06-01T13:05:47.000Z</time>
      </trkpt>
      <trkpt lat="48.46121" lon="7.10961">
        <ele>891</ele>
        <time>2020-06-01T13:05:55.000Z</time>
      </trkpt>
      <trkpt lat="48.4613" lon="7.10967">
        <ele>892</ele>
        <time>2020-06-01T13:06:03.000Z</time>
      </trkpt>
      <trkpt lat="48.46139" lon="7.10973">
        <ele>892</ele>
        <time>2020-06-01T13:06:10.000Z</time>
      </trkpt>
      <trkpt lat="48.46148" lon="7.10978">
        <ele>892</ele>
        <time>2020-06-01T13:06:20.000Z</time>
      </trkpt>
      <trkpt lat="48.46156" lon="7.10984">
        <ele>893</ele>
        <time>2020-06-01T13:06:28.000Z</time>
      </trkpt>
      <trkpt lat="48.46165" lon="7.10991">
        <ele>893</ele>
        <time>2020-06-01T13:06:35.000Z</time>
      </trkpt>
      <trkpt lat="48.46174" lon="7.10996">
        <ele>894</ele>
        <time>2020-06-01T13:06:43.000Z</time>
      </trkpt>
      <trkpt lat="48.46182" lon="7.11001">
        <ele>892</ele>
        <time>2020-06-01T13:06:51.000Z</time>
      </trkpt>
      <trkpt lat="48.4619" lon="7.11007">
        <ele>892</ele>
        <time>2020-06-01T13:06:59.000Z</time>
      </trkpt>
      <trkpt lat="48.46199" lon="7.11013">
        <ele>891</ele>
        <time>2020-06-01T13:07:07.000Z</time>
      </trkpt>
      <trkpt lat="48.46208" lon="7.11019">
        <ele>891</ele>
        <time>2020-06-01T13:07:14.000Z</time>
      </trkpt>
      <trkpt lat="48.46217" lon="7.11024">
        <ele>891</ele>
        <time>2020-06-01T13:07:22.000Z</time>
      </trkpt>
      <trkpt lat="48.46227" lon="7.11029">
        <ele>891</ele>
        <time>2020-06-01T13:07:30.000Z</time>
      </trkpt>
      <trkpt lat="48.46235" lon="7.11034">
        <ele>891</ele>
        <time>2020-06-01T13:07:38.000Z</time>
      </trkpt>
      <trkpt lat="48.46244" lon="7.11039">
        <ele>891</ele>
        <time>2020-06-01T13:07:46.000Z</time>
      </trkpt>
      <trkpt lat="48.46253" lon="7.11043">
        <ele>892</ele>
        <time>2020-06-01T13:07:53.000Z</time>
      </trkpt>
      <trkpt lat="48.46262" lon="7.11045">
        <ele>892</ele>
        <time>2020-06-01T13:08:01.000Z</time>
      </trkpt>
      <trkpt lat="48.4627" lon="7.11053">
        <ele>892</ele>
        <time>2020-06-01T13:08:16.000Z</time>
      </trkpt>
      <trkpt lat="48.46279" lon="7.11055">
        <ele>892</ele>
        <time>2020-06-01T13:08:23.000Z</time>
      </trkpt>
      <trkpt lat="48.46288" lon="7.11059">
        <ele>892</ele>
        <time>2020-06-01T13:08:35.000Z</time>
      </trkpt>
      <trkpt lat="48.46296" lon="7.11064">
        <ele>892</ele>
        <time>2020-06-01T13:08:40.000Z</time>
      </trkpt>
      <trkpt lat="48.46305" lon="7.11067">
        <ele>892</ele>
        <time>2020-06-01T13:08:47.000Z</time>
      </trkpt>
      <trkpt lat="48.46315" lon="7.11069">
        <ele>892</ele>
        <time>2020-06-01T13:08:53.000Z</time>
      </trkpt>
      <trkpt lat="48.46325" lon="7.11069">
        <ele>892</ele>
        <time>2020-06-01T13:09:01.000Z</time>
      </trkpt>
      <trkpt lat="48.46335" lon="7.11068">
        <ele>893</ele>
        <time>2020-06-01T13:09:07.000Z</time>
      </trkpt>
      <trkpt lat="48.46344" lon="7.1107">
        <ele>893</ele>
        <time>2020-06-01T13:09:15.000Z</time>
      </trkpt>
      <trkpt lat="48.46353" lon="7.11075">
        <ele>893</ele>
        <time>2020-06-01T13:09:23.000Z</time>
      </trkpt>
      <trkpt lat="48.46363" lon="7.11077">
        <ele>893</ele>
        <time>2020-06-01T13:09:31.000Z</time>
      </trkpt>
      <trkpt lat="48.46372" lon="7.11076">
        <ele>893</ele>
        <time>2020-06-01T13:09:37.000Z</time>
      </trkpt>
      <trkpt lat="48.46382" lon="7.11075">
        <ele>893</ele>
        <time>2020-06-01T13:09:45.000Z</time>
      </trkpt>
      <trkpt lat="48.46392" lon="7.11077">
        <ele>894</ele>
        <time>2020-06-01T13:09:55.000Z</time>
      </trkpt>
      <trkpt lat="48.46401" lon="7.11079">
        <ele>894</ele>
        <time>2020-06-01T13:10:04.000Z</time>
      </trkpt>
      <trkpt lat="48.46411" lon="7.11082">
        <ele>894</ele>
        <time>2020-06-01T13:10:14.000Z</time>
      </trkpt>
      <trkpt lat="48.46421" lon="7.11084">
        <ele>891</ele>
        <time>2020-06-01T13:10:22.000Z</time>
      </trkpt>
      <trkpt lat="48.46431" lon="7.11082">
        <ele>891</ele>
        <time>2020-06-01T13:10:29.000Z</time>
      </trkpt>
      <trkpt lat="48.46439" lon="7.11079">
        <ele>890</ele>
        <time>2020-06-01T13:10:35.000Z</time>
      </trkpt>
      <trkpt lat="48.46449" lon="7.11074">
        <ele>889</ele>
        <time>2020-06-01T13:10:43.000Z</time>
      </trkpt>
      <trkpt lat="48.46459" lon="7.11072">
        <ele>888</ele>
        <time>2020-06-01T13:10:50.000Z</time>
      </trkpt>
      <trkpt lat="48.46469" lon="7.1107">
        <ele>886</ele>
        <time>2020-06-01T13:10:57.000Z</time>
      </trkpt>
      <trkpt lat="48.46477" lon="7.11063">
        <ele>886</ele>
        <time>2020-06-01T13:11:04.000Z</time>
      </trkpt>
      <trkpt lat="48.46485" lon="7.11054">
        <ele>886</ele>
        <time>2020-06-01T13:11:12.000Z</time>
      </trkpt>
      <trkpt lat="48.46494" lon="7.11048">
        <ele>886</ele>
        <time>2020-06-01T13:11:21.000Z</time>
      </trkpt>
      <trkpt lat="48.46502" lon="7.11039">
        <ele>876</ele>
        <time>2020-06-01T13:11:27.000Z</time>
      </trkpt>
      <trkpt lat="48.4651" lon="7.1103">
        <ele>877</ele>
        <time>2020-06-01T13:11:35.000Z</time>
      </trkpt>
      <trkpt lat="48.46514" lon="7.11018">
        <ele>879</ele>
        <time>2020-06-01T13:11:53.000Z</time>
      </trkpt>
      <trkpt lat="48.46523" lon="7.11015">
        <ele>877</ele>
        <time>2020-06-01T13:13:20.000Z</time>
      </trkpt>
      <trkpt lat="48.46532" lon="7.1101">
        <ele>876</ele>
        <time>2020-06-01T13:13:28.000Z</time>
      </trkpt>
      <trkpt lat="48.46539" lon="7.11002">
        <ele>875</ele>
        <time>2020-06-01T13:13:52.000Z</time>
      </trkpt>
      <trkpt lat="48.46547" lon="7.10995">
        <ele>880</ele>
        <time>2020-06-01T13:14:00.000Z</time>
      </trkpt>
      <trkpt lat="48.46556" lon="7.10991">
        <ele>879</ele>
        <time>2020-06-01T13:14:10.000Z</time>
      </trkpt>
      <trkpt lat="48.46565" lon="7.10986">
        <ele>878</ele>
        <time>2020-06-01T13:14:18.000Z</time>
      </trkpt>
      <trkpt lat="48.46572" lon="7.10975">
        <ele>878</ele>
        <time>2020-06-01T13:14:25.000Z</time>
      </trkpt>
      <trkpt lat="48.46581" lon="7.10967">
        <ele>878</ele>
        <time>2020-06-01T13:14:32.000Z</time>
      </trkpt>
      <trkpt lat="48.46589" lon="7.10959">
        <ele>871</ele>
        <time>2020-06-01T13:14:38.000Z</time>
      </trkpt>
      <trkpt lat="48.46595" lon="7.10949">
        <ele>871</ele>
        <time>2020-06-01T13:14:45.000Z</time>
      </trkpt>
      <trkpt lat="48.46603" lon="7.10941">
        <ele>872</ele>
        <time>2020-06-01T13:14:54.000Z</time>
      </trkpt>
      <trkpt lat="48.46612" lon="7.10934">
        <ele>871</ele>
        <time>2020-06-01T13:15:03.000Z</time>
      </trkpt>
      <trkpt lat="48.46621" lon="7.10928">
        <ele>871</ele>
        <time>2020-06-01T13:15:12.000Z</time>
      </trkpt>
      <trkpt lat="48.4663" lon="7.10924">
        <ele>871</ele>
        <time>2020-06-01T13:15:21.000Z</time>
      </trkpt>
      <trkpt lat="48.46639" lon="7.10919">
        <ele>870</ele>
        <time>2020-06-01T13:15:30.000Z</time>
      </trkpt>
      <trkpt lat="48.46649" lon="7.10919">
        <ele>870</ele>
        <time>2020-06-01T13:15:36.000Z</time>
      </trkpt>
      <trkpt lat="48.46658" lon="7.1092">
        <ele>870</ele>
        <time>2020-06-01T13:15:44.000Z</time>
      </trkpt>
      <trkpt lat="48.46667" lon="7.10917">
        <ele>870</ele>
        <time>2020-06-01T13:15:51.000Z</time>
      </trkpt>
      <trkpt lat="48.46677" lon="7.10918">
        <ele>868</ele>
        <time>2020-06-01T13:16:03.000Z</time>
      </trkpt>
      <trkpt lat="48.46686" lon="7.10922">
        <ele>867</ele>
        <time>2020-06-01T13:16:14.000Z</time>
      </trkpt>
      <trkpt lat="48.46694" lon="7.10926">
        <ele>866</ele>
        <time>2020-06-01T13:16:23.000Z</time>
      </trkpt>
      <trkpt lat="48.46705" lon="7.10929">
        <ele>865</ele>
        <time>2020-06-01T13:16:31.000Z</time>
      </trkpt>
      <trkpt lat="48.46714" lon="7.10932">
        <ele>865</ele>
        <time>2020-06-01T13:16:39.000Z</time>
      </trkpt>
      <trkpt lat="48.46723" lon="7.10929">
        <ele>864</ele>
        <time>2020-06-01T13:16:46.000Z</time>
      </trkpt>
      <trkpt lat="48.46733" lon="7.10923">
        <ele>864</ele>
        <time>2020-06-01T13:16:53.000Z</time>
      </trkpt>
      <trkpt lat="48.4674" lon="7.10913">
        <ele>864</ele>
        <time>2020-06-01T13:17:00.000Z</time>
      </trkpt>
      <trkpt lat="48.46747" lon="7.10904">
        <ele>864</ele>
        <time>2020-06-01T13:17:06.000Z</time>
      </trkpt>
      <trkpt lat="48.46756" lon="7.10897">
        <ele>861</ele>
        <time>2020-06-01T13:17:15.000Z</time>
      </trkpt>
      <trkpt lat="48.46763" lon="7.10889">
        <ele>860</ele>
        <time>2020-06-01T13:17:32.999Z</time>
      </trkpt>
      <trkpt lat="48.46771" lon="7.10881">
        <ele>860</ele>
        <time>2020-06-01T13:17:45.999Z</time>
      </trkpt>
      <trkpt lat="48.46778" lon="7.10872">
        <ele>859</ele>
        <time>2020-06-01T13:17:52.999Z</time>
      </trkpt>
      <trkpt lat="48.46786" lon="7.10864">
        <ele>859</ele>
        <time>2020-06-01T13:18:01.999Z</time>
      </trkpt>
      <trkpt lat="48.46795" lon="7.10859">
        <ele>858</ele>
        <time>2020-06-01T13:18:22.999Z</time>
      </trkpt>
      <trkpt lat="48.46804" lon="7.10853">
        <ele>858</ele>
        <time>2020-06-01T13:18:30.999Z</time>
      </trkpt>
      <trkpt lat="48.46811" lon="7.10846">
        <ele>857</ele>
        <time>2020-06-01T13:18:40.999Z</time>
      </trkpt>
      <trkpt lat="48.46821" lon="7.10839">
        <ele>856</ele>
        <time>2020-06-01T13:18:49.999Z</time>
      </trkpt>
      <trkpt lat="48.4683" lon="7.10841">
        <ele>855</ele>
        <time>2020-06-01T13:19:04.999Z</time>
      </trkpt>
      <trkpt lat="48.4684" lon="7.10843">
        <ele>854</ele>
        <time>2020-06-01T13:19:15.999Z</time>
      </trkpt>
      <trkpt lat="48.46849" lon="7.10839">
        <ele>853</ele>
        <time>2020-06-01T13:19:21.999Z</time>
      </trkpt>
      <trkpt lat="48.46858" lon="7.10839">
        <ele>853</ele>
        <time>2020-06-01T13:20:21.999Z</time>
      </trkpt>
      <trkpt lat="48.46865" lon="7.10849">
        <ele>853</ele>
        <time>2020-06-01T13:20:31.999Z</time>
      </trkpt>
      <trkpt lat="48.46874" lon="7.10855">
        <ele>852</ele>
        <time>2020-06-01T13:20:39.999Z</time>
      </trkpt>
      <trkpt lat="48.46883" lon="7.10861">
        <ele>852</ele>
        <time>2020-06-01T13:20:49.999Z</time>
      </trkpt>
      <trkpt lat="48.46893" lon="7.10867">
        <ele>852</ele>
        <time>2020-06-01T13:20:54.999Z</time>
      </trkpt>
      <trkpt lat="48.46902" lon="7.10873">
        <ele>852</ele>
        <time>2020-06-01T13:21:01.999Z</time>
      </trkpt>
      <trkpt lat="48.46911" lon="7.10878">
        <ele>852</ele>
        <time>2020-06-01T13:21:12.999Z</time>
      </trkpt>
      <trkpt lat="48.46921" lon="7.10882">
        <ele>850</ele>
        <time>2020-06-01T13:21:21.999Z</time>
      </trkpt>
      <trkpt lat="48.4693" lon="7.10889">
        <ele>851</ele>
        <time>2020-06-01T13:21:29.999Z</time>
      </trkpt>
      <trkpt lat="48.46939" lon="7.10895">
        <ele>851</ele>
        <time>2020-06-01T13:21:36.999Z</time>
      </trkpt>
      <trkpt lat="48.46947" lon="7.10904">
        <ele>851</ele>
        <time>2020-06-01T13:21:45.999Z</time>
      </trkpt>
      <trkpt lat="48.46957" lon="7.10907">
        <ele>851</ele>
        <time>2020-06-01T13:21:56.999Z</time>
      </trkpt>
      <trkpt lat="48.46966" lon="7.10907">
        <ele>851</ele>
        <time>2020-06-01T13:22:02.999Z</time>
      </trkpt>
      <trkpt lat="48.46977" lon="7.10907">
        <ele>851</ele>
        <time>2020-06-01T13:22:08.999Z</time>
      </trkpt>
      <trkpt lat="48.46987" lon="7.10909">
        <ele>852</ele>
        <time>2020-06-01T13:22:16.999Z</time>
      </trkpt>
      <trkpt lat="48.46997" lon="7.1091">
        <ele>853</ele>
        <time>2020-06-01T13:22:24.999Z</time>
      </trkpt>
      <trkpt lat="48.47006" lon="7.10913">
        <ele>854</ele>
        <time>2020-06-01T13:22:34.999Z</time>
      </trkpt>
      <trkpt lat="48.47016" lon="7.10918">
        <ele>859</ele>
        <time>2020-06-01T13:22:41.999Z</time>
      </trkpt>
      <trkpt lat="48.47026" lon="7.10921">
        <ele>861</ele>
        <time>2020-06-01T13:22:50.999Z</time>
      </trkpt>
      <trkpt lat="48.47037" lon="7.10922">
        <ele>863</ele>
        <time>2020-06-01T13:22:57.999Z</time>
      </trkpt>
      <trkpt lat="48.47046" lon="7.10926">
        <ele>864</ele>
        <time>2020-06-01T13:23:08.999Z</time>
      </trkpt>
      <trkpt lat="48.47055" lon="7.10924">
        <ele>864</ele>
        <time>2020-06-01T13:23:14.999Z</time>
      </trkpt>
      <trkpt lat="48.47064" lon="7.10924">
        <ele>864</ele>
        <time>2020-06-01T13:23:22.999Z</time>
      </trkpt>
      <trkpt lat="48.47073" lon="7.10924">
        <ele>864</ele>
        <time>2020-06-01T13:23:33.999Z</time>
      </trkpt>
      <trkpt lat="48.47082" lon="7.10918">
        <ele>864</ele>
        <time>2020-06-01T13:23:41.999Z</time>
      </trkpt>
      <trkpt lat="48.47093" lon="7.10916">
        <ele>863</ele>
        <time>2020-06-01T13:23:53.999Z</time>
      </trkpt>
      <trkpt lat="48.47101" lon="7.10912">
        <ele>863</ele>
        <time>2020-06-01T13:23:58.999Z</time>
      </trkpt>
      <trkpt lat="48.4711" lon="7.10911">
        <ele>863</ele>
        <time>2020-06-01T13:24:04.999Z</time>
      </trkpt>
      <trkpt lat="48.4712" lon="7.10909">
        <ele>863</ele>
        <time>2020-06-01T13:24:12.999Z</time>
      </trkpt>
      <trkpt lat="48.47129" lon="7.10906">
        <ele>864</ele>
        <time>2020-06-01T13:24:20.999Z</time>
      </trkpt>
      <trkpt lat="48.47139" lon="7.10904">
        <ele>864</ele>
        <time>2020-06-01T13:24:28.999Z</time>
      </trkpt>
      <trkpt lat="48.47148" lon="7.109">
        <ele>865</ele>
        <time>2020-06-01T13:24:34.999Z</time>
      </trkpt>
      <trkpt lat="48.47157" lon="7.10897">
        <ele>865</ele>
        <time>2020-06-01T13:24:44.999Z</time>
      </trkpt>
      <trkpt lat="48.47166" lon="7.10894">
        <ele>865</ele>
        <time>2020-06-01T13:24:54.999Z</time>
      </trkpt>
      <trkpt lat="48.47175" lon="7.10894">
        <ele>869</ele>
        <time>2020-06-01T13:25:05.999Z</time>
      </trkpt>
      <trkpt lat="48.47185" lon="7.10893">
        <ele>869</ele>
        <time>2020-06-01T13:25:14.999Z</time>
      </trkpt>
      <trkpt lat="48.47194" lon="7.10889">
        <ele>869</ele>
        <time>2020-06-01T13:25:21.999Z</time>
      </trkpt>
      <trkpt lat="48.47203" lon="7.10884">
        <ele>869</ele>
        <time>2020-06-01T13:25:27.999Z</time>
      </trkpt>
      <trkpt lat="48.47213" lon="7.10882">
        <ele>870</ele>
        <time>2020-06-01T13:25:34.999Z</time>
      </trkpt>
      <trkpt lat="48.47222" lon="7.10881">
        <ele>870</ele>
        <time>2020-06-01T13:25:42.999Z</time>
      </trkpt>
      <trkpt lat="48.47233" lon="7.10883">
        <ele>871</ele>
        <time>2020-06-01T13:25:51.999Z</time>
      </trkpt>
      <trkpt lat="48.47242" lon="7.10884">
        <ele>871</ele>
        <time>2020-06-01T13:25:59.999Z</time>
      </trkpt>
      <trkpt lat="48.47252" lon="7.10886">
        <ele>872</ele>
        <time>2020-06-01T13:26:07.999Z</time>
      </trkpt>
      <trkpt lat="48.47261" lon="7.10891">
        <ele>872</ele>
        <time>2020-06-01T13:26:17.999Z</time>
      </trkpt>
      <trkpt lat="48.47269" lon="7.10897">
        <ele>872</ele>
        <time>2020-06-01T13:26:26.999Z</time>
      </trkpt>
      <trkpt lat="48.47275" lon="7.10909">
        <ele>872</ele>
        <time>2020-06-01T13:26:35.999Z</time>
      </trkpt>
      <trkpt lat="48.47269" lon="7.10921">
        <ele>874</ele>
        <time>2020-06-01T13:26:51.999Z</time>
      </trkpt>
      <trkpt lat="48.47265" lon="7.10934">
        <ele>874</ele>
        <time>2020-06-01T13:26:58.999Z</time>
      </trkpt>
      <trkpt lat="48.4726" lon="7.10946">
        <ele>874</ele>
        <time>2020-06-01T13:27:19.999Z</time>
      </trkpt>
      <trkpt lat="48.47255" lon="7.10958">
        <ele>875</ele>
        <time>2020-06-01T13:27:30.999Z</time>
      </trkpt>
      <trkpt lat="48.47252" lon="7.10971">
        <ele>876</ele>
        <time>2020-06-01T13:27:39.999Z</time>
      </trkpt>
      <trkpt lat="48.4725" lon="7.10985">
        <ele>879</ele>
        <time>2020-06-01T13:27:48.999Z</time>
      </trkpt>
      <trkpt lat="48.47246" lon="7.10997">
        <ele>882</ele>
        <time>2020-06-01T13:28:02.999Z</time>
      </trkpt>
      <trkpt lat="48.47241" lon="7.11009">
        <ele>885</ele>
        <time>2020-06-01T13:28:11.999Z</time>
      </trkpt>
      <trkpt lat="48.47238" lon="7.11022">
        <ele>886</ele>
        <time>2020-06-01T13:28:16.999Z</time>
      </trkpt>
      <trkpt lat="48.47235" lon="7.11036">
        <ele>887</ele>
        <time>2020-06-01T13:28:29.999Z</time>
      </trkpt>
      <trkpt lat="48.47229" lon="7.11048">
        <ele>887</ele>
        <time>2020-06-01T13:28:40.999Z</time>
      </trkpt>
      <trkpt lat="48.47224" lon="7.11061">
        <ele>888</ele>
        <time>2020-06-01T13:28:50.999Z</time>
      </trkpt>
      <trkpt lat="48.47219" lon="7.11073">
        <ele>888</ele>
        <time>2020-06-01T13:28:58.999Z</time>
      </trkpt>
      <trkpt lat="48.47216" lon="7.11087">
        <ele>893</ele>
        <time>2020-06-01T13:29:12.999Z</time>
      </trkpt>
      <trkpt lat="48.47211" lon="7.11099">
        <ele>893</ele>
        <time>2020-06-01T13:29:18.999Z</time>
      </trkpt>
      <trkpt lat="48.47203" lon="7.11106">
        <ele>894</ele>
        <time>2020-06-01T13:29:29.999Z</time>
      </trkpt>
      <trkpt lat="48.47194" lon="7.11113">
        <ele>894</ele>
        <time>2020-06-01T13:29:36.999Z</time>
      </trkpt>
      <trkpt lat="48.47187" lon="7.11123">
        <ele>895</ele>
        <time>2020-06-01T13:29:43.999Z</time>
      </trkpt>
      <trkpt lat="48.47183" lon="7.11136">
        <ele>896</ele>
        <time>2020-06-01T13:29:51.999Z</time>
      </trkpt>
      <trkpt lat="48.47176" lon="7.11147">
        <ele>897</ele>
        <time>2020-06-01T13:30:01.999Z</time>
      </trkpt>
      <trkpt lat="48.47172" lon="7.11159">
        <ele>899</ele>
        <time>2020-06-01T13:30:09.999Z</time>
      </trkpt>
      <trkpt lat="48.4717" lon="7.11173">
        <ele>901</ele>
        <time>2020-06-01T13:30:19.999Z</time>
      </trkpt>
      <trkpt lat="48.47164" lon="7.11186">
        <ele>902</ele>
        <time>2020-06-01T13:30:29.999Z</time>
      </trkpt>
      <trkpt lat="48.4716" lon="7.11198">
        <ele>902</ele>
        <time>2020-06-01T13:30:36.999Z</time>
      </trkpt>
      <trkpt lat="48.47152" lon="7.11206">
        <ele>903</ele>
        <time>2020-06-01T13:30:44.999Z</time>
      </trkpt>
      <trkpt lat="48.47146" lon="7.11218">
        <ele>903</ele>
        <time>2020-06-01T13:30:54.999Z</time>
      </trkpt>
      <trkpt lat="48.47139" lon="7.11228">
        <ele>903</ele>
        <time>2020-06-01T13:31:03.999Z</time>
      </trkpt>
      <trkpt lat="48.47133" lon="7.11238">
        <ele>903</ele>
        <time>2020-06-01T13:31:11.999Z</time>
      </trkpt>
      <trkpt lat="48.47129" lon="7.1125">
        <ele>905</ele>
        <time>2020-06-01T13:31:20.999Z</time>
      </trkpt>
      <trkpt lat="48.47124" lon="7.11262">
        <ele>905</ele>
        <time>2020-06-01T13:31:28.999Z</time>
      </trkpt>
      <trkpt lat="48.47125" lon="7.11275">
        <ele>905</ele>
        <time>2020-06-01T13:31:38.999Z</time>
      </trkpt>
      <trkpt lat="48.47129" lon="7.11288">
        <ele>905</ele>
        <time>2020-06-01T13:31:44.999Z</time>
      </trkpt>
      <trkpt lat="48.47131" lon="7.11303">
        <ele>906</ele>
        <time>2020-06-01T13:31:51.999Z</time>
      </trkpt>
      <trkpt lat="48.47131" lon="7.11317">
        <ele>906</ele>
        <time>2020-06-01T13:32:06.999Z</time>
      </trkpt>
      <trkpt lat="48.47134" lon="7.11331">
        <ele>906</ele>
        <time>2020-06-01T13:32:15.999Z</time>
      </trkpt>
      <trkpt lat="48.47133" lon="7.11345">
        <ele>903</ele>
        <time>2020-06-01T13:32:27.999Z</time>
      </trkpt>
      <trkpt lat="48.47131" lon="7.1136">
        <ele>903</ele>
        <time>2020-06-01T13:32:34.999Z</time>
      </trkpt>
      <trkpt lat="48.47138" lon="7.1137">
        <ele>903</ele>
        <time>2020-06-01T13:34:15.999Z</time>
      </trkpt>
      <trkpt lat="48.47136" lon="7.11383">
        <ele>902</ele>
        <time>2020-06-01T13:34:25.999Z</time>
      </trkpt>
      <trkpt lat="48.47142" lon="7.11394">
        <ele>902</ele>
        <time>2020-06-01T13:34:35.999Z</time>
      </trkpt>
      <trkpt lat="48.4715" lon="7.11401">
        <ele>903</ele>
        <time>2020-06-01T13:34:44.999Z</time>
      </trkpt>
      <trkpt lat="48.4716" lon="7.11406">
        <ele>904</ele>
        <time>2020-06-01T13:34:53.999Z</time>
      </trkpt>
      <trkpt lat="48.47169" lon="7.11411">
        <ele>905</ele>
        <time>2020-06-01T13:35:03.999Z</time>
      </trkpt>
      <trkpt lat="48.47178" lon="7.11414">
        <ele>904</ele>
        <time>2020-06-01T13:35:13.999Z</time>
      </trkpt>
      <trkpt lat="48.47187" lon="7.11418">
        <ele>898</ele>
        <time>2020-06-01T13:35:23.999Z</time>
      </trkpt>
      <trkpt lat="48.47196" lon="7.11425">
        <ele>896</ele>
        <time>2020-06-01T13:35:32.999Z</time>
      </trkpt>
      <trkpt lat="48.47216" lon="7.11438">
        <ele>894</ele>
        <time>2020-06-01T13:35:40.999Z</time>
      </trkpt>
      <trkpt lat="48.47222" lon="7.11449">
        <ele>893</ele>
        <time>2020-06-01T13:35:45.999Z</time>
      </trkpt>
      <trkpt lat="48.47231" lon="7.11459">
        <ele>892</ele>
        <time>2020-06-01T13:36:00.999Z</time>
      </trkpt>
      <trkpt lat="48.47239" lon="7.11463">
        <ele>891</ele>
        <time>2020-06-01T13:36:12.999Z</time>
      </trkpt>
      <trkpt lat="48.47247" lon="7.11473">
        <ele>889</ele>
        <time>2020-06-01T13:36:19.999Z</time>
      </trkpt>
      <trkpt lat="48.47255" lon="7.1148">
        <ele>885</ele>
        <time>2020-06-01T13:36:30.999Z</time>
      </trkpt>
      <trkpt lat="48.47262" lon="7.11488">
        <ele>885</ele>
        <time>2020-06-01T13:36:36.999Z</time>
      </trkpt>
      <trkpt lat="48.4727" lon="7.11498">
        <ele>885</ele>
        <time>2020-06-01T13:36:42.999Z</time>
      </trkpt>
      <trkpt lat="48.4728" lon="7.11505">
        <ele>880</ele>
        <time>2020-06-01T13:36:48.999Z</time>
      </trkpt>
      <trkpt lat="48.47284" lon="7.11517">
        <ele>880</ele>
        <time>2020-06-01T13:36:57.999Z</time>
      </trkpt>
      <trkpt lat="48.47289" lon="7.11529">
        <ele>880</ele>
        <time>2020-06-01T13:37:06.999Z</time>
      </trkpt>
      <trkpt lat="48.47295" lon="7.1154">
        <ele>880</ele>
        <time>2020-06-01T13:37:14.999Z</time>
      </trkpt>
      <trkpt lat="48.47301" lon="7.1155">
        <ele>880</ele>
        <time>2020-06-01T13:37:24.999Z</time>
      </trkpt>
      <trkpt lat="48.47306" lon="7.11562">
        <ele>880</ele>
        <time>2020-06-01T13:37:36.999Z</time>
      </trkpt>
      <trkpt lat="48.47316" lon="7.11572">
        <ele>882</ele>
        <time>2020-06-01T13:37:41.999Z</time>
      </trkpt>
      <trkpt lat="48.47322" lon="7.11583">
        <ele>883</ele>
        <time>2020-06-01T13:37:48.999Z</time>
      </trkpt>
      <trkpt lat="48.47324" lon="7.11597">
        <ele>879</ele>
        <time>2020-06-01T13:37:58.999Z</time>
      </trkpt>
      <trkpt lat="48.47328" lon="7.11611">
        <ele>877</ele>
        <time>2020-06-01T13:38:08.999Z</time>
      </trkpt>
      <trkpt lat="48.47333" lon="7.11624">
        <ele>876</ele>
        <time>2020-06-01T13:38:16.999Z</time>
      </trkpt>
      <trkpt lat="48.47338" lon="7.11638">
        <ele>884</ele>
        <time>2020-06-01T13:38:23.999Z</time>
      </trkpt>
      <trkpt lat="48.47341" lon="7.11651">
        <ele>883</ele>
        <time>2020-06-01T13:38:30.999Z</time>
      </trkpt>
      <trkpt lat="48.47344" lon="7.11665">
        <ele>883</ele>
        <time>2020-06-01T13:38:38.999Z</time>
      </trkpt>
      <trkpt lat="48.47348" lon="7.11678">
        <ele>884</ele>
        <time>2020-06-01T13:38:49.999Z</time>
      </trkpt>
      <trkpt lat="48.47354" lon="7.11689">
        <ele>884</ele>
        <time>2020-06-01T13:38:56.999Z</time>
      </trkpt>
      <trkpt lat="48.47355" lon="7.11704">
        <ele>885</ele>
        <time>2020-06-01T13:39:05.999Z</time>
      </trkpt>
      <trkpt lat="48.47358" lon="7.11718">
        <ele>885</ele>
        <time>2020-06-01T13:39:13.999Z</time>
      </trkpt>
      <trkpt lat="48.4736" lon="7.11733">
        <ele>885</ele>
        <time>2020-06-01T13:39:20.999Z</time>
      </trkpt>
      <trkpt lat="48.47365" lon="7.11745">
        <ele>885</ele>
        <time>2020-06-01T13:39:29.999Z</time>
      </trkpt>
      <trkpt lat="48.47364" lon="7.1176">
        <ele>885</ele>
        <time>2020-06-01T13:39:36.999Z</time>
      </trkpt>
      <trkpt lat="48.47365" lon="7.11774">
        <ele>886</ele>
        <time>2020-06-01T13:39:48.999Z</time>
      </trkpt>
      <trkpt lat="48.47369" lon="7.11787">
        <ele>886</ele>
        <time>2020-06-01T13:39:57.999Z</time>
      </trkpt>
      <trkpt lat="48.47373" lon="7.11801">
        <ele>886</ele>
        <time>2020-06-01T13:40:07.999Z</time>
      </trkpt>
      <trkpt lat="48.47378" lon="7.11815">
        <ele>887</ele>
        <time>2020-06-01T13:40:16.999Z</time>
      </trkpt>
      <trkpt lat="48.47384" lon="7.11828">
        <ele>887</ele>
        <time>2020-06-01T13:40:24.999Z</time>
      </trkpt>
      <trkpt lat="48.4739" lon="7.11839">
        <ele>884</ele>
        <time>2020-06-01T13:40:40.999Z</time>
      </trkpt>
      <trkpt lat="48.47397" lon="7.11849">
        <ele>884</ele>
        <time>2020-06-01T13:40:47.999Z</time>
      </trkpt>
      <trkpt lat="48.47405" lon="7.11858">
        <ele>884</ele>
        <time>2020-06-01T13:40:53.999Z</time>
      </trkpt>
      <trkpt lat="48.47405" lon="7.11872">
        <ele>882</ele>
        <time>2020-06-01T13:41:28.999Z</time>
      </trkpt>
      <trkpt lat="48.474" lon="7.1186">
        <ele>883</ele>
        <time>2020-06-01T13:43:41.999Z</time>
      </trkpt>
      <trkpt lat="48.47408" lon="7.11865">
        <ele>883</ele>
        <time>2020-06-01T13:46:10.999Z</time>
      </trkpt>
      <trkpt lat="48.47416" lon="7.11871">
        <ele>882</ele>
        <time>2020-06-01T13:49:29.999Z</time>
      </trkpt>
      <trkpt lat="48.47406" lon="7.11875">
        <ele>881</ele>
        <time>2020-06-01T13:49:50.000Z</time>
      </trkpt>
      <trkpt lat="48.47409" lon="7.11862">
        <ele>883</ele>
        <time>2020-06-01T13:52:01.000Z</time>
      </trkpt>
      <trkpt lat="48.474" lon="7.11863">
        <ele>882</ele>
        <time>2020-06-01T13:53:25.000Z</time>
      </trkpt>
      <trkpt lat="48.47409" lon="7.11858">
        <ele>884</ele>
        <time>2020-06-01T13:55:26.000Z</time>
      </trkpt>
      <trkpt lat="48.47418" lon="7.11862">
        <ele>887</ele>
        <time>2020-06-01T14:01:03.000Z</time>
      </trkpt>
      <trkpt lat="48.47428" lon="7.11863">
        <ele>887</ele>
        <time>2020-06-01T14:01:13.000Z</time>
      </trkpt>
      <trkpt lat="48.47439" lon="7.11867">
        <ele>886</ele>
        <time>2020-06-01T14:01:41.000Z</time>
      </trkpt>
      <trkpt lat="48.47448" lon="7.11866">
        <ele>886</ele>
        <time>2020-06-01T14:01:54.000Z</time>
      </trkpt>
      <trkpt lat="48.47458" lon="7.11864">
        <ele>885</ele>
        <time>2020-06-01T14:02:07.000Z</time>
      </trkpt>
      <trkpt lat="48.47462" lon="7.11876">
        <ele>885</ele>
        <time>2020-06-01T14:02:14.000Z</time>
      </trkpt>
      <trkpt lat="48.47468" lon="7.11887">
        <ele>884</ele>
        <time>2020-06-01T14:02:21.000Z</time>
      </trkpt>
      <trkpt lat="48.47473" lon="7.11897">
        <ele>884</ele>
        <time>2020-06-01T14:02:28.000Z</time>
      </trkpt>
      <trkpt lat="48.47479" lon="7.11909">
        <ele>884</ele>
        <time>2020-06-01T14:02:37.000Z</time>
      </trkpt>
      <trkpt lat="48.47486" lon="7.11919">
        <ele>879</ele>
        <time>2020-06-01T14:02:44.000Z</time>
      </trkpt>
      <trkpt lat="48.47494" lon="7.11927">
        <ele>879</ele>
        <time>2020-06-01T14:02:52.000Z</time>
      </trkpt>
      <trkpt lat="48.47501" lon="7.11936">
        <ele>876</ele>
        <time>2020-06-01T14:02:58.000Z</time>
      </trkpt>
      <trkpt lat="48.47507" lon="7.11945">
        <ele>874</ele>
        <time>2020-06-01T14:03:10.000Z</time>
      </trkpt>
      <trkpt lat="48.47512" lon="7.11959">
        <ele>872</ele>
        <time>2020-06-01T14:03:18.000Z</time>
      </trkpt>
      <trkpt lat="48.47519" lon="7.11971">
        <ele>871</ele>
        <time>2020-06-01T14:03:26.000Z</time>
      </trkpt>
      <trkpt lat="48.47523" lon="7.11983">
        <ele>870</ele>
        <time>2020-06-01T14:03:35.000Z</time>
      </trkpt>
      <trkpt lat="48.4753" lon="7.11995">
        <ele>870</ele>
        <time>2020-06-01T14:03:42.000Z</time>
      </trkpt>
      <trkpt lat="48.47537" lon="7.12003">
        <ele>865</ele>
        <time>2020-06-01T14:03:48.000Z</time>
      </trkpt>
      <trkpt lat="48.47545" lon="7.12012">
        <ele>864</ele>
        <time>2020-06-01T14:03:55.000Z</time>
      </trkpt>
      <trkpt lat="48.47552" lon="7.12022">
        <ele>864</ele>
        <time>2020-06-01T14:04:05.000Z</time>
      </trkpt>
      <trkpt lat="48.4756" lon="7.12032">
        <ele>863</ele>
        <time>2020-06-01T14:04:14.000Z</time>
      </trkpt>
      <trkpt lat="48.47568" lon="7.12042">
        <ele>863</ele>
        <time>2020-06-01T14:04:23.000Z</time>
      </trkpt>
      <trkpt lat="48.47575" lon="7.12051">
        <ele>862</ele>
        <time>2020-06-01T14:04:32.000Z</time>
      </trkpt>
      <trkpt lat="48.47582" lon="7.12062">
        <ele>862</ele>
        <time>2020-06-01T14:04:40.000Z</time>
      </trkpt>
      <trkpt lat="48.47586" lon="7.12074">
        <ele>858</ele>
        <time>2020-06-01T14:04:45.000Z</time>
      </trkpt>
      <trkpt lat="48.47592" lon="7.12087">
        <ele>858</ele>
        <time>2020-06-01T14:04:51.000Z</time>
      </trkpt>
      <trkpt lat="48.47597" lon="7.12101">
        <ele>855</ele>
        <time>2020-06-01T14:04:58.000Z</time>
      </trkpt>
      <trkpt lat="48.47602" lon="7.12114">
        <ele>853</ele>
        <time>2020-06-01T14:05:04.000Z</time>
      </trkpt>
      <trkpt lat="48.47607" lon="7.12128">
        <ele>852</ele>
        <time>2020-06-01T14:05:11.000Z</time>
      </trkpt>
      <trkpt lat="48.47612" lon="7.12142">
        <ele>852</ele>
        <time>2020-06-01T14:05:17.000Z</time>
      </trkpt>
      <trkpt lat="48.47616" lon="7.12155">
        <ele>851</ele>
        <time>2020-06-01T14:05:24.000Z</time>
      </trkpt>
      <trkpt lat="48.47621" lon="7.12167">
        <ele>848</ele>
        <time>2020-06-01T14:05:33.000Z</time>
      </trkpt>
      <trkpt lat="48.47625" lon="7.12179">
        <ele>848</ele>
        <time>2020-06-01T14:05:40.000Z</time>
      </trkpt>
      <trkpt lat="48.47629" lon="7.12194">
        <ele>847</ele>
        <time>2020-06-01T14:05:46.000Z</time>
      </trkpt>
      <trkpt lat="48.47631" lon="7.12208">
        <ele>847</ele>
        <time>2020-06-01T14:05:53.000Z</time>
      </trkpt>
      <trkpt lat="48.47632" lon="7.12222">
        <ele>846</ele>
        <time>2020-06-01T14:05:59.000Z</time>
      </trkpt>
      <trkpt lat="48.47635" lon="7.12244">
        <ele>846</ele>
        <time>2020-06-01T14:06:07.000Z</time>
      </trkpt>
      <trkpt lat="48.47639" lon="7.12257">
        <ele>843</ele>
        <time>2020-06-01T14:06:15.000Z</time>
      </trkpt>
      <trkpt lat="48.4764" lon="7.12272">
        <ele>842</ele>
        <time>2020-06-01T14:06:23.000Z</time>
      </trkpt>
      <trkpt lat="48.47639" lon="7.12287">
        <ele>841</ele>
        <time>2020-06-01T14:06:47.000Z</time>
      </trkpt>
      <trkpt lat="48.47641" lon="7.12303">
        <ele>841</ele>
        <time>2020-06-01T14:07:06.000Z</time>
      </trkpt>
      <trkpt lat="48.4765" lon="7.12308">
        <ele>842</ele>
        <time>2020-06-01T14:07:22.000Z</time>
      </trkpt>
      <trkpt lat="48.47659" lon="7.12308">
        <ele>842</ele>
        <time>2020-06-01T14:07:32.000Z</time>
      </trkpt>
      <trkpt lat="48.47667" lon="7.12318">
        <ele>843</ele>
        <time>2020-06-01T14:07:40.000Z</time>
      </trkpt>
      <trkpt lat="48.4767" lon="7.1233">
        <ele>844</ele>
        <time>2020-06-01T14:07:47.000Z</time>
      </trkpt>
      <trkpt lat="48.47678" lon="7.12342">
        <ele>840</ele>
        <time>2020-06-01T14:07:52.000Z</time>
      </trkpt>
      <trkpt lat="48.47677" lon="7.12357">
        <ele>838</ele>
        <time>2020-06-01T14:08:03.000Z</time>
      </trkpt>
      <trkpt lat="48.47673" lon="7.1237">
        <ele>837</ele>
        <time>2020-06-01T14:08:09.000Z</time>
      </trkpt>
      <trkpt lat="48.47669" lon="7.12382">
        <ele>836</ele>
        <time>2020-06-01T14:08:16.000Z</time>
      </trkpt>
      <trkpt lat="48.47666" lon="7.12396">
        <ele>837</ele>
        <time>2020-06-01T14:08:26.000Z</time>
      </trkpt>
      <trkpt lat="48.47665" lon="7.12409">
        <ele>837</ele>
        <time>2020-06-01T14:08:34.000Z</time>
      </trkpt>
      <trkpt lat="48.47656" lon="7.12414">
        <ele>837</ele>
        <time>2020-06-01T14:10:03.000Z</time>
      </trkpt>
      <trkpt lat="48.47657" lon="7.12429">
        <ele>834</ele>
        <time>2020-06-01T14:10:15.000Z</time>
      </trkpt>
      <trkpt lat="48.47656" lon="7.12442">
        <ele>832</ele>
        <time>2020-06-01T14:10:27.000Z</time>
      </trkpt>
      <trkpt lat="48.47655" lon="7.12456">
        <ele>831</ele>
        <time>2020-06-01T14:10:38.000Z</time>
      </trkpt>
      <trkpt lat="48.47654" lon="7.1247">
        <ele>830</ele>
        <time>2020-06-01T14:10:47.000Z</time>
      </trkpt>
      <trkpt lat="48.47651" lon="7.12484">
        <ele>829</ele>
        <time>2020-06-01T14:10:55.000Z</time>
      </trkpt>
      <trkpt lat="48.4765" lon="7.12497">
        <ele>829</ele>
        <time>2020-06-01T14:11:02.000Z</time>
      </trkpt>
      <trkpt lat="48.4765" lon="7.12512">
        <ele>826</ele>
        <time>2020-06-01T14:11:11.000Z</time>
      </trkpt>
      <trkpt lat="48.47648" lon="7.12526">
        <ele>824</ele>
        <time>2020-06-01T14:11:20.000Z</time>
      </trkpt>
      <trkpt lat="48.47644" lon="7.12542">
        <ele>823</ele>
        <time>2020-06-01T14:11:28.000Z</time>
      </trkpt>
      <trkpt lat="48.47641" lon="7.12556">
        <ele>822</ele>
        <time>2020-06-01T14:11:39.000Z</time>
      </trkpt>
      <trkpt lat="48.47639" lon="7.12569">
        <ele>822</ele>
        <time>2020-06-01T14:11:49.000Z</time>
      </trkpt>
      <trkpt lat="48.47632" lon="7.1258">
        <ele>822</ele>
        <time>2020-06-01T14:11:57.000Z</time>
      </trkpt>
      <trkpt lat="48.47627" lon="7.12592">
        <ele>816</ele>
        <time>2020-06-01T14:12:05.000Z</time>
      </trkpt>
      <trkpt lat="48.47624" lon="7.12605">
        <ele>816</ele>
        <time>2020-06-01T14:12:14.000Z</time>
      </trkpt>
      <trkpt lat="48.47619" lon="7.12617">
        <ele>815</ele>
        <time>2020-06-01T14:12:22.000Z</time>
      </trkpt>
      <trkpt lat="48.47614" lon="7.12631">
        <ele>814</ele>
        <time>2020-06-01T14:12:31.000Z</time>
      </trkpt>
      <trkpt lat="48.47608" lon="7.1264">
        <ele>813</ele>
        <time>2020-06-01T14:12:42.000Z</time>
      </trkpt>
      <trkpt lat="48.47598" lon="7.12637">
        <ele>813</ele>
        <time>2020-06-01T14:12:51.000Z</time>
      </trkpt>
      <trkpt lat="48.47588" lon="7.12635">
        <ele>813</ele>
        <time>2020-06-01T14:12:59.000Z</time>
      </trkpt>
      <trkpt lat="48.47578" lon="7.12632">
        <ele>805</ele>
        <time>2020-06-01T14:13:08.000Z</time>
      </trkpt>
      <trkpt lat="48.47569" lon="7.12629">
        <ele>804</ele>
        <time>2020-06-01T14:13:16.000Z</time>
      </trkpt>
      <trkpt lat="48.47562" lon="7.12622">
        <ele>804</ele>
        <time>2020-06-01T14:13:26.000Z</time>
      </trkpt>
      <trkpt lat="48.47554" lon="7.12613">
        <ele>803</ele>
        <time>2020-06-01T14:13:36.000Z</time>
      </trkpt>
      <trkpt lat="48.47547" lon="7.12604">
        <ele>802</ele>
        <time>2020-06-01T14:13:46.000Z</time>
      </trkpt>
      <trkpt lat="48.47539" lon="7.12595">
        <ele>800</ele>
        <time>2020-06-01T14:13:54.000Z</time>
      </trkpt>
      <trkpt lat="48.47531" lon="7.12585">
        <ele>799</ele>
        <time>2020-06-01T14:14:02.000Z</time>
      </trkpt>
      <trkpt lat="48.47525" lon="7.12573">
        <ele>801</ele>
        <time>2020-06-01T14:14:09.000Z</time>
      </trkpt>
      <trkpt lat="48.47523" lon="7.12559">
        <ele>801</ele>
        <time>2020-06-01T14:14:18.000Z</time>
      </trkpt>
      <trkpt lat="48.47521" lon="7.12544">
        <ele>802</ele>
        <time>2020-06-01T14:14:27.000Z</time>
      </trkpt>
      <trkpt lat="48.47519" lon="7.1253">
        <ele>802</ele>
        <time>2020-06-01T14:14:38.000Z</time>
      </trkpt>
      <trkpt lat="48.47515" lon="7.12518">
        <ele>800</ele>
        <time>2020-06-01T14:15:07.000Z</time>
      </trkpt>
      <trkpt lat="48.47515" lon="7.12503">
        <ele>798</ele>
        <time>2020-06-01T14:15:17.000Z</time>
      </trkpt>
      <trkpt lat="48.47514" lon="7.12481">
        <ele>801</ele>
        <time>2020-06-01T14:15:26.000Z</time>
      </trkpt>
      <trkpt lat="48.47506" lon="7.12473">
        <ele>801</ele>
        <time>2020-06-01T14:15:32.000Z</time>
      </trkpt>
      <trkpt lat="48.47503" lon="7.12459">
        <ele>801</ele>
        <time>2020-06-01T14:15:40.000Z</time>
      </trkpt>
      <trkpt lat="48.47498" lon="7.12445">
        <ele>778</ele>
        <time>2020-06-01T14:15:48.000Z</time>
      </trkpt>
      <trkpt lat="48.47493" lon="7.12434">
        <ele>779</ele>
        <time>2020-06-01T14:15:56.000Z</time>
      </trkpt>
      <trkpt lat="48.4749" lon="7.1242">
        <ele>782</ele>
        <time>2020-06-01T14:16:04.000Z</time>
      </trkpt>
      <trkpt lat="48.47487" lon="7.12407">
        <ele>780</ele>
        <time>2020-06-01T14:16:10.000Z</time>
      </trkpt>
      <trkpt lat="48.47488" lon="7.12384">
        <ele>777</ele>
        <time>2020-06-01T14:16:17.000Z</time>
      </trkpt>
      <trkpt lat="48.47486" lon="7.1237">
        <ele>777</ele>
        <time>2020-06-01T14:16:28.000Z</time>
      </trkpt>
      <trkpt lat="48.47483" lon="7.12356">
        <ele>778</ele>
        <time>2020-06-01T14:16:36.000Z</time>
      </trkpt>
      <trkpt lat="48.47476" lon="7.12347">
        <ele>777</ele>
        <time>2020-06-01T14:16:48.000Z</time>
      </trkpt>
      <trkpt lat="48.4747" lon="7.12334">
        <ele>776</ele>
        <time>2020-06-01T14:16:59.000Z</time>
      </trkpt>
      <trkpt lat="48.47461" lon="7.12339">
        <ele>772</ele>
        <time>2020-06-01T14:17:11.000Z</time>
      </trkpt>
      <trkpt lat="48.47453" lon="7.12347">
        <ele>770</ele>
        <time>2020-06-01T14:18:00.000Z</time>
      </trkpt>
      <trkpt lat="48.47453" lon="7.12361">
        <ele>770</ele>
        <time>2020-06-01T14:18:08.000Z</time>
      </trkpt>
      <trkpt lat="48.47463" lon="7.12362">
        <ele>772</ele>
        <time>2020-06-01T14:18:25.000Z</time>
      </trkpt>
      <trkpt lat="48.47455" lon="7.12352">
        <ele>770</ele>
        <time>2020-06-01T14:19:14.000Z</time>
      </trkpt>
      <trkpt lat="48.47447" lon="7.12346">
        <ele>768</ele>
        <time>2020-06-01T14:19:24.000Z</time>
      </trkpt>
      <trkpt lat="48.4744" lon="7.12357">
        <ele>766</ele>
        <time>2020-06-01T14:19:36.000Z</time>
      </trkpt>
      <trkpt lat="48.47437" lon="7.1237">
        <ele>766</ele>
        <time>2020-06-01T14:19:43.000Z</time>
      </trkpt>
      <trkpt lat="48.47436" lon="7.12384">
        <ele>765</ele>
        <time>2020-06-01T14:19:53.000Z</time>
      </trkpt>
      <trkpt lat="48.47433" lon="7.12398">
        <ele>762</ele>
        <time>2020-06-01T14:19:59.000Z</time>
      </trkpt>
      <trkpt lat="48.4743" lon="7.12413">
        <ele>758</ele>
        <time>2020-06-01T14:20:08.000Z</time>
      </trkpt>
      <trkpt lat="48.47424" lon="7.12424">
        <ele>755</ele>
        <time>2020-06-01T14:20:17.000Z</time>
      </trkpt>
      <trkpt lat="48.47422" lon="7.12438">
        <ele>759</ele>
        <time>2020-06-01T14:20:26.000Z</time>
      </trkpt>
      <trkpt lat="48.47418" lon="7.12452">
        <ele>761</ele>
        <time>2020-06-01T14:20:33.000Z</time>
      </trkpt>
      <trkpt lat="48.47412" lon="7.12463">
        <ele>738</ele>
        <time>2020-06-01T14:20:45.000Z</time>
      </trkpt>
      <trkpt lat="48.47406" lon="7.12476">
        <ele>738</ele>
        <time>2020-06-01T14:20:54.000Z</time>
      </trkpt>
      <trkpt lat="48.47408" lon="7.12462">
        <ele>737</ele>
        <time>2020-06-01T14:21:14.000Z</time>
      </trkpt>
      <trkpt lat="48.47408" lon="7.12447">
        <ele>738</ele>
        <time>2020-06-01T14:21:25.000Z</time>
      </trkpt>
      <trkpt lat="48.47407" lon="7.12432">
        <ele>740</ele>
        <time>2020-06-01T14:21:30.000Z</time>
      </trkpt>
      <trkpt lat="48.47406" lon="7.12419">
        <ele>742</ele>
        <time>2020-06-01T14:21:36.000Z</time>
      </trkpt>
      <trkpt lat="48.47407" lon="7.12404">
        <ele>743</ele>
        <time>2020-06-01T14:21:43.000Z</time>
      </trkpt>
      <trkpt lat="48.47405" lon="7.12389">
        <ele>741</ele>
        <time>2020-06-01T14:21:54.000Z</time>
      </trkpt>
      <trkpt lat="48.47401" lon="7.12376">
        <ele>741</ele>
        <time>2020-06-01T14:22:02.000Z</time>
      </trkpt>
      <trkpt lat="48.47394" lon="7.12365">
        <ele>741</ele>
        <time>2020-06-01T14:22:17.000Z</time>
      </trkpt>
      <trkpt lat="48.47386" lon="7.12358">
        <ele>740</ele>
        <time>2020-06-01T14:22:26.000Z</time>
      </trkpt>
      <trkpt lat="48.47377" lon="7.12354">
        <ele>738</ele>
        <time>2020-06-01T14:22:35.000Z</time>
      </trkpt>
      <trkpt lat="48.4737" lon="7.12345">
        <ele>737</ele>
        <time>2020-06-01T14:22:45.000Z</time>
      </trkpt>
      <trkpt lat="48.47361" lon="7.12341">
        <ele>736</ele>
        <time>2020-06-01T14:22:58.000Z</time>
      </trkpt>
      <trkpt lat="48.47352" lon="7.12343">
        <ele>734</ele>
        <time>2020-06-01T14:23:12.000Z</time>
      </trkpt>
      <trkpt lat="48.47342" lon="7.12341">
        <ele>732</ele>
        <time>2020-06-01T14:23:22.000Z</time>
      </trkpt>
      <trkpt lat="48.47333" lon="7.12338">
        <ele>726</ele>
        <time>2020-06-01T14:23:38.000Z</time>
      </trkpt>
      <trkpt lat="48.47324" lon="7.12332">
        <ele>729</ele>
        <time>2020-06-01T14:23:52.000Z</time>
      </trkpt>
      <trkpt lat="48.47315" lon="7.12337">
        <ele>721</ele>
        <time>2020-06-01T14:24:02.000Z</time>
      </trkpt>
      <trkpt lat="48.47306" lon="7.12334">
        <ele>718</ele>
        <time>2020-06-01T14:24:15.000Z</time>
      </trkpt>
      <trkpt lat="48.47298" lon="7.12327">
        <ele>728</ele>
        <time>2020-06-01T14:24:32.000Z</time>
      </trkpt>
      <trkpt lat="48.47288" lon="7.12327">
        <ele>727</ele>
        <time>2020-06-01T14:24:38.000Z</time>
      </trkpt>
      <trkpt lat="48.47279" lon="7.12327">
        <ele>725</ele>
        <time>2020-06-01T14:24:44.000Z</time>
      </trkpt>
      <trkpt lat="48.47278" lon="7.12341">
        <ele>713</ele>
        <time>2020-06-01T14:24:54.000Z</time>
      </trkpt>
      <trkpt lat="48.47269" lon="7.12347">
        <ele>712</ele>
        <time>2020-06-01T14:25:16.000Z</time>
      </trkpt>
      <trkpt lat="48.4726" lon="7.12356">
        <ele>711</ele>
        <time>2020-06-01T14:25:27.000Z</time>
      </trkpt>
      <trkpt lat="48.47255" lon="7.12369">
        <ele>710</ele>
        <time>2020-06-01T14:25:33.999Z</time>
      </trkpt>
      <trkpt lat="48.47251" lon="7.12382">
        <ele>708</ele>
        <time>2020-06-01T14:25:47.999Z</time>
      </trkpt>
      <trkpt lat="48.47244" lon="7.12391">
        <ele>697</ele>
        <time>2020-06-01T14:26:00.999Z</time>
      </trkpt>
      <trkpt lat="48.4724" lon="7.12404">
        <ele>696</ele>
        <time>2020-06-01T14:26:12.999Z</time>
      </trkpt>
      <trkpt lat="48.47231" lon="7.12417">
        <ele>692</ele>
        <time>2020-06-01T14:26:17.999Z</time>
      </trkpt>
      <trkpt lat="48.47225" lon="7.12427">
        <ele>691</ele>
        <time>2020-06-01T14:26:22.999Z</time>
      </trkpt>
      <trkpt lat="48.47218" lon="7.12438">
        <ele>691</ele>
        <time>2020-06-01T14:26:32.999Z</time>
      </trkpt>
      <trkpt lat="48.4722" lon="7.12457">
        <ele>691</ele>
        <time>2020-06-01T14:26:44.999Z</time>
      </trkpt>
      <trkpt lat="48.47217" lon="7.1247">
        <ele>690</ele>
        <time>2020-06-01T14:26:59.999Z</time>
      </trkpt>
      <trkpt lat="48.47207" lon="7.12473">
        <ele>690</ele>
        <time>2020-06-01T14:29:56.999Z</time>
      </trkpt>
      <trkpt lat="48.47197" lon="7.12475">
        <ele>689</ele>
        <time>2020-06-01T14:30:01.999Z</time>
      </trkpt>
      <trkpt lat="48.47189" lon="7.12481">
        <ele>689</ele>
        <time>2020-06-01T14:30:10.999Z</time>
      </trkpt>
      <trkpt lat="48.4718" lon="7.12483">
        <ele>689</ele>
        <time>2020-06-01T14:30:22.999Z</time>
      </trkpt>
      <trkpt lat="48.47171" lon="7.12484">
        <ele>688</ele>
        <time>2020-06-01T14:30:30.999Z</time>
      </trkpt>
      <trkpt lat="48.47161" lon="7.12481">
        <ele>684</ele>
        <time>2020-06-01T14:30:40.999Z</time>
      </trkpt>
      <trkpt lat="48.47152" lon="7.12478">
        <ele>684</ele>
        <time>2020-06-01T14:30:49.999Z</time>
      </trkpt>
      <trkpt lat="48.47143" lon="7.12472">
        <ele>683</ele>
        <time>2020-06-01T14:30:58.999Z</time>
      </trkpt>
      <trkpt lat="48.47133" lon="7.1247">
        <ele>682</ele>
        <time>2020-06-01T14:31:07.999Z</time>
      </trkpt>
      <trkpt lat="48.47124" lon="7.12468">
        <ele>682</ele>
        <time>2020-06-01T14:31:14.999Z</time>
      </trkpt>
      <trkpt lat="48.47114" lon="7.12468">
        <ele>681</ele>
        <time>2020-06-01T14:31:24.999Z</time>
      </trkpt>
      <trkpt lat="48.47105" lon="7.12474">
        <ele>681</ele>
        <time>2020-06-01T14:31:36.999Z</time>
      </trkpt>
      <trkpt lat="48.47097" lon="7.12481">
        <ele>680</ele>
        <time>2020-06-01T14:31:46.999Z</time>
      </trkpt>
      <trkpt lat="48.47088" lon="7.12486">
        <ele>679</ele>
        <time>2020-06-01T14:31:56.999Z</time>
      </trkpt>
      <trkpt lat="48.47079" lon="7.12488">
        <ele>676</ele>
        <time>2020-06-01T14:32:04.999Z</time>
      </trkpt>
      <trkpt lat="48.47068" lon="7.12489">
        <ele>676</ele>
        <time>2020-06-01T14:32:11.999Z</time>
      </trkpt>
      <trkpt lat="48.47059" lon="7.1249">
        <ele>676</ele>
        <time>2020-06-01T14:32:18.999Z</time>
      </trkpt>
      <trkpt lat="48.47067" lon="7.12497">
        <ele>676</ele>
        <time>2020-06-01T14:33:11.999Z</time>
      </trkpt>
      <trkpt lat="48.47077" lon="7.12494">
        <ele>676</ele>
        <time>2020-06-01T14:33:23.999Z</time>
      </trkpt>
      <trkpt lat="48.47086" lon="7.1249">
        <ele>678</ele>
        <time>2020-06-01T14:33:29.999Z</time>
      </trkpt>
      <trkpt lat="48.47096" lon="7.12486">
        <ele>679</ele>
        <time>2020-06-01T14:33:36.999Z</time>
      </trkpt>
      <trkpt lat="48.47105" lon="7.12481">
        <ele>680</ele>
        <time>2020-06-01T14:33:44.999Z</time>
      </trkpt>
      <trkpt lat="48.47114" lon="7.12478">
        <ele>681</ele>
        <time>2020-06-01T14:33:50.999Z</time>
      </trkpt>
      <trkpt lat="48.47124" lon="7.12478">
        <ele>682</ele>
        <time>2020-06-01T14:33:58.999Z</time>
      </trkpt>
      <trkpt lat="48.47134" lon="7.12479">
        <ele>683</ele>
        <time>2020-06-01T14:34:06.999Z</time>
      </trkpt>
      <trkpt lat="48.47144" lon="7.12482">
        <ele>683</ele>
        <time>2020-06-01T14:34:14.999Z</time>
      </trkpt>
      <trkpt lat="48.47153" lon="7.12486">
        <ele>684</ele>
        <time>2020-06-01T14:34:22.999Z</time>
      </trkpt>
      <trkpt lat="48.47167" lon="7.1249">
        <ele>688</ele>
        <time>2020-06-01T14:34:29.999Z</time>
      </trkpt>
      <trkpt lat="48.47176" lon="7.12491">
        <ele>688</ele>
        <time>2020-06-01T14:34:42.999Z</time>
      </trkpt>
      <trkpt lat="48.47185" lon="7.12489">
        <ele>689</ele>
        <time>2020-06-01T14:34:53.999Z</time>
      </trkpt>
      <trkpt lat="48.47195" lon="7.12482">
        <ele>689</ele>
        <time>2020-06-01T14:34:59.999Z</time>
      </trkpt>
      <trkpt lat="48.47187" lon="7.12474">
        <ele>689</ele>
        <time>2020-06-01T14:35:38.999Z</time>
      </trkpt>
      <trkpt lat="48.47177" lon="7.12477">
        <ele>689</ele>
        <time>2020-06-01T14:35:50.999Z</time>
      </trkpt>
      <trkpt lat="48.47168" lon="7.12475">
        <ele>688</ele>
        <time>2020-06-01T14:35:59.999Z</time>
      </trkpt>
      <trkpt lat="48.47158" lon="7.12478">
        <ele>684</ele>
        <time>2020-06-01T14:36:06.999Z</time>
      </trkpt>
      <trkpt lat="48.47147" lon="7.12479">
        <ele>683</ele>
        <time>2020-06-01T14:36:11.999Z</time>
      </trkpt>
      <trkpt lat="48.4714" lon="7.1247">
        <ele>683</ele>
        <time>2020-06-01T14:36:24.999Z</time>
      </trkpt>
      <trkpt lat="48.47131" lon="7.12469">
        <ele>682</ele>
        <time>2020-06-01T14:36:35.999Z</time>
      </trkpt>
      <trkpt lat="48.47121" lon="7.12471">
        <ele>682</ele>
        <time>2020-06-01T14:36:41.999Z</time>
      </trkpt>
      <trkpt lat="48.47112" lon="7.12474">
        <ele>681</ele>
        <time>2020-06-01T14:36:50.999Z</time>
      </trkpt>
      <trkpt lat="48.47103" lon="7.12478">
        <ele>680</ele>
        <time>2020-06-01T14:36:58.999Z</time>
      </trkpt>
      <trkpt lat="48.47087" lon="7.12486">
        <ele>679</ele>
        <time>2020-06-01T14:37:03.999Z</time>
      </trkpt>
      <trkpt lat="48.47079" lon="7.12491">
        <ele>676</ele>
        <time>2020-06-01T14:37:15.999Z</time>
      </trkpt>
      <trkpt lat="48.47069" lon="7.12493">
        <ele>676</ele>
        <time>2020-06-01T14:37:25.999Z</time>
      </trkpt>
      <trkpt lat="48.4706" lon="7.12492">
        <ele>676</ele>
        <time>2020-06-01T14:37:34.999Z</time>
      </trkpt>
      <trkpt lat="48.47049" lon="7.12491">
        <ele>676</ele>
        <time>2020-06-01T14:37:40.999Z</time>
      </trkpt>
      <trkpt lat="48.4704" lon="7.12491">
        <ele>675</ele>
        <time>2020-06-01T14:38:02.999Z</time>
      </trkpt>
      <trkpt lat="48.47033" lon="7.12501">
        <ele>670</ele>
        <time>2020-06-01T14:38:08.999Z</time>
      </trkpt>
      <trkpt lat="48.47024" lon="7.12506">
        <ele>669</ele>
        <time>2020-06-01T14:38:17.999Z</time>
      </trkpt>
      <trkpt lat="48.47015" lon="7.1251">
        <ele>668</ele>
        <time>2020-06-01T14:38:24.999Z</time>
      </trkpt>
      <trkpt lat="48.47007" lon="7.12516">
        <ele>668</ele>
        <time>2020-06-01T14:38:31.999Z</time>
      </trkpt>
      <trkpt lat="48.47003" lon="7.12529">
        <ele>668</ele>
        <time>2020-06-01T14:38:37.999Z</time>
      </trkpt>
      <trkpt lat="48.47001" lon="7.12543">
        <ele>667</ele>
        <time>2020-06-01T14:38:44.999Z</time>
      </trkpt>
      <trkpt lat="48.47" lon="7.12557">
        <ele>666</ele>
        <time>2020-06-01T14:38:50.999Z</time>
      </trkpt>
      <trkpt lat="48.46995" lon="7.12569">
        <ele>658</ele>
        <time>2020-06-01T14:39:00.999Z</time>
      </trkpt>
      <trkpt lat="48.46989" lon="7.12581">
        <ele>658</ele>
        <time>2020-06-01T14:39:08.999Z</time>
      </trkpt>
      <trkpt lat="48.46981" lon="7.12586">
        <ele>655</ele>
        <time>2020-06-01T14:39:18.999Z</time>
      </trkpt>
      <trkpt lat="48.46976" lon="7.12599">
        <ele>654</ele>
        <time>2020-06-01T14:39:29.999Z</time>
      </trkpt>
      <trkpt lat="48.4697" lon="7.1261">
        <ele>653</ele>
        <time>2020-06-01T14:39:42.999Z</time>
      </trkpt>
      <trkpt lat="48.46961" lon="7.12613">
        <ele>652</ele>
        <time>2020-06-01T14:39:52.999Z</time>
      </trkpt>
      <trkpt lat="48.46951" lon="7.12612">
        <ele>651</ele>
        <time>2020-06-01T14:40:01.999Z</time>
      </trkpt>
      <trkpt lat="48.46942" lon="7.12618">
        <ele>650</ele>
        <time>2020-06-01T14:40:08.999Z</time>
      </trkpt>
      <trkpt lat="48.46934" lon="7.12628">
        <ele>649</ele>
        <time>2020-06-01T14:40:16.999Z</time>
      </trkpt>
      <trkpt lat="48.46924" lon="7.12637">
        <ele>648</ele>
        <time>2020-06-01T14:40:24.999Z</time>
      </trkpt>
      <trkpt lat="48.46915" lon="7.1264">
        <ele>632</ele>
        <time>2020-06-01T14:40:34.999Z</time>
      </trkpt>
      <trkpt lat="48.46905" lon="7.12644">
        <ele>632</ele>
        <time>2020-06-01T14:40:43.999Z</time>
      </trkpt>
      <trkpt lat="48.46896" lon="7.12647">
        <ele>630</ele>
        <time>2020-06-01T14:40:52.999Z</time>
      </trkpt>
      <trkpt lat="48.46887" lon="7.12652">
        <ele>629</ele>
        <time>2020-06-01T14:40:59.999Z</time>
      </trkpt>
      <trkpt lat="48.46878" lon="7.12659">
        <ele>626</ele>
        <time>2020-06-01T14:41:08.999Z</time>
      </trkpt>
      <trkpt lat="48.46869" lon="7.12663">
        <ele>624</ele>
        <time>2020-06-01T14:41:16.999Z</time>
      </trkpt>
      <trkpt lat="48.4686" lon="7.1267">
        <ele>621</ele>
        <time>2020-06-01T14:41:26.999Z</time>
      </trkpt>
      <trkpt lat="48.46853" lon="7.12679">
        <ele>619</ele>
        <time>2020-06-01T14:41:37.999Z</time>
      </trkpt>
      <trkpt lat="48.4685" lon="7.12693">
        <ele>620</ele>
        <time>2020-06-01T14:41:46.999Z</time>
      </trkpt>
      <trkpt lat="48.46847" lon="7.12707">
        <ele>621</ele>
        <time>2020-06-01T14:41:55.999Z</time>
      </trkpt>
      <trkpt lat="48.46844" lon="7.1272">
        <ele>620</ele>
        <time>2020-06-01T14:42:04.999Z</time>
      </trkpt>
      <trkpt lat="48.46844" lon="7.12734">
        <ele>618</ele>
        <time>2020-06-01T14:42:16.999Z</time>
      </trkpt>
      <trkpt lat="48.46842" lon="7.12748">
        <ele>615</ele>
        <time>2020-06-01T14:42:33.999Z</time>
      </trkpt>
      <trkpt lat="48.46837" lon="7.12761">
        <ele>616</ele>
        <time>2020-06-01T14:42:45.999Z</time>
      </trkpt>
      <trkpt lat="48.46835" lon="7.12775">
        <ele>619</ele>
        <time>2020-06-01T14:42:54.999Z</time>
      </trkpt>
      <trkpt lat="48.46833" lon="7.12791">
        <ele>620</ele>
        <time>2020-06-01T14:43:04.999Z</time>
      </trkpt>
      <trkpt lat="48.46832" lon="7.12805">
        <ele>605</ele>
        <time>2020-06-01T14:43:12.999Z</time>
      </trkpt>
      <trkpt lat="48.46832" lon="7.12819">
        <ele>606</ele>
        <time>2020-06-01T14:43:20.999Z</time>
      </trkpt>
      <trkpt lat="48.46829" lon="7.12834">
        <ele>607</ele>
        <time>2020-06-01T14:43:27.999Z</time>
      </trkpt>
      <trkpt lat="48.46825" lon="7.12847">
        <ele>604</ele>
        <time>2020-06-01T14:43:35.999Z</time>
      </trkpt>
      <trkpt lat="48.46823" lon="7.12861">
        <ele>602</ele>
        <time>2020-06-01T14:43:42.999Z</time>
      </trkpt>
      <trkpt lat="48.46818" lon="7.12873">
        <ele>601</ele>
        <time>2020-06-01T14:43:47.999Z</time>
      </trkpt>
      <trkpt lat="48.46814" lon="7.12887">
        <ele>600</ele>
        <time>2020-06-01T14:43:52.999Z</time>
      </trkpt>
      <trkpt lat="48.46809" lon="7.129">
        <ele>600</ele>
        <time>2020-06-01T14:44:00.999Z</time>
      </trkpt>
      <trkpt lat="48.46803" lon="7.12911">
        <ele>599</ele>
        <time>2020-06-01T14:44:09.999Z</time>
      </trkpt>
      <trkpt lat="48.46795" lon="7.1292">
        <ele>595</ele>
        <time>2020-06-01T14:44:22.999Z</time>
      </trkpt>
      <trkpt lat="48.46788" lon="7.12932">
        <ele>595</ele>
        <time>2020-06-01T14:45:23.999Z</time>
      </trkpt>
      <trkpt lat="48.46786" lon="7.12918">
        <ele>595</ele>
        <time>2020-06-01T14:45:55.999Z</time>
      </trkpt>
      <trkpt lat="48.46784" lon="7.12905">
        <ele>598</ele>
        <time>2020-06-01T14:46:05.999Z</time>
      </trkpt>
      <trkpt lat="48.46782" lon="7.12891">
        <ele>598</ele>
        <time>2020-06-01T14:46:11.999Z</time>
      </trkpt>
      <trkpt lat="48.46783" lon="7.12876">
        <ele>599</ele>
        <time>2020-06-01T14:46:19.999Z</time>
      </trkpt>
      <trkpt lat="48.46783" lon="7.1286">
        <ele>599</ele>
        <time>2020-06-01T14:46:24.999Z</time>
      </trkpt>
      <trkpt lat="48.46784" lon="7.12846">
        <ele>599</ele>
        <time>2020-06-01T14:46:33.999Z</time>
      </trkpt>
      <trkpt lat="48.46786" lon="7.12832">
        <ele>602</ele>
        <time>2020-06-01T14:46:43.999Z</time>
      </trkpt>
      <trkpt lat="48.46786" lon="7.12818">
        <ele>602</ele>
        <time>2020-06-01T14:46:53.999Z</time>
      </trkpt>
      <trkpt lat="48.46788" lon="7.12804">
        <ele>603</ele>
        <time>2020-06-01T14:47:02.999Z</time>
      </trkpt>
      <trkpt lat="48.46788" lon="7.12789">
        <ele>603</ele>
        <time>2020-06-01T14:48:47.999Z</time>
      </trkpt>
      <trkpt lat="48.46787" lon="7.12774">
        <ele>603</ele>
        <time>2020-06-01T14:48:57.999Z</time>
      </trkpt>
      <trkpt lat="48.46785" lon="7.12759">
        <ele>603</ele>
        <time>2020-06-01T14:49:06.999Z</time>
      </trkpt>
      <trkpt lat="48.46782" lon="7.12746">
        <ele>603</ele>
        <time>2020-06-01T14:49:14.999Z</time>
      </trkpt>
      <trkpt lat="48.46781" lon="7.12731">
        <ele>604</ele>
        <time>2020-06-01T14:49:22.999Z</time>
      </trkpt>
      <trkpt lat="48.4678" lon="7.12713">
        <ele>604</ele>
        <time>2020-06-01T14:49:29.999Z</time>
      </trkpt>
      <trkpt lat="48.46775" lon="7.127">
        <ele>604</ele>
        <time>2020-06-01T14:50:00.999Z</time>
      </trkpt>
      <trkpt lat="48.46773" lon="7.12714">
        <ele>603</ele>
        <time>2020-06-01T14:50:35.999Z</time>
      </trkpt>
      <trkpt lat="48.4677" lon="7.12732">
        <ele>603</ele>
        <time>2020-06-01T14:50:43.999Z</time>
      </trkpt>
      <trkpt lat="48.46776" lon="7.12745">
        <ele>603</ele>
        <time>2020-06-01T14:52:44.999Z</time>
      </trkpt>
      <trkpt lat="48.4678" lon="7.12758">
        <ele>602</ele>
        <time>2020-06-01T14:52:53.999Z</time>
      </trkpt>
      <trkpt lat="48.46782" lon="7.12772">
        <ele>602</ele>
        <time>2020-06-01T14:53:01.999Z</time>
      </trkpt>
      <trkpt lat="48.46782" lon="7.1279">
        <ele>602</ele>
        <time>2020-06-01T14:53:07.999Z</time>
      </trkpt>
      <trkpt lat="48.46782" lon="7.12806">
        <ele>602</ele>
        <time>2020-06-01T14:53:17.999Z</time>
      </trkpt>
      <trkpt lat="48.46781" lon="7.1282">
        <ele>602</ele>
        <time>2020-06-01T14:53:24.999Z</time>
      </trkpt>
      <trkpt lat="48.46781" lon="7.12836">
        <ele>599</ele>
        <time>2020-06-01T14:53:33.999Z</time>
      </trkpt>
      <trkpt lat="48.46785" lon="7.12849">
        <ele>599</ele>
        <time>2020-06-01T14:53:50.999Z</time>
      </trkpt>
      <trkpt lat="48.46788" lon="7.12863">
        <ele>599</ele>
        <time>2020-06-01T14:54:01.999Z</time>
      </trkpt>
      <trkpt lat="48.46788" lon="7.12878">
        <ele>599</ele>
        <time>2020-06-01T14:54:08.999Z</time>
      </trkpt>
      <trkpt lat="48.4679" lon="7.12893">
        <ele>598</ele>
        <time>2020-06-01T14:54:13.999Z</time>
      </trkpt>
      <trkpt lat="48.46786" lon="7.12907">
        <ele>598</ele>
        <time>2020-06-01T14:54:25.999Z</time>
      </trkpt>
      <trkpt lat="48.46787" lon="7.12921">
        <ele>595</ele>
        <time>2020-06-01T14:54:34.999Z</time>
      </trkpt>
      <trkpt lat="48.46793" lon="7.12933">
        <ele>595</ele>
        <time>2020-06-01T14:54:43.999Z</time>
      </trkpt>
      <trkpt lat="48.46796" lon="7.12948">
        <ele>595</ele>
        <time>2020-06-01T14:54:51.999Z</time>
      </trkpt>
      <trkpt lat="48.46798" lon="7.12962">
        <ele>594</ele>
        <time>2020-06-01T14:54:56.999Z</time>
      </trkpt>
      <trkpt lat="48.46798" lon="7.12976">
        <ele>594</ele>
        <time>2020-06-01T14:55:01.999Z</time>
      </trkpt>
      <trkpt lat="48.46796" lon="7.12991">
        <ele>594</ele>
        <time>2020-06-01T14:55:08.999Z</time>
      </trkpt>
      <trkpt lat="48.46792" lon="7.13004">
        <ele>590</ele>
        <time>2020-06-01T14:55:15.999Z</time>
      </trkpt>
      <trkpt lat="48.46791" lon="7.13018">
        <ele>589</ele>
        <time>2020-06-01T14:55:23.999Z</time>
      </trkpt>
      <trkpt lat="48.46791" lon="7.13033">
        <ele>589</ele>
        <time>2020-06-01T14:55:31.999Z</time>
      </trkpt>
      <trkpt lat="48.46789" lon="7.13047">
        <ele>588</ele>
        <time>2020-06-01T14:55:40.999Z</time>
      </trkpt>
      <trkpt lat="48.46787" lon="7.13061">
        <ele>587</ele>
        <time>2020-06-01T14:55:49.999Z</time>
      </trkpt>
      <trkpt lat="48.46786" lon="7.13074">
        <ele>587</ele>
        <time>2020-06-01T14:55:56.999Z</time>
      </trkpt>
      <trkpt lat="48.46778" lon="7.13069">
        <ele>586</ele>
        <time>2020-06-01T14:56:38.999Z</time>
      </trkpt>
      <trkpt lat="48.46771" lon="7.13058">
        <ele>587</ele>
        <time>2020-06-01T14:57:20.999Z</time>
      </trkpt>
      <trkpt lat="48.46763" lon="7.13065">
        <ele>585</ele>
        <time>2020-06-01T14:57:49.999Z</time>
      </trkpt>
      <trkpt lat="48.46756" lon="7.13075">
        <ele>583</ele>
        <time>2020-06-01T14:58:00.999Z</time>
      </trkpt>
      <trkpt lat="48.46751" lon="7.13088">
        <ele>581</ele>
        <time>2020-06-01T14:58:10.999Z</time>
      </trkpt>
      <trkpt lat="48.46749" lon="7.13103">
        <ele>584</ele>
        <time>2020-06-01T14:58:19.999Z</time>
      </trkpt>
      <trkpt lat="48.46747" lon="7.13117">
        <ele>585</ele>
        <time>2020-06-01T14:58:28.999Z</time>
      </trkpt>
      <trkpt lat="48.46745" lon="7.13132">
        <ele>585</ele>
        <time>2020-06-01T14:58:35.999Z</time>
      </trkpt>
      <trkpt lat="48.46744" lon="7.13145">
        <ele>583</ele>
        <time>2020-06-01T14:58:46.999Z</time>
      </trkpt>
      <trkpt lat="48.46745" lon="7.13159">
        <ele>581</ele>
        <time>2020-06-01T14:58:55.999Z</time>
      </trkpt>
      <trkpt lat="48.46747" lon="7.13172">
        <ele>578</ele>
        <time>2020-06-01T14:59:08.999Z</time>
      </trkpt>
      <trkpt lat="48.46746" lon="7.13187">
        <ele>579</ele>
        <time>2020-06-01T14:59:21.999Z</time>
      </trkpt>
      <trkpt lat="48.4674" lon="7.13199">
        <ele>578</ele>
        <time>2020-06-01T14:59:31.999Z</time>
      </trkpt>
      <trkpt lat="48.46734" lon="7.13209">
        <ele>578</ele>
        <time>2020-06-01T14:59:42.000Z</time>
      </trkpt>
      <trkpt lat="48.46726" lon="7.13217">
        <ele>578</ele>
        <time>2020-06-01T14:59:47.000Z</time>
      </trkpt>
      <trkpt lat="48.46718" lon="7.13227">
        <ele>578</ele>
        <time>2020-06-01T15:00:09.000Z</time>
      </trkpt>
      <trkpt lat="48.46709" lon="7.13229">
        <ele>578</ele>
        <time>2020-06-01T15:00:26.000Z</time>
      </trkpt>
      <trkpt lat="48.467" lon="7.13234">
        <ele>579</ele>
        <time>2020-06-01T15:00:35.000Z</time>
      </trkpt>
      <trkpt lat="48.46691" lon="7.13238">
        <ele>579</ele>
        <time>2020-06-01T15:00:45.000Z</time>
      </trkpt>
      <trkpt lat="48.46683" lon="7.13245">
        <ele>580</ele>
        <time>2020-06-01T15:00:55.000Z</time>
      </trkpt>
      <trkpt lat="48.46675" lon="7.13251">
        <ele>578</ele>
        <time>2020-06-01T15:01:07.000Z</time>
      </trkpt>
      <trkpt lat="48.46667" lon="7.13257">
        <ele>578</ele>
        <time>2020-06-01T15:01:17.000Z</time>
      </trkpt>
      <trkpt lat="48.4666" lon="7.13267">
        <ele>588</ele>
        <time>2020-06-01T15:01:28.000Z</time>
      </trkpt>
      <trkpt lat="48.46652" lon="7.13271">
        <ele>591</ele>
        <time>2020-06-01T15:01:40.000Z</time>
      </trkpt>
      <trkpt lat="48.46643" lon="7.13276">
        <ele>593</ele>
        <time>2020-06-01T15:01:49.000Z</time>
      </trkpt>
      <trkpt lat="48.46636" lon="7.13284">
        <ele>595</ele>
        <time>2020-06-01T15:02:53.000Z</time>
      </trkpt>
      <trkpt lat="48.4663" lon="7.13297">
        <ele>596</ele>
        <time>2020-06-01T15:03:05.000Z</time>
      </trkpt>
      <trkpt lat="48.46628" lon="7.1331">
        <ele>596</ele>
        <time>2020-06-01T15:03:12.000Z</time>
      </trkpt>
      <trkpt lat="48.46627" lon="7.13324">
        <ele>596</ele>
        <time>2020-06-01T15:03:20.000Z</time>
      </trkpt>
      <trkpt lat="48.46627" lon="7.13339">
        <ele>594</ele>
        <time>2020-06-01T15:03:28.000Z</time>
      </trkpt>
      <trkpt lat="48.46628" lon="7.13353">
        <ele>593</ele>
        <time>2020-06-01T15:03:38.000Z</time>
      </trkpt>
      <trkpt lat="48.46629" lon="7.13368">
        <ele>593</ele>
        <time>2020-06-01T15:03:47.000Z</time>
      </trkpt>
      <trkpt lat="48.46631" lon="7.13382">
        <ele>593</ele>
        <time>2020-06-01T15:03:55.000Z</time>
      </trkpt>
      <trkpt lat="48.46632" lon="7.13396">
        <ele>592</ele>
        <time>2020-06-01T15:04:03.000Z</time>
      </trkpt>
      <trkpt lat="48.46632" lon="7.13412">
        <ele>592</ele>
        <time>2020-06-01T15:04:09.000Z</time>
      </trkpt>
      <trkpt lat="48.46632" lon="7.13426">
        <ele>590</ele>
        <time>2020-06-01T15:04:17.000Z</time>
      </trkpt>
      <trkpt lat="48.46633" lon="7.13442">
        <ele>589</ele>
        <time>2020-06-01T15:04:36.000Z</time>
      </trkpt>
      <trkpt lat="48.46634" lon="7.13455">
        <ele>589</ele>
        <time>2020-06-01T15:04:45.000Z</time>
      </trkpt>
      <trkpt lat="48.46633" lon="7.13469">
        <ele>589</ele>
        <time>2020-06-01T15:04:54.000Z</time>
      </trkpt>
      <trkpt lat="48.46634" lon="7.13483">
        <ele>588</ele>
        <time>2020-06-01T15:05:01.000Z</time>
      </trkpt>
      <trkpt lat="48.46634" lon="7.13497">
        <ele>588</ele>
        <time>2020-06-01T15:05:10.000Z</time>
      </trkpt>
      <trkpt lat="48.46633" lon="7.13511">
        <ele>586</ele>
        <time>2020-06-01T15:05:19.000Z</time>
      </trkpt>
      <trkpt lat="48.46632" lon="7.13525">
        <ele>586</ele>
        <time>2020-06-01T15:05:27.000Z</time>
      </trkpt>
      <trkpt lat="48.4663" lon="7.13539">
        <ele>587</ele>
        <time>2020-06-01T15:05:33.000Z</time>
      </trkpt>
      <trkpt lat="48.46628" lon="7.13554">
        <ele>587</ele>
        <time>2020-06-01T15:05:42.000Z</time>
      </trkpt>
      <trkpt lat="48.46626" lon="7.13568">
        <ele>587</ele>
        <time>2020-06-01T15:05:51.000Z</time>
      </trkpt>
      <trkpt lat="48.46624" lon="7.13582">
        <ele>587</ele>
        <time>2020-06-01T15:05:59.000Z</time>
      </trkpt>
      <trkpt lat="48.46621" lon="7.13595">
        <ele>584</ele>
        <time>2020-06-01T15:06:08.000Z</time>
      </trkpt>
      <trkpt lat="48.46618" lon="7.13612">
        <ele>584</ele>
        <time>2020-06-01T15:06:13.000Z</time>
      </trkpt>
      <trkpt lat="48.46614" lon="7.13625">
        <ele>584</ele>
        <time>2020-06-01T15:06:27.000Z</time>
      </trkpt>
      <trkpt lat="48.46608" lon="7.13635">
        <ele>584</ele>
        <time>2020-06-01T15:06:33.000Z</time>
      </trkpt>
      <trkpt lat="48.46605" lon="7.13649">
        <ele>585</ele>
        <time>2020-06-01T15:06:44.000Z</time>
      </trkpt>
      <trkpt lat="48.466" lon="7.13662">
        <ele>586</ele>
        <time>2020-06-01T15:06:53.000Z</time>
      </trkpt>
      <trkpt lat="48.46596" lon="7.13676">
        <ele>583</ele>
        <time>2020-06-01T15:07:00.000Z</time>
      </trkpt>
      <trkpt lat="48.46595" lon="7.13691">
        <ele>580</ele>
        <time>2020-06-01T15:07:10.000Z</time>
      </trkpt>
      <trkpt lat="48.46593" lon="7.13706">
        <ele>579</ele>
        <time>2020-06-01T15:07:19.000Z</time>
      </trkpt>
      <trkpt lat="48.46592" lon="7.13721">
        <ele>578</ele>
        <time>2020-06-01T15:07:28.000Z</time>
      </trkpt>
      <trkpt lat="48.46591" lon="7.13736">
        <ele>578</ele>
        <time>2020-06-01T15:07:38.000Z</time>
      </trkpt>
      <trkpt lat="48.46588" lon="7.13751">
        <ele>577</ele>
        <time>2020-06-01T15:07:49.000Z</time>
      </trkpt>
      <trkpt lat="48.46585" lon="7.13766">
        <ele>573</ele>
        <time>2020-06-01T15:07:55.000Z</time>
      </trkpt>
      <trkpt lat="48.46582" lon="7.13781">
        <ele>576</ele>
        <time>2020-06-01T15:08:01.000Z</time>
      </trkpt>
      <trkpt lat="48.46582" lon="7.13795">
        <ele>575</ele>
        <time>2020-06-01T15:08:10.000Z</time>
      </trkpt>
      <trkpt lat="48.46579" lon="7.13808">
        <ele>573</ele>
        <time>2020-06-01T15:08:23.000Z</time>
      </trkpt>
      <trkpt lat="48.46577" lon="7.13822">
        <ele>571</ele>
        <time>2020-06-01T15:08:30.000Z</time>
      </trkpt>
      <trkpt lat="48.46575" lon="7.13836">
        <ele>567</ele>
        <time>2020-06-01T15:08:38.000Z</time>
      </trkpt>
      <trkpt lat="48.46575" lon="7.13851">
        <ele>566</ele>
        <time>2020-06-01T15:08:44.000Z</time>
      </trkpt>
      <trkpt lat="48.46575" lon="7.13865">
        <ele>565</ele>
        <time>2020-06-01T15:08:53.000Z</time>
      </trkpt>
      <trkpt lat="48.46575" lon="7.1388">
        <ele>564</ele>
        <time>2020-06-01T15:09:01.000Z</time>
      </trkpt>
      <trkpt lat="48.46575" lon="7.13895">
        <ele>564</ele>
        <time>2020-06-01T15:09:07.000Z</time>
      </trkpt>
      <trkpt lat="48.46574" lon="7.13909">
        <ele>563</ele>
        <time>2020-06-01T15:09:15.000Z</time>
      </trkpt>
      <trkpt lat="48.46576" lon="7.13923">
        <ele>561</ele>
        <time>2020-06-01T15:09:23.000Z</time>
      </trkpt>
      <trkpt lat="48.4658" lon="7.13936">
        <ele>560</ele>
        <time>2020-06-01T15:09:33.000Z</time>
      </trkpt>
      <trkpt lat="48.46571" lon="7.13945">
        <ele>560</ele>
        <time>2020-06-01T15:10:08.000Z</time>
      </trkpt>
      <trkpt lat="48.46562" lon="7.13946">
        <ele>560</ele>
        <time>2020-06-01T15:10:22.000Z</time>
      </trkpt>
      <trkpt lat="48.46554" lon="7.13954">
        <ele>559</ele>
        <time>2020-06-01T15:10:36.000Z</time>
      </trkpt>
      <trkpt lat="48.46538" lon="7.13959">
        <ele>558</ele>
        <time>2020-06-01T15:10:46.000Z</time>
      </trkpt>
      <trkpt lat="48.46529" lon="7.13964">
        <ele>558</ele>
        <time>2020-06-01T15:10:58.000Z</time>
      </trkpt>
      <trkpt lat="48.4652" lon="7.13965">
        <ele>557</ele>
        <time>2020-06-01T15:11:11.000Z</time>
      </trkpt>
      <trkpt lat="48.4651" lon="7.13963">
        <ele>557</ele>
        <time>2020-06-01T15:11:19.000Z</time>
      </trkpt>
      <trkpt lat="48.46502" lon="7.13955">
        <ele>557</ele>
        <time>2020-06-01T15:11:31.000Z</time>
      </trkpt>
      <trkpt lat="48.46495" lon="7.13945">
        <ele>551</ele>
        <time>2020-06-01T15:11:37.000Z</time>
      </trkpt>
      <trkpt lat="48.46487" lon="7.13937">
        <ele>551</ele>
        <time>2020-06-01T15:11:47.000Z</time>
      </trkpt>
      <trkpt lat="48.46479" lon="7.1393">
        <ele>551</ele>
        <time>2020-06-01T15:11:56.000Z</time>
      </trkpt>
      <trkpt lat="48.4647" lon="7.13927">
        <ele>550</ele>
        <time>2020-06-01T15:12:07.000Z</time>
      </trkpt>
      <trkpt lat="48.46462" lon="7.13921">
        <ele>549</ele>
        <time>2020-06-01T15:12:16.000Z</time>
      </trkpt>
      <trkpt lat="48.46453" lon="7.13916">
        <ele>556</ele>
        <time>2020-06-01T15:12:22.000Z</time>
      </trkpt>
      <trkpt lat="48.46445" lon="7.1391">
        <ele>555</ele>
        <time>2020-06-01T15:12:30.000Z</time>
      </trkpt>
      <trkpt lat="48.4644" lon="7.13898">
        <ele>556</ele>
        <time>2020-06-01T15:12:44.000Z</time>
      </trkpt>
      <trkpt lat="48.4643" lon="7.13892">
        <ele>556</ele>
        <time>2020-06-01T15:12:51.000Z</time>
      </trkpt>
      <trkpt lat="48.4642" lon="7.13886">
        <ele>556</ele>
        <time>2020-06-01T15:12:58.000Z</time>
      </trkpt>
      <trkpt lat="48.46411" lon="7.13883">
        <ele>550</ele>
        <time>2020-06-01T15:13:07.000Z</time>
      </trkpt>
      <trkpt lat="48.46402" lon="7.13886">
        <ele>549</ele>
        <time>2020-06-01T15:13:19.000Z</time>
      </trkpt>
      <trkpt lat="48.46393" lon="7.13886">
        <ele>549</ele>
        <time>2020-06-01T15:13:30.000Z</time>
      </trkpt>
      <trkpt lat="48.46384" lon="7.13891">
        <ele>548</ele>
        <time>2020-06-01T15:13:45.000Z</time>
      </trkpt>
      <trkpt lat="48.46374" lon="7.13891">
        <ele>547</ele>
        <time>2020-06-01T15:13:55.000Z</time>
      </trkpt>
      <trkpt lat="48.46364" lon="7.13891">
        <ele>546</ele>
        <time>2020-06-01T15:14:03.000Z</time>
      </trkpt>
      <trkpt lat="48.46355" lon="7.13892">
        <ele>544</ele>
        <time>2020-06-01T15:14:12.000Z</time>
      </trkpt>
      <trkpt lat="48.46345" lon="7.13891">
        <ele>543</ele>
        <time>2020-06-01T15:14:20.000Z</time>
      </trkpt>
      <trkpt lat="48.46336" lon="7.13887">
        <ele>544</ele>
        <time>2020-06-01T15:14:31.000Z</time>
      </trkpt>
      <trkpt lat="48.46327" lon="7.13881">
        <ele>536</ele>
        <time>2020-06-01T15:14:49.000Z</time>
      </trkpt>
      <trkpt lat="48.4632" lon="7.13873">
        <ele>537</ele>
        <time>2020-06-01T15:14:55.000Z</time>
      </trkpt>
      <trkpt lat="48.4631" lon="7.13872">
        <ele>537</ele>
        <time>2020-06-01T15:15:01.000Z</time>
      </trkpt>
      <trkpt lat="48.463" lon="7.13866">
        <ele>537</ele>
        <time>2020-06-01T15:15:13.000Z</time>
      </trkpt>
      <trkpt lat="48.46289" lon="7.13864">
        <ele>536</ele>
        <time>2020-06-01T15:15:18.000Z</time>
      </trkpt>
      <trkpt lat="48.46275" lon="7.13871">
        <ele>534</ele>
        <time>2020-06-01T15:15:30.000Z</time>
      </trkpt>
      <trkpt lat="48.46281" lon="7.13881">
        <ele>534</ele>
        <time>2020-06-01T15:17:03.000Z</time>
      </trkpt>
      <trkpt lat="48.46272" lon="7.13878">
        <ele>534</ele>
        <time>2020-06-01T15:17:56.000Z</time>
      </trkpt>
      <trkpt lat="48.46263" lon="7.13883">
        <ele>533</ele>
        <time>2020-06-01T15:18:02.000Z</time>
      </trkpt>
      <trkpt lat="48.46255" lon="7.13891">
        <ele>531</ele>
        <time>2020-06-01T15:18:12.000Z</time>
      </trkpt>
      <trkpt lat="48.46249" lon="7.13901">
        <ele>526</ele>
        <time>2020-06-01T15:18:26.000Z</time>
      </trkpt>
      <trkpt lat="48.4624" lon="7.139">
        <ele>527</ele>
        <time>2020-06-01T15:18:37.000Z</time>
      </trkpt>
      <trkpt lat="48.46231" lon="7.13906">
        <ele>527</ele>
        <time>2020-06-01T15:18:51.000Z</time>
      </trkpt>
      <trkpt lat="48.46223" lon="7.13912">
        <ele>527</ele>
        <time>2020-06-01T15:19:02.000Z</time>
      </trkpt>
      <trkpt lat="48.46233" lon="7.13912">
        <ele>527</ele>
        <time>2020-06-01T15:19:24.000Z</time>
      </trkpt>
      <trkpt lat="48.46224" lon="7.13918">
        <ele>527</ele>
        <time>2020-06-01T15:19:49.000Z</time>
      </trkpt>
      <trkpt lat="48.46214" lon="7.1392">
        <ele>528</ele>
        <time>2020-06-01T15:19:57.000Z</time>
      </trkpt>
      <trkpt lat="48.46206" lon="7.13928">
        <ele>528</ele>
        <time>2020-06-01T15:20:02.000Z</time>
      </trkpt>
      <trkpt lat="48.46205" lon="7.13942">
        <ele>528</ele>
        <time>2020-06-01T15:20:10.000Z</time>
      </trkpt>
      <trkpt lat="48.46206" lon="7.13956">
        <ele>529</ele>
        <time>2020-06-01T15:20:17.000Z</time>
      </trkpt>
      <trkpt lat="48.46212" lon="7.13966">
        <ele>528</ele>
        <time>2020-06-01T15:20:28.000Z</time>
      </trkpt>
      <trkpt lat="48.46208" lon="7.13978">
        <ele>529</ele>
        <time>2020-06-01T15:20:39.000Z</time>
      </trkpt>
      <trkpt lat="48.46209" lon="7.13992">
        <ele>529</ele>
        <time>2020-06-01T15:20:51.000Z</time>
      </trkpt>
      <trkpt lat="48.46203" lon="7.14002">
        <ele>532</ele>
        <time>2020-06-01T15:21:27.000Z</time>
      </trkpt>
      <trkpt lat="48.46193" lon="7.14003">
        <ele>533</ele>
        <time>2020-06-01T15:21:34.000Z</time>
      </trkpt>
      <trkpt lat="48.46183" lon="7.14002">
        <ele>534</ele>
        <time>2020-06-01T15:21:40.000Z</time>
      </trkpt>
      <trkpt lat="48.46177" lon="7.14012">
        <ele>534</ele>
        <time>2020-06-01T15:21:54.000Z</time>
      </trkpt>
      <trkpt lat="48.46177" lon="7.14026">
        <ele>534</ele>
        <time>2020-06-01T15:22:50.000Z</time>
      </trkpt>
      <trkpt lat="48.46168" lon="7.14029">
        <ele>534</ele>
        <time>2020-06-01T15:23:10.000Z</time>
      </trkpt>
      <trkpt lat="48.46159" lon="7.14037">
        <ele>541</ele>
        <time>2020-06-01T15:23:22.000Z</time>
      </trkpt>
      <trkpt lat="48.46151" lon="7.14044">
        <ele>541</ele>
        <time>2020-06-01T15:23:31.000Z</time>
      </trkpt>
      <trkpt lat="48.46142" lon="7.14049">
        <ele>542</ele>
        <time>2020-06-01T15:23:39.000Z</time>
      </trkpt>
      <trkpt lat="48.46134" lon="7.14055">
        <ele>542</ele>
        <time>2020-06-01T15:23:48.000Z</time>
      </trkpt>
      <trkpt lat="48.46126" lon="7.14064">
        <ele>543</ele>
        <time>2020-06-01T15:23:58.000Z</time>
      </trkpt>
      <trkpt lat="48.46117" lon="7.14066">
        <ele>544</ele>
        <time>2020-06-01T15:24:09.000Z</time>
      </trkpt>
      <trkpt lat="48.46108" lon="7.14069">
        <ele>545</ele>
        <time>2020-06-01T15:24:21.000Z</time>
      </trkpt>
      <trkpt lat="48.461" lon="7.14074">
        <ele>546</ele>
        <time>2020-06-01T15:24:30.000Z</time>
      </trkpt>
      <trkpt lat="48.46092" lon="7.14083">
        <ele>548</ele>
        <time>2020-06-01T15:24:39.000Z</time>
      </trkpt>
      <trkpt lat="48.46084" lon="7.14091">
        <ele>549</ele>
        <time>2020-06-01T15:24:47.000Z</time>
      </trkpt>
      <trkpt lat="48.46075" lon="7.14097">
        <ele>553</ele>
        <time>2020-06-01T15:24:56.000Z</time>
      </trkpt>
      <trkpt lat="48.46067" lon="7.14105">
        <ele>554</ele>
        <time>2020-06-01T15:25:07.000Z</time>
      </trkpt>
      <trkpt lat="48.46058" lon="7.14108">
        <ele>555</ele>
        <time>2020-06-01T15:25:18.000Z</time>
      </trkpt>
      <trkpt lat="48.4605" lon="7.14114">
        <ele>556</ele>
        <time>2020-06-01T15:25:32.000Z</time>
      </trkpt>
      <trkpt lat="48.46041" lon="7.14123">
        <ele>557</ele>
        <time>2020-06-01T15:25:41.000Z</time>
      </trkpt>
      <trkpt lat="48.46035" lon="7.14134">
        <ele>557</ele>
        <time>2020-06-01T15:25:52.000Z</time>
      </trkpt>
      <trkpt lat="48.46027" lon="7.14143">
        <ele>558</ele>
        <time>2020-06-01T15:26:02.000Z</time>
      </trkpt>
      <trkpt lat="48.46019" lon="7.14149">
        <ele>559</ele>
        <time>2020-06-01T15:26:26.000Z</time>
      </trkpt>
      <trkpt lat="48.4601" lon="7.14155">
        <ele>560</ele>
        <time>2020-06-01T15:26:33.000Z</time>
      </trkpt>
      <trkpt lat="48.46" lon="7.14158">
        <ele>562</ele>
        <time>2020-06-01T15:26:40.000Z</time>
      </trkpt>
      <trkpt lat="48.45991" lon="7.1416">
        <ele>565</ele>
        <time>2020-06-01T15:26:46.000Z</time>
      </trkpt>
      <trkpt lat="48.45981" lon="7.14161">
        <ele>566</ele>
        <time>2020-06-01T15:26:54.000Z</time>
      </trkpt>
      <trkpt lat="48.45972" lon="7.14164">
        <ele>567</ele>
        <time>2020-06-01T15:27:12.000Z</time>
      </trkpt>
      <trkpt lat="48.45962" lon="7.14165">
        <ele>568</ele>
        <time>2020-06-01T15:27:22.000Z</time>
      </trkpt>
      <trkpt lat="48.45952" lon="7.14163">
        <ele>568</ele>
        <time>2020-06-01T15:27:30.000Z</time>
      </trkpt>
      <trkpt lat="48.45943" lon="7.14163">
        <ele>569</ele>
        <time>2020-06-01T15:27:42.000Z</time>
      </trkpt>
      <trkpt lat="48.45933" lon="7.14165">
        <ele>571</ele>
        <time>2020-06-01T15:27:53.000Z</time>
      </trkpt>
      <trkpt lat="48.45924" lon="7.14166">
        <ele>572</ele>
        <time>2020-06-01T15:28:02.000Z</time>
      </trkpt>
      <trkpt lat="48.45914" lon="7.14166">
        <ele>574</ele>
        <time>2020-06-01T15:28:10.000Z</time>
      </trkpt>
      <trkpt lat="48.45905" lon="7.14165">
        <ele>575</ele>
        <time>2020-06-01T15:28:19.000Z</time>
      </trkpt>
      <trkpt lat="48.45896" lon="7.14167">
        <ele>578</ele>
        <time>2020-06-01T15:28:29.000Z</time>
      </trkpt>
      <trkpt lat="48.45887" lon="7.14172">
        <ele>579</ele>
        <time>2020-06-01T15:28:37.000Z</time>
      </trkpt>
      <trkpt lat="48.45882" lon="7.14183">
        <ele>579</ele>
        <time>2020-06-01T15:28:47.000Z</time>
      </trkpt>
      <trkpt lat="48.45874" lon="7.14191">
        <ele>580</ele>
        <time>2020-06-01T15:29:01.000Z</time>
      </trkpt>
      <trkpt lat="48.45865" lon="7.14197">
        <ele>581</ele>
        <time>2020-06-01T15:29:09.000Z</time>
      </trkpt>
      <trkpt lat="48.45857" lon="7.14206">
        <ele>581</ele>
        <time>2020-06-01T15:29:15.000Z</time>
      </trkpt>
      <trkpt lat="48.4585" lon="7.14216">
        <ele>582</ele>
        <time>2020-06-01T15:29:21.000Z</time>
      </trkpt>
      <trkpt lat="48.45842" lon="7.14226">
        <ele>583</ele>
        <time>2020-06-01T15:29:31.000Z</time>
      </trkpt>
      <trkpt lat="48.45837" lon="7.14239">
        <ele>584</ele>
        <time>2020-06-01T15:29:44.000Z</time>
      </trkpt>
      <trkpt lat="48.4583" lon="7.1425">
        <ele>588</ele>
        <time>2020-06-01T15:29:51.000Z</time>
      </trkpt>
      <trkpt lat="48.45824" lon="7.14261">
        <ele>591</ele>
        <time>2020-06-01T15:30:03.000Z</time>
      </trkpt>
      <trkpt lat="48.45817" lon="7.14269">
        <ele>593</ele>
        <time>2020-06-01T15:30:11.000Z</time>
      </trkpt>
      <trkpt lat="48.45809" lon="7.14277">
        <ele>595</ele>
        <time>2020-06-01T15:30:23.000Z</time>
      </trkpt>
      <trkpt lat="48.458" lon="7.14283">
        <ele>596</ele>
        <time>2020-06-01T15:30:30.000Z</time>
      </trkpt>
      <trkpt lat="48.45791" lon="7.14286">
        <ele>597</ele>
        <time>2020-06-01T15:30:38.000Z</time>
      </trkpt>
      <trkpt lat="48.45781" lon="7.1429">
        <ele>598</ele>
        <time>2020-06-01T15:30:46.000Z</time>
      </trkpt>
      <trkpt lat="48.45771" lon="7.14295">
        <ele>599</ele>
        <time>2020-06-01T15:30:54.000Z</time>
      </trkpt>
      <trkpt lat="48.45763" lon="7.14301">
        <ele>600</ele>
        <time>2020-06-01T15:31:03.000Z</time>
      </trkpt>
      <trkpt lat="48.45754" lon="7.14309">
        <ele>601</ele>
        <time>2020-06-01T15:31:13.000Z</time>
      </trkpt>
      <trkpt lat="48.45747" lon="7.14317">
        <ele>613</ele>
        <time>2020-06-01T15:31:22.000Z</time>
      </trkpt>
      <trkpt lat="48.45738" lon="7.14324">
        <ele>613</ele>
        <time>2020-06-01T15:31:29.000Z</time>
      </trkpt>
      <trkpt lat="48.45729" lon="7.1433">
        <ele>616</ele>
        <time>2020-06-01T15:31:38.000Z</time>
      </trkpt>
      <trkpt lat="48.45724" lon="7.14344">
        <ele>617</ele>
        <time>2020-06-01T15:31:48.000Z</time>
      </trkpt>
      <trkpt lat="48.4572" lon="7.14356">
        <ele>619</ele>
        <time>2020-06-01T15:31:56.000Z</time>
      </trkpt>
      <trkpt lat="48.45715" lon="7.14369">
        <ele>620</ele>
        <time>2020-06-01T15:32:05.000Z</time>
      </trkpt>
      <trkpt lat="48.45713" lon="7.14383">
        <ele>620</ele>
        <time>2020-06-01T15:32:19.000Z</time>
      </trkpt>
      <trkpt lat="48.45707" lon="7.14394">
        <ele>621</ele>
        <time>2020-06-01T15:32:32.000Z</time>
      </trkpt>
      <trkpt lat="48.45699" lon="7.14403">
        <ele>623</ele>
        <time>2020-06-01T15:32:41.000Z</time>
      </trkpt>
      <trkpt lat="48.45694" lon="7.14414">
        <ele>624</ele>
        <time>2020-06-01T15:32:48.999Z</time>
      </trkpt>
      <trkpt lat="48.45691" lon="7.14428">
        <ele>624</ele>
        <time>2020-06-01T15:33:00.999Z</time>
      </trkpt>
      <trkpt lat="48.45687" lon="7.14445">
        <ele>623</ele>
        <time>2020-06-01T15:33:05.999Z</time>
      </trkpt>
      <trkpt lat="48.45688" lon="7.1446">
        <ele>623</ele>
        <time>2020-06-01T15:33:14.999Z</time>
      </trkpt>
      <trkpt lat="48.45688" lon="7.14474">
        <ele>623</ele>
        <time>2020-06-01T15:33:24.999Z</time>
      </trkpt>
      <trkpt lat="48.45684" lon="7.14488">
        <ele>625</ele>
        <time>2020-06-01T15:33:34.999Z</time>
      </trkpt>
      <trkpt lat="48.4568" lon="7.145">
        <ele>627</ele>
        <time>2020-06-01T15:33:43.999Z</time>
      </trkpt>
      <trkpt lat="48.45675" lon="7.14513">
        <ele>626</ele>
        <time>2020-06-01T15:33:53.999Z</time>
      </trkpt>
      <trkpt lat="48.4567" lon="7.14525">
        <ele>624</ele>
        <time>2020-06-01T15:34:02.999Z</time>
      </trkpt>
      <trkpt lat="48.45663" lon="7.14538">
        <ele>639</ele>
        <time>2020-06-01T15:34:07.999Z</time>
      </trkpt>
      <trkpt lat="48.45655" lon="7.14546">
        <ele>639</ele>
        <time>2020-06-01T15:34:14.999Z</time>
      </trkpt>
      <trkpt lat="48.45649" lon="7.14557">
        <ele>639</ele>
        <time>2020-06-01T15:34:21.999Z</time>
      </trkpt>
      <trkpt lat="48.45647" lon="7.14571">
        <ele>637</ele>
        <time>2020-06-01T15:34:29.999Z</time>
      </trkpt>
      <trkpt lat="48.45642" lon="7.14581">
        <ele>638</ele>
        <time>2020-06-01T15:34:39.999Z</time>
      </trkpt>
      <trkpt lat="48.45635" lon="7.14592">
        <ele>637</ele>
        <time>2020-06-01T15:34:46.999Z</time>
      </trkpt>
      <trkpt lat="48.45632" lon="7.14605">
        <ele>638</ele>
        <time>2020-06-01T15:34:55.999Z</time>
      </trkpt>
      <trkpt lat="48.45628" lon="7.14619">
        <ele>638</ele>
        <time>2020-06-01T15:35:04.999Z</time>
      </trkpt>
      <trkpt lat="48.45625" lon="7.14632">
        <ele>639</ele>
        <time>2020-06-01T15:35:10.999Z</time>
      </trkpt>
      <trkpt lat="48.45625" lon="7.14646">
        <ele>639</ele>
        <time>2020-06-01T15:35:18.999Z</time>
      </trkpt>
      <trkpt lat="48.45622" lon="7.14659">
        <ele>639</ele>
        <time>2020-06-01T15:35:26.999Z</time>
      </trkpt>
      <trkpt lat="48.4562" lon="7.14673">
        <ele>638</ele>
        <time>2020-06-01T15:35:35.999Z</time>
      </trkpt>
      <trkpt lat="48.45615" lon="7.14685">
        <ele>639</ele>
        <time>2020-06-01T15:35:41.999Z</time>
      </trkpt>
      <trkpt lat="48.4561" lon="7.14698">
        <ele>639</ele>
        <time>2020-06-01T15:35:47.999Z</time>
      </trkpt>
      <trkpt lat="48.45606" lon="7.14711">
        <ele>639</ele>
        <time>2020-06-01T15:35:54.999Z</time>
      </trkpt>
      <trkpt lat="48.45601" lon="7.14723">
        <ele>639</ele>
        <time>2020-06-01T15:36:02.999Z</time>
      </trkpt>
      <trkpt lat="48.45594" lon="7.14732">
        <ele>641</ele>
        <time>2020-06-01T15:36:10.999Z</time>
      </trkpt>
      <trkpt lat="48.45585" lon="7.14738">
        <ele>642</ele>
        <time>2020-06-01T15:36:17.999Z</time>
      </trkpt>
      <trkpt lat="48.45578" lon="7.14748">
        <ele>647</ele>
        <time>2020-06-01T15:36:26.999Z</time>
      </trkpt>
      <trkpt lat="48.45571" lon="7.14758">
        <ele>645</ele>
        <time>2020-06-01T15:36:34.999Z</time>
      </trkpt>
      <trkpt lat="48.45565" lon="7.14768">
        <ele>645</ele>
        <time>2020-06-01T15:36:43.999Z</time>
      </trkpt>
      <trkpt lat="48.45556" lon="7.14771">
        <ele>645</ele>
        <time>2020-06-01T15:36:52.999Z</time>
      </trkpt>
      <trkpt lat="48.45548" lon="7.1478">
        <ele>645</ele>
        <time>2020-06-01T15:37:04.999Z</time>
      </trkpt>
      <trkpt lat="48.45542" lon="7.1479">
        <ele>644</ele>
        <time>2020-06-01T15:37:13.999Z</time>
      </trkpt>
      <trkpt lat="48.45535" lon="7.14801">
        <ele>644</ele>
        <time>2020-06-01T15:37:24.999Z</time>
      </trkpt>
      <trkpt lat="48.4553" lon="7.14813">
        <ele>643</ele>
        <time>2020-06-01T15:37:33.999Z</time>
      </trkpt>
      <trkpt lat="48.45527" lon="7.14826">
        <ele>642</ele>
        <time>2020-06-01T15:37:41.999Z</time>
      </trkpt>
      <trkpt lat="48.45531" lon="7.1484">
        <ele>636</ele>
        <time>2020-06-01T15:37:46.999Z</time>
      </trkpt>
      <trkpt lat="48.4554" lon="7.14847">
        <ele>636</ele>
        <time>2020-06-01T15:37:56.999Z</time>
      </trkpt>
      <trkpt lat="48.4555" lon="7.14852">
        <ele>636</ele>
        <time>2020-06-01T15:38:01.999Z</time>
      </trkpt>
      <trkpt lat="48.45559" lon="7.14859">
        <ele>636</ele>
        <time>2020-06-01T15:38:08.999Z</time>
      </trkpt>
      <trkpt lat="48.45568" lon="7.14866">
        <ele>636</ele>
        <time>2020-06-01T15:38:17.999Z</time>
      </trkpt>
      <trkpt lat="48.45576" lon="7.14873">
        <ele>636</ele>
        <time>2020-06-01T15:38:25.999Z</time>
      </trkpt>
      <trkpt lat="48.45584" lon="7.14881">
        <ele>637</ele>
        <time>2020-06-01T15:38:33.999Z</time>
      </trkpt>
      <trkpt lat="48.45592" lon="7.14889">
        <ele>637</ele>
        <time>2020-06-01T15:38:41.999Z</time>
      </trkpt>
      <trkpt lat="48.45599" lon="7.14898">
        <ele>637</ele>
        <time>2020-06-01T15:38:52.999Z</time>
      </trkpt>
      <trkpt lat="48.45604" lon="7.14912">
        <ele>637</ele>
        <time>2020-06-01T15:39:01.999Z</time>
      </trkpt>
      <trkpt lat="48.45605" lon="7.14927">
        <ele>637</ele>
        <time>2020-06-01T15:39:08.999Z</time>
      </trkpt>
      <trkpt lat="48.45608" lon="7.14941">
        <ele>637</ele>
        <time>2020-06-01T15:39:16.999Z</time>
      </trkpt>
      <trkpt lat="48.45611" lon="7.14954">
        <ele>637</ele>
        <time>2020-06-01T15:39:25.999Z</time>
      </trkpt>
      <trkpt lat="48.45612" lon="7.1496">
        <ele>637</ele>
        <time>2020-06-01T15:39:32.999Z</time>
      </trkpt>
    </trkseg>
  </trk>
</gpx>